Provisional Data: Little Clearfield Creek near Dimeling, PA


Please select a monitoring station.
Please select start date.
Please select start date.

Toggle Unit: C/F Toggle Unit: C/F
Sample Time Temperature (C) Temperature (F) Specific Conductivity (mS/cm) pH   Turbidity (NTU+) DO (mg/L)
10/22/2021 12:00:00 AM 13.38 56.084 0.419 7.83 13.17 9.63
10/22/2021 12:15:00 AM 13.33 55.994 0.421 7.83 12.63 9.64
10/22/2021 12:30:00 AM 13.26 55.868 0.421 7.83 11.93 9.63
10/22/2021 12:45:00 AM 13.22 55.796 0.422 7.84 11.37 9.66
10/22/2021 1:00:00 AM 13.17 55.706 0.422 7.83 11.53 9.65
10/22/2021 1:15:00 AM 13.13 55.634 0.423 7.83 11.52 9.71
10/22/2021 1:30:00 AM 13.09 55.562 0.422 7.83 11.61 9.69
10/22/2021 1:45:00 AM 13.06 55.508 0.422 7.83 11.41 9.72
10/22/2021 2:00:00 AM 13.03 55.454 0.422 7.83 11.46 9.7
10/22/2021 2:15:00 AM 13.01 55.418 0.421 7.82 11.37 9.72
10/22/2021 2:30:00 AM 12.97 55.346 0.422 7.83 11.44 9.74
10/22/2021 2:45:00 AM 12.94 55.292 0.423 7.83 11.32 9.76
10/22/2021 3:00:00 AM 12.92 55.256 0.423 7.83 11.38 9.77
10/22/2021 3:15:00 AM 12.85 55.13 0.424 7.83 11.48 9.77
10/22/2021 3:30:00 AM 12.8 55.04 0.424 7.82 11.21 9.79
10/22/2021 3:45:00 AM 12.79 55.022 0.425 7.82 11.21 9.79
10/22/2021 4:00:00 AM 12.77 54.986 0.425 7.82 11.21 9.79
10/22/2021 4:15:00 AM 12.74 54.932 0.426 7.82 11.59 9.81
10/22/2021 4:30:00 AM 12.71 54.878 0.426 7.82 12.47 9.84
10/22/2021 4:45:00 AM 12.69 54.842 0.425 7.82 13.24 9.83
10/22/2021 5:00:00 AM 12.66 54.788 0.425 7.82 13.78 9.79
10/22/2021 5:15:00 AM 12.63 54.734 0.424 7.81 13.9 9.77
10/22/2021 5:30:00 AM 12.61 54.698 0.424 7.82 14.13 9.8
10/22/2021 5:45:00 AM 12.59 54.662 0.424 7.82 14.23 9.85
10/22/2021 6:00:00 AM 12.57 54.626 0.424 7.82 13.44 9.86
10/22/2021 6:15:00 AM 12.55 54.59 0.425 7.82 12.88 9.87
10/22/2021 6:30:00 AM 12.53 54.554 0.426 7.82 12.47 9.83
10/22/2021 6:45:00 AM 12.51 54.518 0.427 7.82 12.23 9.88
10/22/2021 7:00:00 AM 12.5 54.5 0.427 7.83 11.83 9.9
10/22/2021 7:15:00 AM 12.48 54.464 0.428 7.83 11.54 9.89
10/22/2021 7:30:00 AM 12.46 54.428 0.428 7.84 11.41 9.91
10/22/2021 7:45:00 AM 12.44 54.392 0.428 7.83 11.49 9.88
10/22/2021 8:00:00 AM 12.43 54.374 0.428 7.84 11.42 9.93
10/22/2021 8:15:00 AM 12.41 54.338 0.428 7.84 11.26 9.88
10/22/2021 8:30:00 AM 12.4 54.32 0.429 7.84 11.19 9.98
10/22/2021 8:45:00 AM 12.4 54.32 0.428 7.84 11.02 9.99
10/22/2021 9:00:00 AM 12.4 54.32 0.428 7.84 11.2 9.97
10/22/2021 9:15:00 AM 12.41 54.338 0.428 7.85 11.01 10.06
10/22/2021 9:30:00 AM 12.41 54.338 0.428 7.85 10.66 10.1
10/22/2021 9:45:00 AM 12.44 54.392 0.428 7.87 10.53 10.14
10/22/2021 10:00:00 AM 12.47 54.446 0.427 7.88 10.83 10.19
10/22/2021 10:15:00 AM 12.5 54.5 0.427 7.89 10.69 10.28
10/22/2021 10:30:00 AM 12.52 54.536 0.427 7.89 10.7 10.3
10/22/2021 10:45:00 AM 12.54 54.572 0.426 7.89 11.12 10.3
10/22/2021 11:00:00 AM 12.61 54.698 0.427 7.91 12.14 10.37
10/22/2021 11:15:00 AM 12.67 54.806 0.427 7.93 10.53 10.47
10/22/2021 11:30:00 AM 12.69 54.842 0.426 7.93 10.57 10.48
10/22/2021 11:45:00 AM 12.74 54.932 0.426 7.94 10.72 10.47
10/22/2021 12:00:00 PM 12.73 54.914 0.426 7.95 10.66 10.43
10/22/2021 12:15:00 PM 12.78 55.004 0.426 7.96 10.94 10.49
10/22/2021 12:30:00 PM 12.83 55.094 0.425 7.96 12.04 10.52
10/22/2021 12:45:00 PM 12.87 55.166 0.425 7.98 11.13 10.52
10/22/2021 1:00:00 PM 12.9 55.22 0.425 7.98 10.94 10.57
10/22/2021 1:15:00 PM 12.93 55.274 0.424 7.98 10.79 10.52
10/22/2021 1:30:00 PM 13 55.4 0.424 8 10.73 10.6
10/22/2021 1:45:00 PM 13.03 55.454 0.424 8 10.78 10.59
10/22/2021 2:00:00 PM 13.07 55.526 0.424 8.02 11.58 10.64
10/22/2021 2:15:00 PM 13.07 55.526 0.424 8.03 11.38 10.62
10/22/2021 2:30:00 PM 13.08 55.544 0.425 8.03 12.14 10.57
10/22/2021 2:45:00 PM 13.11 55.598 0.425 8.04 11.96 10.58
10/22/2021 3:00:00 PM 13.14 55.652 0.426 8.04 11.82 10.57
10/22/2021 3:15:00 PM 13.18 55.724 0.426 8.04 11.61 10.53
10/22/2021 3:30:00 PM 13.14 55.652 0.426 8.04 11.21 10.51
10/22/2021 3:45:00 PM 13.16 55.688 0.426 8.04 12.19 10.52
10/22/2021 4:00:00 PM 13.18 55.724 0.426 8.04 11.11 10.52
10/22/2021 4:15:00 PM 13.27 55.886 0.427 8.05 10.65 10.52
10/22/2021 4:30:00 PM 13.21 55.778 0.428 8.05 10.62 10.49
10/22/2021 4:45:00 PM 13.18 55.724 0.428 8.05 10.99 10.41
10/22/2021 5:00:00 PM 13.18 55.724 0.429 8.05 11.77 10.38
10/22/2021 5:15:00 PM 13.18 55.724 0.43 8.04 10.11 10.34
10/22/2021 5:30:00 PM 13.17 55.706 0.43 8.04 10.09 10.29
10/22/2021 5:45:00 PM 13.14 55.652 0.431 8.03 9.94 10.24
10/22/2021 6:00:00 PM 13.12 55.616 0.431 8.02 10.42 10.18
10/22/2021 6:15:00 PM 13.08 55.544 0.431 8.01 10.17 10.16
10/22/2021 6:30:00 PM 13.01 55.418 0.431 8 10.6 10.09
10/22/2021 6:45:00 PM 12.98 55.364 0.43 7.99 10.75 10.07
10/22/2021 7:00:00 PM 12.95 55.31 0.43 7.99 10.22 10.01
10/22/2021 7:15:00 PM 12.93 55.274 0.43 7.98 10.51 10.05
10/22/2021 7:30:00 PM 12.9 55.22 0.429 7.97 10.35 10.04
10/22/2021 7:45:00 PM 12.87 55.166 0.429 7.97 10.41 9.99
10/22/2021 8:00:00 PM 12.84 55.112 0.429 7.96 10.03 10
10/22/2021 8:15:00 PM 12.82 55.076 0.429 7.95 10.08 9.97
10/22/2021 8:30:00 PM 12.79 55.022 0.429 7.95 10.36 10
10/22/2021 8:45:00 PM 12.77 54.986 0.429 7.95 10.25 9.99
10/22/2021 9:00:00 PM 12.74 54.932 0.429 7.95 9.98 9.98
10/22/2021 9:15:00 PM 12.72 54.896 0.43 7.94 10.31 9.99
10/22/2021 9:30:00 PM 12.69 54.842 0.43 7.94 9.94 9.97
10/22/2021 9:45:00 PM 12.66 54.788 0.43 7.94 9.89 9.97
10/22/2021 10:00:00 PM 12.64 54.752 0.431 7.93 10.24 9.95
10/22/2021 10:15:00 PM 12.61 54.698 0.431 7.94 10 9.99
10/22/2021 10:30:00 PM 12.58 54.644 0.432 7.93 9.95 9.97
10/22/2021 10:45:00 PM 12.56 54.608 0.432 7.92 9.91 9.99
10/22/2021 11:00:00 PM 12.53 54.554 0.433 7.92 9.77 9.98
10/22/2021 11:15:00 PM 12.5 54.5 0.433 7.92 9.65 9.99
10/22/2021 11:30:00 PM 12.48 54.464 0.433 7.92 9.67 9.98
10/22/2021 11:45:00 PM 12.45 54.41 0.433 7.92 9.72 10
10/23/2021 12:00:00 AM 12.43 54.374 0.434 7.92 9.87 10
10/23/2021 12:15:00 AM 12.41 54.338 0.434 7.92 10.17 9.99
10/23/2021 12:30:00 AM 12.38 54.284 0.435 7.91 9.99 9.95
10/23/2021 12:45:00 AM 12.35 54.23 0.435 7.91 9.9 10
10/23/2021 1:00:00 AM 12.32 54.176 0.435 7.92 9.86 9.99
10/23/2021 1:15:00 AM 12.29 54.122 0.436 7.92 9.85 10
10/23/2021 1:30:00 AM 12.26 54.068 0.436 7.91 9.88 9.98
10/23/2021 1:45:00 AM 12.23 54.014 0.437 7.92 9.82 10.03
10/23/2021 2:00:00 AM 12.2 53.96 0.438 7.91 9.82 10.03
10/23/2021 2:15:00 AM 12.18 53.924 0.438 7.91 9.74 10.02
10/23/2021 2:30:00 AM 12.15 53.87 0.439 7.91 9.65 9.99
10/23/2021 2:45:00 AM 12.13 53.834 0.44 7.91 9.92 10.05
10/23/2021 3:00:00 AM 12.1 53.78 0.44 7.91 9.74 10.02
10/23/2021 3:15:00 AM 12.08 53.744 0.441 7.91 9.88 10.02
10/23/2021 3:30:00 AM 12.05 53.69 0.442 7.91 9.8 10.05
10/23/2021 3:45:00 AM 12.04 53.672 0.442 7.9 9.7 10.07
10/23/2021 4:00:00 AM 12.01 53.618 0.443 7.91 9.67 10.05
10/23/2021 4:15:00 AM 11.99 53.582 0.444 7.9 9.82 10.02
10/23/2021 4:30:00 AM 11.96 53.528 0.445 7.9 9.75 10.09
10/23/2021 4:45:00 AM 11.93 53.474 0.445 7.91 9.91 10.06
10/23/2021 5:00:00 AM 11.91 53.438 0.446 7.9 9.74 10.09
10/23/2021 5:15:00 AM 11.89 53.402 0.446 7.9 9.68 10.1
10/23/2021 5:30:00 AM 11.87 53.366 0.447 7.9 9.77 10.11
10/23/2021 5:45:00 AM 11.85 53.33 0.447 7.9 9.93 10.11
10/23/2021 6:00:00 AM 11.83 53.294 0.448 7.9 9.62 10.11
10/23/2021 6:15:00 AM 11.8 53.24 0.448 7.9 9.77 10.12
10/23/2021 6:30:00 AM 11.78 53.204 0.448 7.9 9.73 10.13
10/23/2021 6:45:00 AM 11.76 53.168 0.449 7.89 9.92 10.1
10/23/2021 7:00:00 AM 11.73 53.114 0.449 7.9 9.78 10.13
10/23/2021 7:15:00 AM 11.72 53.096 0.449 7.9 9.59 10.13
10/23/2021 7:30:00 AM 11.7 53.06 0.449 7.91 9.65 10.11
10/23/2021 7:45:00 AM 11.68 53.024 0.45 7.9 9.63 10.16
10/23/2021 8:00:00 AM 11.67 53.006 0.45 7.9 9.76 10.19
10/23/2021 8:15:00 AM 11.65 52.97 0.45 7.91 9.57 10.16
10/23/2021 8:30:00 AM 11.64 52.952 0.45 7.9 9.64 10.2
10/23/2021 8:45:00 AM 11.62 52.916 0.449 7.9 9.54 10.23
10/23/2021 9:00:00 AM 11.6 52.88 0.449 7.89 9.56 10.23
10/23/2021 9:15:00 AM 11.58 52.844 0.448 7.9 9.66 10.26
10/23/2021 9:30:00 AM 11.56 52.808 0.447 7.9 9.65 10.28
10/23/2021 9:45:00 AM 11.56 52.808 0.448 7.91 9.66 10.33
10/23/2021 10:00:00 AM 11.55 52.79 0.447 7.91 9.52 10.37
10/23/2021 10:15:00 AM 11.55 52.79 0.447 7.91 9.5 10.39
10/23/2021 10:30:00 AM 11.56 52.808 0.447 7.92 9.55 10.47
10/23/2021 10:45:00 AM 11.57 52.826 0.447 7.94 9.64 10.54
10/23/2021 11:00:00 AM 11.57 52.826 0.447 7.94 9.51 10.55
10/23/2021 11:15:00 AM 11.58 52.844 0.447 7.95 9.49 10.61
10/23/2021 11:30:00 AM 11.59 52.862 0.447 7.95 9.56 10.63
10/23/2021 11:45:00 AM 11.6 52.88 0.447 7.96 9.66 10.66
10/23/2021 12:00:00 PM 11.65 52.97 0.447 7.96 9.55 10.67
10/23/2021 12:15:00 PM 11.73 53.114 0.447 7.98 9.58 10.71
10/23/2021 12:30:00 PM 11.83 53.294 0.446 7.99 9.76 10.82
10/23/2021 12:45:00 PM 11.9 53.42 0.446 8 9.42 10.86
10/23/2021 1:00:00 PM 11.92 53.456 0.446 8.01 9.4 10.81
10/23/2021 1:15:00 PM 11.9 53.42 0.446 8.02 9.48 10.85
10/23/2021 1:30:00 PM 11.9 53.42 0.446 8.02 9.48 10.85
10/23/2021 1:45:00 PM 11.89 53.402 0.446 8.02 9.41 10.81
10/23/2021 2:00:00 PM 11.91 53.438 0.446 8.02 9.35 10.81
10/23/2021 2:15:00 PM 11.96 53.528 0.445 8.02 9.53 10.83
10/23/2021 2:30:00 PM 11.94 53.492 0.445 8.03 9.62 10.83
10/23/2021 2:45:00 PM 11.95 53.51 0.445 8.03 9.44 10.81
10/23/2021 3:00:00 PM 11.96 53.528 0.445 8.04 9.45 10.87
10/23/2021 3:15:00 PM 12 53.6 0.445 8.04 9.4 10.87
10/23/2021 3:30:00 PM 12 53.6 0.445 8.03 9.28 10.67
10/23/2021 3:45:00 PM 12.01 53.618 0.445 8.05 9.65 10.84
10/23/2021 4:00:00 PM 12 53.6 0.445 8.05 9.54 10.82
10/23/2021 4:15:00 PM 12.03 53.654 0.445 8.05 10.37 10.82
10/23/2021 4:30:00 PM 12.05 53.69 0.444 8.05 10.2 10.75
10/23/2021 4:45:00 PM 12.03 53.654 0.444 8.05 14 10.79
10/23/2021 5:00:00 PM 12.02 53.636 0.445 8.05 9.64 10.8
10/23/2021 5:15:00 PM 12 53.6 0.444 8.04 9.87 10.76
10/23/2021 5:30:00 PM 11.97 53.546 0.445 8.04 9.78 10.74
10/23/2021 5:45:00 PM 11.95 53.51 0.444 8.03 9.6 10.67
10/23/2021 6:00:00 PM 11.92 53.456 0.445 8.02 9.38 10.58
10/23/2021 6:15:00 PM 11.89 53.402 0.444 8 9.35 10.51
10/23/2021 6:30:00 PM 11.85 53.33 0.444 8 9.49 10.46
10/23/2021 6:45:00 PM 11.8 53.24 0.445 7.99 9.76 10.42
10/23/2021 7:00:00 PM 11.76 53.168 0.445 7.98 9.65 10.39
10/23/2021 7:15:00 PM 11.72 53.096 0.445 7.97 9.56 10.36
10/23/2021 7:30:00 PM 11.68 53.024 0.445 7.97 9.57 10.36
10/23/2021 7:45:00 PM 11.64 52.952 0.444 7.96 9.85 10.35
10/23/2021 8:00:00 PM 11.59 52.862 0.445 7.96 9.98 10.33
10/23/2021 8:15:00 PM 11.53 52.754 0.445 7.96 9.79 10.35
10/23/2021 8:30:00 PM 11.48 52.664 0.445 7.95 9.74 10.35
10/23/2021 8:45:00 PM 11.43 52.574 0.445 7.94 9.59 10.34
10/23/2021 9:00:00 PM 11.41 52.538 0.445 7.94 9.7 10.35
10/23/2021 9:15:00 PM 11.39 52.502 0.445 7.94 9.75 10.34
10/23/2021 9:30:00 PM 11.34 52.412 0.445 7.94 9.71 10.36
10/23/2021 9:45:00 PM 11.25 52.25 0.445 7.94 9.72 10.36
10/23/2021 10:00:00 PM 11.18 52.124 0.445 7.93 9.66 10.38
10/23/2021 10:15:00 PM 11.14 52.052 0.445 7.93 9.84 10.37
10/23/2021 10:30:00 PM 11.1 51.98 0.446 7.93 9.72 10.38
10/23/2021 10:45:00 PM 11.03 51.854 0.445 7.92 9.52 10.38
10/23/2021 11:00:00 PM 10.95 51.71 0.446 7.92 9.86 10.41
10/23/2021 11:15:00 PM 10.88 51.584 0.446 7.92 9.76 10.42
10/23/2021 11:30:00 PM 10.8 51.44 0.446 7.92 9.75 10.43
10/23/2021 11:45:00 PM 10.74 51.332 0.446 7.92 9.7 10.46
10/24/2021 12:00:00 AM 10.7 51.26 0.446 7.91 9.76 10.46
10/24/2021 12:15:00 AM 10.67 51.206 0.446 7.91 9.89 10.47
10/24/2021 12:30:00 AM 10.62 51.116 0.446 7.92 9.77 10.48
10/24/2021 12:45:00 AM 10.58 51.044 0.446 7.91 9.74 10.49
10/24/2021 1:00:00 AM 10.54 50.972 0.446 7.9 9.88 10.49
10/24/2021 1:15:00 AM 10.5 50.9 0.446 7.9 9.84 10.51
10/24/2021 1:30:00 AM 10.46 50.828 0.446 7.9 9.75 10.51
10/24/2021 1:45:00 AM 10.42 50.756 0.446 7.91 10 10.54
10/24/2021 2:00:00 AM 10.37 50.666 0.446 7.91 9.82 10.55
10/24/2021 2:15:00 AM 10.32 50.576 0.445 7.91 9.76 10.55
10/24/2021 2:30:00 AM 10.26 50.468 0.446 7.91 9.9 10.6
10/24/2021 2:45:00 AM 10.21 50.378 0.445 7.91 9.74 10.61
10/24/2021 3:00:00 AM 10.17 50.306 0.445 7.91 9.86 10.62
10/24/2021 3:15:00 AM 10.12 50.216 0.446 7.91 9.76 10.63
10/24/2021 3:30:00 AM 10.07 50.126 0.445 7.9 9.77 10.65
10/24/2021 3:45:00 AM 10.03 50.054 0.445 7.9 9.62 10.65
10/24/2021 4:00:00 AM 9.99 49.982 0.445 7.91 9.64 10.69
10/24/2021 4:15:00 AM 9.95 49.91 0.445 7.9 9.65 10.69
10/24/2021 4:30:00 AM 9.9 49.82 0.445 7.91 9.74 10.71
10/24/2021 4:45:00 AM 9.86 49.748 0.444 7.9 9.67 10.72
10/24/2021 5:00:00 AM 9.82 49.676 0.443 7.9 9.64 10.72
10/24/2021 5:15:00 AM 9.78 49.604 0.443 7.9 9.71 10.73
10/24/2021 5:30:00 AM 9.76 49.568 0.442 7.91 9.75 10.76
10/24/2021 5:45:00 AM 9.72 49.496 0.442 7.91 9.59 10.78
10/24/2021 6:00:00 AM 9.69 49.442 0.441 7.9 9.55 10.77
10/24/2021 6:15:00 AM 9.66 49.388 0.441 7.9 9.59 10.79
10/24/2021 6:30:00 AM 9.64 49.352 0.44 7.9 9.74 10.79
10/24/2021 6:45:00 AM 9.62 49.316 0.439 7.9 9.55 10.8
10/24/2021 7:00:00 AM 9.6 49.28 0.439 7.9 9.7 10.81
10/24/2021 7:15:00 AM 9.59 49.262 0.438 7.9 9.64 10.8
10/24/2021 7:30:00 AM 9.57 49.226 0.438 7.89 9.73 10.81
10/24/2021 7:45:00 AM 9.55 49.19 0.438 7.89 9.86 10.82
10/24/2021 8:00:00 AM 9.54 49.172 0.437 7.89 9.89 10.83
10/24/2021 8:15:00 AM 9.53 49.154 0.437 7.9 9.65 10.86
10/24/2021 8:30:00 AM 9.52 49.136 0.437 7.91 9.68 10.87
10/24/2021 8:45:00 AM 9.52 49.136 0.44 7.9 9.84 10.88
10/24/2021 9:00:00 AM 9.53 49.154 0.462 7.91 9.75 10.94
10/24/2021 9:15:00 AM 9.55 49.19 0.435 7.9 9.7 11
10/24/2021 9:30:00 AM 9.55 49.19 0.432 7.92 9.7 11.05
10/24/2021 9:45:00 AM 9.56 49.208 0.431 7.92 9.65 11.05
10/24/2021 10:00:00 AM 9.57 49.226 0.431 7.93 9.59 11.05
10/24/2021 10:15:00 AM 9.61 49.298 0.431 7.93 9.85 11.14
10/24/2021 10:30:00 AM 9.66 49.388 0.43 7.94 9.7 11.2
10/24/2021 10:45:00 AM 9.73 49.514 0.43 7.94 9.63 11.25
10/24/2021 11:00:00 AM 9.85 49.73 0.437 7.95 9.57 11.31
10/24/2021 11:15:00 AM 9.92 49.856 0.433 7.95 9.56 11.35
10/24/2021 11:30:00 AM 9.98 49.964 0.433 7.97 9.65 11.38
10/24/2021 11:45:00 AM 10.01 50.018 0.431 7.97 9.63 11.37
10/24/2021 12:00:00 PM 10.06 50.108 0.431 7.98 9.68 11.36
10/24/2021 12:15:00 PM 10.12 50.216 0.43 7.97 9.71 11.36
10/24/2021 12:30:00 PM 10.19 50.342 0.43 7.98 9.56 11.38
10/24/2021 12:45:00 PM 10.3 50.54 0.43 7.98 10.34 11.4
10/24/2021 1:00:00 PM 10.33 50.594 0.429 7.99 9.84 11.36
10/24/2021 1:15:00 PM 10.34 50.612 0.429 8 9.83 11.34
10/24/2021 1:30:00 PM 10.38 50.684 0.429 8 9.85 11.31
10/24/2021 1:45:00 PM 10.41 50.738 0.429 8 9.86 11.29
10/24/2021 2:00:00 PM 10.42 50.756 0.429 8 9.86 11.24
10/24/2021 2:15:00 PM 10.45 50.81 0.429 7.99 9.94 11.21
10/24/2021 2:30:00 PM 10.53 50.954 0.429 7.99 9.78 11.24
10/24/2021 2:45:00 PM 10.57 51.026 0.429 8 9.84 11.25
10/24/2021 3:00:00 PM 10.59 51.062 0.429 8 9.77 11.24
10/24/2021 3:15:00 PM 10.63 51.134 0.428 8.02 9.75 11.23
10/24/2021 3:30:00 PM 10.66 51.188 0.429 8.01 10.1 11.23
10/24/2021 3:45:00 PM 10.71 51.278 0.43 8.01 9.71 11.21
10/24/2021 4:00:00 PM 10.75 51.35 0.43 8.01 9.7 11.19
10/24/2021 4:15:00 PM 10.78 51.404 0.43 8.01 9.8 11.16
10/24/2021 4:30:00 PM 10.79 51.422 0.43 8.01 9.78 11.11
10/24/2021 4:45:00 PM 10.8 51.44 0.43 8 9.8 11.05
10/24/2021 5:00:00 PM 10.8 51.44 0.429 7.99 9.69 10.96
10/24/2021 5:15:00 PM 10.81 51.458 0.428 7.99 9.82 10.91
10/24/2021 5:30:00 PM 10.82 51.476 0.428 7.98 9.85 10.88
10/24/2021 5:45:00 PM 10.82 51.476 0.428 7.97 9.89 10.82
10/24/2021 6:00:00 PM 10.82 51.476 0.428 7.96 9.76 10.77
10/24/2021 6:15:00 PM 10.82 51.476 0.427 7.95 9.79 10.73
10/24/2021 6:30:00 PM 10.83 51.494 0.427 7.94 9.76 10.7
10/24/2021 6:45:00 PM 10.82 51.476 0.427 7.95 9.83 10.68
10/24/2021 7:00:00 PM 10.83 51.494 0.427 7.94 9.78 10.66
10/24/2021 7:15:00 PM 10.84 51.512 0.426 7.94 9.92 10.62
10/24/2021 7:30:00 PM 10.85 51.53 0.425 7.92 10.25 10.6
10/24/2021 7:45:00 PM 10.86 51.548 0.425 7.92 9.77 10.59
10/24/2021 8:00:00 PM 10.88 51.584 0.425 7.91 9.8 10.57
10/24/2021 8:15:00 PM 10.89 51.602 0.425 7.91 9.95 10.56
10/24/2021 8:30:00 PM 10.9 51.62 0.424 7.9 9.81 10.52
10/24/2021 8:45:00 PM 10.91 51.638 0.424 7.91 9.96 10.53
10/24/2021 9:00:00 PM 10.92 51.656 0.424 7.91 9.73 10.52
10/24/2021 9:15:00 PM 10.93 51.674 0.423 7.9 9.86 10.5
10/24/2021 9:30:00 PM 10.94 51.692 0.423 7.9 9.76 10.49
10/24/2021 9:45:00 PM 10.94 51.692 0.424 7.89 9.91 10.48
10/24/2021 10:00:00 PM 10.95 51.71 0.422 7.89 10.02 10.48
10/24/2021 10:15:00 PM 10.96 51.728 0.421 7.88 9.89 10.46
10/24/2021 10:30:00 PM 10.96 51.728 0.421 7.87 9.94 10.45
10/24/2021 10:45:00 PM 10.97 51.746 0.422 7.87 9.9 10.42
10/24/2021 11:00:00 PM 10.97 51.746 0.424 7.86 9.86 10.45
10/24/2021 11:15:00 PM 10.97 51.746 0.416 7.87 11.2 10.41
10/24/2021 11:30:00 PM 10.98 51.764 0.415 7.86 10.05 10.39
10/24/2021 11:45:00 PM 10.98 51.764 0.415 7.86 9.85 10.41
10/25/2021 12:00:00 AM 10.98 51.764 0.414 7.85 9.86 10.41
10/25/2021 12:15:00 AM 10.98 51.764 0.414 7.84 9.85 10.38
10/25/2021 12:30:00 AM 10.98 51.764 0.414 7.84 9.96 10.39
10/25/2021 12:45:00 AM 10.99 51.782 0.414 7.85 10.02 10.39
10/25/2021 1:00:00 AM 11 51.8 0.414 7.85 9.92 10.38
10/25/2021 1:15:00 AM 10.99 51.782 0.413 7.84 9.89 10.38
10/25/2021 1:30:00 AM 10.98 51.764 0.413 7.84 9.93 10.38
10/25/2021 1:45:00 AM 10.97 51.746 0.413 7.84 9.83 10.38
10/25/2021 2:00:00 AM 10.94 51.692 0.412 7.84 9.68 10.38
10/25/2021 2:15:00 AM 10.94 51.692 0.412 7.84 9.75 10.38
10/25/2021 2:30:00 AM 10.94 51.692 0.411 7.84 9.93 10.39
10/25/2021 2:45:00 AM 10.94 51.692 0.411 7.83 9.85 10.38
10/25/2021 3:00:00 AM 10.94 51.692 0.41 7.83 9.98 10.38
10/25/2021 3:15:00 AM 10.93 51.674 0.41 7.84 9.79 10.38
10/25/2021 3:30:00 AM 10.93 51.674 0.41 7.84 9.94 10.38
10/25/2021 3:45:00 AM 10.93 51.674 0.409 7.83 9.73 10.38
10/25/2021 4:00:00 AM 10.93 51.674 0.41 7.83 10.15 10.38
10/25/2021 4:15:00 AM 10.92 51.656 0.409 7.83 9.95 10.38
10/25/2021 4:30:00 AM 10.92 51.656 0.409 7.84 10.12 10.37
10/25/2021 4:45:00 AM 10.91 51.638 0.409 7.83 9.94 10.34
10/25/2021 5:00:00 AM 10.91 51.638 0.409 7.83 10.01 10.39
10/25/2021 5:15:00 AM 10.9 51.62 0.409 7.83 10.11 10.39
10/25/2021 5:30:00 AM 10.89 51.602 0.408 7.83 10 10.36
10/25/2021 5:45:00 AM 10.88 51.584 0.408 7.83 10.16 10.33
10/25/2021 6:00:00 AM 10.87 51.566 0.408 7.83 10.06 10.4
10/25/2021 6:15:00 AM 10.86 51.548 0.407 7.82 10.03 10.37
10/25/2021 6:30:00 AM 10.85 51.53 0.408 7.82 10.07 10.38
10/25/2021 6:45:00 AM 10.83 51.494 0.407 7.82 10.09 10.39
10/25/2021 7:00:00 AM 10.82 51.476 0.407 7.83 10.07 10.36
10/25/2021 7:15:00 AM 10.8 51.44 0.408 7.82 10.13 10.39
10/25/2021 7:30:00 AM 10.78 51.404 0.408 7.83 9.95 10.41
10/25/2021 7:45:00 AM 10.76 51.368 0.408 7.82 10.07 10.39
10/25/2021 8:00:00 AM 10.75 51.35 0.408 7.83 9.88 10.42
10/25/2021 8:15:00 AM 10.74 51.332 0.408 7.83 10.09 10.4
10/25/2021 8:30:00 AM 10.74 51.332 0.408 7.83 12.65 10.45
10/25/2021 8:45:00 AM 10.75 51.35 0.408 7.84 11.19 10.5
10/25/2021 9:00:00 AM 10.75 51.35 0.408 7.84 10.15 10.55
10/25/2021 9:15:00 AM 10.78 51.404 0.407 7.85 9.85 10.59
10/25/2021 9:30:00 AM 10.79 51.422 0.407 7.86 10.19 10.65
10/25/2021 9:45:00 AM 10.83 51.494 0.407 7.87 9.89 10.66
10/25/2021 10:00:00 AM 10.89 51.602 0.407 7.88 9.84 10.69
10/25/2021 10:15:00 AM 10.96 51.728 0.406 7.88 9.97 10.81
10/25/2021 10:30:00 AM 11.02 51.836 0.406 7.88 9.92 10.84
10/25/2021 10:45:00 AM 11.06 51.908 0.406 7.88 9.95 10.79
10/25/2021 11:00:00 AM 11.08 51.944 0.406 7.89 10.02 10.81
10/25/2021 11:15:00 AM 11.17 52.106 0.406 7.89 10.12 10.82
10/25/2021 11:30:00 AM 11.17 52.106 0.406 7.89 10.19 10.69
10/25/2021 11:45:00 AM 11.19 52.142 0.406 7.9 9.95 10.79
10/25/2021 12:00:00 PM 11.23 52.214 0.405 7.89 10.03 10.79
10/25/2021 12:15:00 PM 11.29 52.322 0.405 7.91 10.03 10.77
10/25/2021 12:30:00 PM 11.4 52.52 0.405 7.92 10.06 10.82
10/25/2021 12:45:00 PM 11.52 52.736 0.405 7.93 10.04 10.84
10/25/2021 1:00:00 PM 11.64 52.952 0.405 7.94 10.05 10.86
10/25/2021 1:15:00 PM 11.77 53.186 0.404 7.96 10.08 10.9
10/25/2021 1:30:00 PM 11.9 53.42 0.404 7.97 10.03 10.83
10/25/2021 1:45:00 PM 12.05 53.69 0.404 7.97 9.96 10.87
10/25/2021 2:00:00 PM 12.18 53.924 0.403 7.99 10.06 10.84
10/25/2021 2:15:00 PM 12.27 54.086 0.407 7.99 10.14 10.85
10/25/2021 2:30:00 PM 12.38 54.284 0.406 8 10.24 10.85
10/25/2021 2:45:00 PM 12.45 54.41 0.406 8 10.08 10.77
10/25/2021 3:00:00 PM 12.54 54.572 0.406 8.01 10.59 10.75
10/25/2021 3:15:00 PM 12.59 54.662 0.406 8.01 10.67 10.7
10/25/2021 3:30:00 PM 12.65 54.77 0.406 8.01 10.48 10.65
10/25/2021 3:45:00 PM 12.69 54.842 0.405 8.01 10.74 10.59
10/25/2021 4:00:00 PM 12.71 54.878 0.405 8 10.19 10.58
10/25/2021 4:15:00 PM 12.8 55.04 0.406 8 10.17 10.58
10/25/2021 4:30:00 PM 12.78 55.004 0.406 8 10.02 10.54
10/25/2021 4:45:00 PM 12.76 54.968 0.406 8 10.01 10.46
10/25/2021 5:00:00 PM 12.76 54.968 0.406 7.99 10.07 10.4
10/25/2021 5:15:00 PM 12.76 54.968 0.407 7.98 10.49 10.37
10/25/2021 5:30:00 PM 12.76 54.968 0.407 7.97 10.28 10.33
10/25/2021 5:45:00 PM 12.74 54.932 0.407 7.97 10.29 10.28
10/25/2021 6:00:00 PM 12.72 54.896 0.407 7.95 10.24 10.2
10/25/2021 6:15:00 PM 12.7 54.86 0.408 7.95 10.21 10.18
10/25/2021 6:30:00 PM 12.69 54.842 0.408 7.94 10.33 10.15
10/25/2021 6:45:00 PM 12.67 54.806 0.408 7.94 10.56 10.12
10/25/2021 7:00:00 PM 12.66 54.788 0.408 7.93 10.64 10.09
10/25/2021 7:15:00 PM 12.66 54.788 0.408 7.93 10.8 10.07
10/25/2021 7:30:00 PM 12.65 54.77 0.408 7.92 10.7 10.05
10/25/2021 7:45:00 PM 12.65 54.77 0.408 7.91 10.55 10.03
10/25/2021 8:00:00 PM 12.64 54.752 0.408 7.91 10.63 10.02
10/25/2021 8:15:00 PM 12.63 54.734 0.408 7.9 10.64 10
10/25/2021 8:30:00 PM 12.62 54.716 0.408 7.91 10.26 9.98
10/25/2021 8:45:00 PM 12.62 54.716 0.408 7.89 10.42 9.99
10/25/2021 9:00:00 PM 12.6 54.68 0.408 7.89 10.27 9.95
10/25/2021 9:15:00 PM 12.59 54.662 0.409 7.89 11.44 9.98
10/25/2021 9:30:00 PM 12.57 54.626 0.409 7.89 10.4 9.97
10/25/2021 9:45:00 PM 12.55 54.59 0.408 7.88 10.48 9.95
10/25/2021 10:00:00 PM 12.53 54.554 0.409 7.88 10.52 9.97
10/25/2021 10:15:00 PM 12.52 54.536 0.408 7.88 10.74 9.97
10/25/2021 10:30:00 PM 12.5 54.5 0.409 7.87 10.49 9.95
10/25/2021 10:45:00 PM 12.48 54.464 0.409 7.86 10.85 9.96
10/25/2021 11:00:00 PM 12.46 54.428 0.409 7.87 10.54 9.95
10/25/2021 11:15:00 PM 12.45 54.41 0.41 7.86 10.73 9.95
10/25/2021 11:30:00 PM 12.43 54.374 0.41 7.86 9.64 9.93
10/25/2021 11:45:00 PM 12.43 54.374 0.41 7.86 9.7 9.94
10/26/2021 12:00:00 AM 12.41 54.338 0.41 7.87 9.28 9.93
10/26/2021 12:15:00 AM 12.41 54.338 0.41 7.86 9.53 9.95
10/26/2021 12:30:00 AM 12.41 54.338 0.41 7.86 9.19 9.94
10/26/2021 12:45:00 AM 12.39 54.302 0.41 7.86 9.67 9.94
10/26/2021 1:00:00 AM 12.38 54.284 0.41 7.86 9.39 9.93
10/26/2021 1:15:00 AM 12.37 54.266 0.41 7.85 9.37 9.94
10/26/2021 1:30:00 AM 12.36 54.248 0.41 7.86 9.45 9.95
10/26/2021 1:45:00 AM 12.36 54.248 0.41 7.86 9.67 9.94
10/26/2021 2:00:00 AM 12.35 54.23 0.41 7.85 9.4 9.94
10/26/2021 2:15:00 AM 12.33 54.194 0.41 7.86 9.4 9.94
10/26/2021 2:30:00 AM 12.34 54.212 0.41 7.85 9.21 9.94
10/26/2021 2:45:00 AM 12.34 54.212 0.411 7.86 9.29 9.92
10/26/2021 3:00:00 AM 12.33 54.194 0.41 7.86 9.23 9.95
10/26/2021 3:15:00 AM 12.33 54.194 0.41 7.85 9.36 9.95
10/26/2021 3:30:00 AM 12.32 54.176 0.411 7.85 9.36 9.95
10/26/2021 3:45:00 AM 12.32 54.176 0.412 7.85 9.33 9.93
10/26/2021 4:00:00 AM 12.32 54.176 0.411 7.85 9.31 9.92
10/26/2021 4:15:00 AM 12.32 54.176 0.412 7.85 9.29 9.93
10/26/2021 4:30:00 AM 12.32 54.176 0.412 7.85 9.19 9.93
10/26/2021 4:45:00 AM 12.31 54.158 0.412 7.85 9.3 9.92
10/26/2021 5:00:00 AM 12.31 54.158 0.412 7.85 9.08 9.94
10/26/2021 5:15:00 AM 12.3 54.14 0.413 7.84 9.21 9.93
10/26/2021 5:30:00 AM 12.3 54.14 0.413 7.85 9.18 9.94
10/26/2021 5:45:00 AM 12.29 54.122 0.413 7.84 9.15 9.93
10/26/2021 6:00:00 AM 12.28 54.104 0.414 7.84 9.28 9.93
10/26/2021 6:15:00 AM 12.27 54.086 0.414 7.85 9 9.94
10/26/2021 6:30:00 AM 12.26 54.068 0.415 7.84 9.1 9.93
10/26/2021 6:45:00 AM 12.26 54.068 0.415 7.84 9.06 9.94
10/26/2021 7:00:00 AM 12.25 54.05 0.415 7.84 9.14 9.95
10/26/2021 7:15:00 AM 12.24 54.032 0.416 7.84 9.47 9.94
10/26/2021 7:30:00 AM 12.23 54.014 0.416 7.85 9.07 9.94
10/26/2021 7:45:00 AM 12.23 54.014 0.416 7.84 9.07 9.94
10/26/2021 8:00:00 AM 12.23 54.014 0.416 7.84 9.07 9.9
10/26/2021 8:15:00 AM 12.23 54.014 0.417 7.85 9.07 9.93
10/26/2021 8:30:00 AM 12.23 54.014 0.417 7.85 9.02 9.95
10/26/2021 8:45:00 AM 12.23 54.014 0.418 7.85 9.06 9.94
10/26/2021 9:00:00 AM 12.24 54.032 0.418 7.86 9.03 9.97
10/26/2021 9:15:00 AM 12.24 54.032 0.418 7.87 8.68 9.98
10/26/2021 9:30:00 AM 12.22 53.996 0.419 7.86 9.93 10
10/26/2021 9:45:00 AM 12.19 53.942 0.418 7.87 8.93 10
10/26/2021 10:00:00 AM 12.17 53.906 0.419 7.87 8.67 10.04
10/26/2021 10:15:00 AM 12.16 53.888 0.419 7.87 8.88 10.09
10/26/2021 10:30:00 AM 12.13 53.834 0.42 7.88 9.53 10.13
10/26/2021 10:45:00 AM 12.1 53.78 0.419 7.88 8.71 10.15
10/26/2021 11:00:00 AM 12.06 53.708 0.42 7.89 9.71 10.17
10/26/2021 11:15:00 AM 12.03 53.654 0.42 7.91 8.62 10.18
10/26/2021 11:30:00 AM 12 53.6 0.42 7.91 8.63 10.17
10/26/2021 11:45:00 AM 11.97 53.546 0.419 7.91 8.77 10.17
10/26/2021 12:00:00 PM 11.96 53.528 0.419 7.91 8.95 10.22
10/26/2021 12:15:00 PM 11.94 53.492 0.418 7.92 9.06 10.28
10/26/2021 12:30:00 PM 11.93 53.474 0.418 7.92 9.86 10.33
10/26/2021 12:45:00 PM 11.91 53.438 0.419 7.93 10.5 10.37
10/26/2021 1:00:00 PM 11.88 53.384 0.417 7.93 9.25 10.37
10/26/2021 1:15:00 PM 11.85 53.33 0.417 7.94 10.77 10.4
10/26/2021 1:30:00 PM 11.82 53.276 0.417 7.94 9.78 10.4
10/26/2021 1:45:00 PM 11.82 53.276 0.417 7.95 9.71 10.45
10/26/2021 2:00:00 PM 11.79 53.222 0.417 7.95 8.26 10.45
10/26/2021 2:15:00 PM 11.75 53.15 0.417 7.95 9.14 10.45
10/26/2021 2:30:00 PM 11.72 53.096 0.418 7.95 9.06 10.44
10/26/2021 2:45:00 PM 11.66 52.988 0.419 7.95 9.69 10.44
10/26/2021 3:00:00 PM 11.63 52.934 0.419 7.94 9.37 10.43
10/26/2021 3:15:00 PM 11.6 52.88 0.421 7.94 9.25 10.43
10/26/2021 3:30:00 PM 11.57 52.826 0.407 7.94 9.48 10.43
10/26/2021 3:45:00 PM 11.53 52.754 0.416 7.94 8.52 10.46
10/26/2021 4:00:00 PM 11.51 52.718 0.416 7.95 10.23 10.46
10/26/2021 4:15:00 PM 11.48 52.664 0.421 7.95 9.1 10.47
10/26/2021 4:30:00 PM 11.45 52.61 0.415 7.95 8.12 10.47
10/26/2021 4:45:00 PM 11.42 52.556 0.415 7.96 9.38 10.48
10/26/2021 5:00:00 PM 11.38 52.484 0.415 7.95 8.94 10.45
10/26/2021 5:15:00 PM 11.33 52.394 0.415 7.95 8.26 10.44
10/26/2021 5:30:00 PM 11.3 52.34 0.415 7.94 8.33 10.43
10/26/2021 5:45:00 PM 11.26 52.268 0.414 7.93 8.17 10.42
10/26/2021 6:00:00 PM 11.22 52.196 0.413 7.93 8.41 10.39
10/26/2021 6:15:00 PM 11.18 52.124 0.413 7.93 8.08 10.38
10/26/2021 6:30:00 PM 11.13 52.034 0.413 7.92 8.39 10.37
10/26/2021 6:45:00 PM 11.08 51.944 0.413 7.93 8.16 10.37
10/26/2021 7:00:00 PM 11.05 51.89 0.412 7.92 8.34 10.35
10/26/2021 7:15:00 PM 11.02 51.836 0.412 7.91 8.29 10.35
10/26/2021 7:30:00 PM 10.98 51.764 0.412 7.9 9.36 10.35
10/26/2021 7:45:00 PM 10.95 51.71 0.412 7.9 8.69 10.35
10/26/2021 8:00:00 PM 10.92 51.656 0.411 7.9 9.66 10.36
10/26/2021 8:15:00 PM 10.89 51.602 0.411 7.9 8.27 10.35
10/26/2021 8:30:00 PM 10.86 51.548 0.411 7.89 9.25 10.36
10/26/2021 8:45:00 PM 10.82 51.476 0.411 7.89 8.42 10.37
10/26/2021 9:00:00 PM 10.8 51.44 0.411 7.9 8.25 10.38
10/26/2021 9:15:00 PM 10.77 51.386 0.411 7.89 9.04 10.38
10/26/2021 9:30:00 PM 10.74 51.332 0.411 7.89 9.26 10.39
10/26/2021 9:45:00 PM 10.71 51.278 0.411 7.89 8.24 10.39
10/26/2021 10:00:00 PM 10.69 51.242 0.411 7.89 8.35 10.4
10/26/2021 10:15:00 PM 10.66 51.188 0.41 7.89 9.2 10.42
10/26/2021 10:30:00 PM 10.63 51.134 0.41 7.89 8.5 10.41
10/26/2021 10:45:00 PM 10.61 51.098 0.41 7.88 8.08 10.41
10/26/2021 11:00:00 PM 10.59 51.062 0.41 7.88 8.86 10.41
10/26/2021 11:15:00 PM 10.56 51.008 0.409 7.88 8.09 10.42
10/26/2021 11:30:00 PM 10.55 50.99 0.409 7.88 8.96 10.45
10/26/2021 11:45:00 PM 10.53 50.954 0.409 7.88 7.93 10.43
10/27/2021 12:00:00 AM 10.51 50.918 0.408 7.88 9.5 10.45
10/27/2021 12:15:00 AM 10.5 50.9 0.408 7.88 7.96 10.44
10/27/2021 12:30:00 AM 10.48 50.864 0.408 7.88 9.04 10.46
10/27/2021 12:45:00 AM 10.47 50.846 0.408 7.88 8.11 10.47
10/27/2021 1:00:00 AM 10.46 50.828 0.407 7.87 9.13 10.47
10/27/2021 1:15:00 AM 10.44 50.792 0.407 7.87 8.14 10.47
10/27/2021 1:30:00 AM 10.43 50.774 0.407 7.88 8.02 10.48
10/27/2021 1:45:00 AM 10.42 50.756 0.407 7.87 8.23 10.48
10/27/2021 2:00:00 AM 10.41 50.738 0.406 7.87 8.24 10.48
10/27/2021 2:15:00 AM 10.4 50.72 0.405 7.87 7.94 10.51
10/27/2021 2:30:00 AM 10.39 50.702 0.405 7.88 7.97 10.51
10/27/2021 2:45:00 AM 10.38 50.684 0.405 7.88 8 10.51
10/27/2021 3:00:00 AM 10.38 50.684 0.404 7.87 9 10.51
10/27/2021 3:15:00 AM 10.37 50.666 0.404 7.88 7.86 10.52
10/27/2021 3:30:00 AM 10.36 50.648 0.404 7.87 8.36 10.51
10/27/2021 3:45:00 AM 10.36 50.648 0.404 7.86 9.02 10.53
10/27/2021 4:00:00 AM 10.35 50.63 0.403 7.86 7.95 10.53
10/27/2021 4:15:00 AM 10.35 50.63 0.403 7.87 8.02 10.53
10/27/2021 4:30:00 AM 10.34 50.612 0.403 7.86 9.08 10.53
10/27/2021 4:45:00 AM 10.34 50.612 0.402 7.86 8.07 10.53
10/27/2021 5:00:00 AM 10.33 50.594 0.402 7.86 7.98 10.53
10/27/2021 5:15:00 AM 10.33 50.594 0.402 7.85 7.91 10.53
10/27/2021 5:30:00 AM 10.32 50.576 0.402 7.86 8.85 10.53
10/27/2021 5:45:00 AM 10.32 50.576 0.402 7.86 8.12 10.54
10/27/2021 6:00:00 AM 10.31 50.558 0.401 7.86 8.07 10.54
10/27/2021 6:15:00 AM 10.31 50.558 0.401 7.86 9.11 10.55
10/27/2021 6:30:00 AM 10.3 50.54 0.401 7.86 9.51 10.56
10/27/2021 6:45:00 AM 10.3 50.54 0.393 7.86 8.84 10.56
10/27/2021 7:00:00 AM 10.3 50.54 0.4 7.86 8.93 10.56
10/27/2021 7:15:00 AM 10.3 50.54 0.401 7.86 8.08 10.56
10/27/2021 7:30:00 AM 10.29 50.522 0.401 7.86 8.05 10.57
10/27/2021 7:45:00 AM 10.3 50.54 0.401 7.86 7.93 10.56
10/27/2021 8:00:00 AM 10.3 50.54 0.401 7.86 8.84 10.57
10/27/2021 8:15:00 AM 10.3 50.54 0.401 7.86 7.86 10.6
10/27/2021 8:30:00 AM 10.31 50.558 0.401 7.86 8.18 10.6
10/27/2021 8:45:00 AM 10.32 50.576 0.401 7.87 7.81 10.63
10/27/2021 9:00:00 AM 10.33 50.594 0.401 7.87 7.79 10.64
10/27/2021 9:15:00 AM 10.34 50.612 0.401 7.87 8.76 10.67
10/27/2021 9:30:00 AM 10.36 50.648 0.401 7.88 9.07 10.72
10/27/2021 9:45:00 AM 10.39 50.702 0.4 7.88 8.8 10.75
10/27/2021 10:00:00 AM 10.42 50.756 0.4 7.89 7.78 10.78
10/27/2021 10:15:00 AM 10.45 50.81 0.4 7.9 8.66 10.82
10/27/2021 10:30:00 AM 10.5 50.9 0.4 7.9 7.79 10.86
10/27/2021 10:45:00 AM 10.57 51.026 0.4 7.92 7.82 10.91
10/27/2021 11:00:00 AM 10.65 51.17 0.4 7.92 7.81 10.95
10/27/2021 11:15:00 AM 10.74 51.332 0.4 7.94 7.75 10.99
10/27/2021 11:30:00 AM 10.81 51.458 0.4 7.94 8.1 11.01
10/27/2021 11:45:00 AM 10.9 51.62 0.4 7.95 7.72 11.03
10/27/2021 12:00:00 PM 11 51.8 0.399 7.95 7.88 11.04
10/27/2021 12:15:00 PM 11.09 51.962 0.399 7.97 7.92 11.05
10/27/2021 12:30:00 PM 11.18 52.124 0.399 7.97 9.19 11.04
10/27/2021 12:45:00 PM 11.24 52.232 0.399 7.98 8.24 11.06
10/27/2021 1:00:00 PM 11.31 52.358 0.398 7.99 7.68 11.04
10/27/2021 1:15:00 PM 11.39 52.502 0.398 8 7.67 11.04
10/27/2021 1:30:00 PM 11.52 52.736 0.398 8 9.17 11.03
10/27/2021 1:45:00 PM 11.63 52.934 0.398 8.01 7.84 11.03
10/27/2021 2:00:00 PM 11.69 53.042 0.398 8.01 7.61 11
10/27/2021 2:15:00 PM 11.76 53.168 0.398 8.01 7.69 10.97
10/27/2021 2:30:00 PM 11.93 53.474 0.398 8 8.63 10.96
10/27/2021 2:45:00 PM 11.92 53.456 0.394 8 8.67 10.89
10/27/2021 3:00:00 PM 11.97 53.546 0.396 8 8.57 10.86
10/27/2021 3:15:00 PM 12.02 53.636 0.396 8.01 7.46 10.82
10/27/2021 3:30:00 PM 12.11 53.798 0.396 8 10.41 10.79
10/27/2021 3:45:00 PM 12.21 53.978 0.396 8 9.8 10.79
10/27/2021 4:00:00 PM 12.25 54.05 0.395 8 9.67 10.75
10/27/2021 4:15:00 PM 12.32 54.176 0.395 8 8.28 10.71
10/27/2021 4:30:00 PM 12.31 54.158 0.395 8.02 8.24 10.68
10/27/2021 4:45:00 PM 12.33 54.194 0.395 8.01 8.11 10.64
10/27/2021 5:00:00 PM 12.31 54.158 0.395 8 8.13 10.6
10/27/2021 5:15:00 PM 12.28 54.104 0.394 7.99 9.61 10.55
10/27/2021 5:30:00 PM 12.24 54.032 0.394 7.99 9.33 10.5
10/27/2021 5:45:00 PM 12.2 53.96 0.394 7.99 8.55 10.47
10/27/2021 6:00:00 PM 12.16 53.888 0.394 7.98 8.11 10.44
10/27/2021 6:15:00 PM 12.1 53.78 0.394 7.97 8.13 10.4
10/27/2021 6:30:00 PM 12.05 53.69 0.394 7.95 9.16 10.36
10/27/2021 6:45:00 PM 11.99 53.582 0.393 7.95 10.16 10.34
10/27/2021 7:00:00 PM 11.94 53.492 0.393 7.93 8.3 10.32
10/27/2021 7:15:00 PM 11.89 53.402 0.393 7.93 8.45 10.3
10/27/2021 7:30:00 PM 11.84 53.312 0.393 7.92 8.55 10.28
10/27/2021 7:45:00 PM 11.78 53.204 0.393 7.92 8.75 10.28
10/27/2021 8:00:00 PM 11.72 53.096 0.393 7.91 8.68 10.28
10/27/2021 8:15:00 PM 11.66 52.988 0.393 7.92 8.39 10.28
10/27/2021 8:30:00 PM 11.61 52.898 0.393 7.91 8.67 10.29
10/27/2021 8:45:00 PM 11.56 52.808 0.393 7.91 8.19 10.28
10/27/2021 9:00:00 PM 11.5 52.7 0.393 7.9 9.89 10.28
10/27/2021 9:15:00 PM 11.45 52.61 0.393 7.9 9.47 10.29
10/27/2021 9:30:00 PM 11.39 52.502 0.393 7.9 8.59 10.3
10/27/2021 9:45:00 PM 11.34 52.412 0.393 7.89 8.29 10.31
10/27/2021 10:00:00 PM 11.28 52.304 0.393 7.89 8.23 10.31
10/27/2021 10:15:00 PM 11.21 52.178 0.394 7.89 8.28 10.32
10/27/2021 10:30:00 PM 11.16 52.088 0.394 7.88 8.88 10.33
10/27/2021 10:45:00 PM 11.08 51.944 0.394 7.88 8.19 10.35
10/27/2021 11:00:00 PM 11.01 51.818 0.393 7.88 9.55 10.36
10/27/2021 11:15:00 PM 10.94 51.692 0.394 7.88 8.32 10.38
10/27/2021 11:30:00 PM 10.91 51.638 0.394 7.88 8.31 10.39
10/27/2021 11:45:00 PM 10.89 51.602 0.394 7.88 8.21 10.4
10/28/2021 12:00:00 AM 10.86 51.548 0.394 7.88 9.21 10.42
10/28/2021 12:15:00 AM 10.84 51.512 0.394 7.87 8.24 10.41
10/28/2021 12:30:00 AM 10.83 51.494 0.394 7.88 8.21 10.42
10/28/2021 12:45:00 AM 10.81 51.458 0.394 7.87 10.6 10.41
10/28/2021 1:00:00 AM 10.79 51.422 0.394 7.87 9.56 10.42
10/28/2021 1:15:00 AM 10.76 51.368 0.394 7.87 10.57 10.44
10/28/2021 1:30:00 AM 10.74 51.332 0.394 7.87 9.2 10.44
10/28/2021 1:45:00 AM 10.71 51.278 0.394 7.87 8.22 10.46
10/28/2021 2:00:00 AM 10.69 51.242 0.395 7.87 9.1 10.45
10/28/2021 2:15:00 AM 10.67 51.206 0.395 7.86 9.16 10.46
10/28/2021 2:30:00 AM 10.64 51.152 0.395 7.87 8.31 10.48
10/28/2021 2:45:00 AM 10.6 51.08 0.395 7.87 9.19 10.48
10/28/2021 3:00:00 AM 10.58 51.044 0.395 7.87 8.24 10.47
10/28/2021 3:15:00 AM 10.54 50.972 0.395 7.86 8.38 10.47
10/28/2021 3:30:00 AM 10.49 50.882 0.395 7.87 8.5 10.49
10/28/2021 3:45:00 AM 10.46 50.828 0.395 7.87 8.35 10.52
10/28/2021 4:00:00 AM 10.42 50.756 0.396 7.87 8.4 10.53
10/28/2021 4:15:00 AM 10.39 50.702 0.396 7.87 8.22 10.53
10/28/2021 4:30:00 AM 10.36 50.648 0.396 7.87 8.35 10.53
10/28/2021 4:45:00 AM 10.33 50.594 0.396 7.87 9.28 10.55
10/28/2021 5:00:00 AM 10.3 50.54 0.396 7.87 9.25 10.55
10/28/2021 5:15:00 AM 10.26 50.468 0.391 7.86 9.55 10.56
10/28/2021 5:30:00 AM 10.23 50.414 0.397 7.87 8.44 10.58
10/28/2021 5:45:00 AM 10.2 50.36 0.397 7.87 8.65 10.58
10/28/2021 6:00:00 AM 10.17 50.306 0.397 7.86 9.27 10.6
10/28/2021 6:15:00 AM 10.13 50.234 0.397 7.87 8.46 10.59
10/28/2021 6:30:00 AM 10.1 50.18 0.397 7.86 9.55 10.6
10/28/2021 6:45:00 AM 10.07 50.126 0.392 7.87 9.25 10.63
10/28/2021 7:00:00 AM 10.04 50.072 0.397 7.87 9.9 10.63
10/28/2021 7:15:00 AM 10.01 50.018 0.393 7.86 9.27 10.63
10/28/2021 7:30:00 AM 9.97 49.946 0.397 7.86 9.26 10.65
10/28/2021 7:45:00 AM 9.93 49.874 0.397 7.86 8.55 10.67
10/28/2021 8:00:00 AM 9.9 49.82 0.397 7.87 9.42 10.69
10/28/2021 8:15:00 AM 9.87 49.766 0.397 7.87 9.3 10.71
10/28/2021 8:30:00 AM 9.85 49.73 0.397 7.87 8.37 10.75
10/28/2021 8:45:00 AM 9.84 49.712 0.397 7.87 9.35 10.78
10/28/2021 9:00:00 AM 9.82 49.676 0.398 7.88 8.53 10.85
10/28/2021 9:15:00 AM 9.82 49.676 0.398 7.89 8.37 10.89
10/28/2021 9:30:00 AM 9.83 49.694 0.398 7.89 11.64 10.93
10/28/2021 9:45:00 AM 9.83 49.694 0.398 7.9 10.19 11
10/28/2021 10:00:00 AM 9.83 49.694 0.397 7.9 10.07 11.03
10/28/2021 10:15:00 AM 9.83 49.694 0.398 7.9 9.28 11.07
10/28/2021 10:30:00 AM 9.89 49.802 0.397 7.92 9.32 11.08
10/28/2021 10:45:00 AM 9.94 49.892 0.397 7.92 10.31 11.12
10/28/2021 11:00:00 AM 9.98 49.964 0.397 7.92 10.1 11.11
10/28/2021 11:15:00 AM 10.03 50.054 0.397 7.94 9.48 11.15
10/28/2021 11:30:00 AM 10.08 50.144 0.397 7.94 9.46 11.15
10/28/2021 11:45:00 AM 10.1 50.18 0.397 7.94 9.4 11.16
10/28/2021 12:00:00 PM 10.15 50.27 0.397 7.95 9.71 11.15
10/28/2021 12:15:00 PM 10.22 50.396 0.397 7.95 9.56 11.15
10/28/2021 12:30:00 PM 10.28 50.504 0.397 7.96 9.45 11.16
10/28/2021 12:45:00 PM 10.37 50.666 0.396 7.96 10.19 11.15
10/28/2021 1:00:00 PM 10.46 50.828 0.396 7.96 9.16 11.14
10/28/2021 1:15:00 PM 10.57 51.026 0.396 7.97 9.36 11.14
10/28/2021 1:30:00 PM 10.65 51.17 0.396 7.97 9.53 11.14
10/28/2021 1:45:00 PM 10.77 51.386 0.395 7.98 9.09 11.12
10/28/2021 2:00:00 PM 10.9 51.62 0.395 7.99 9.38 11.14
10/28/2021 2:15:00 PM 10.99 51.782 0.395 7.99 10.01 11.13
10/28/2021 2:30:00 PM 11.1 51.98 0.395 8 10.26 11.13
10/28/2021 2:45:00 PM 11.18 52.124 0.395 8 9.06 11.11
10/28/2021 3:00:00 PM 11.26 52.268 0.395 8.02 9.9 11.09
10/28/2021 3:15:00 PM 11.38 52.484 0.395 8.01 9.13 11.09
10/28/2021 3:30:00 PM 11.5 52.7 0.395 8.03 9.7 11.07
10/28/2021 3:45:00 PM 11.73 53.114 0.395 8.03 8.85 11.05
10/28/2021 4:00:00 PM 11.68 53.024 0.394 8.03 9.91 11.01
10/28/2021 4:15:00 PM 11.71 53.078 0.394 8.03 9.15 10.96
10/28/2021 4:30:00 PM 11.8 53.24 0.394 8.03 8.95 10.95
10/28/2021 4:45:00 PM 11.78 53.204 0.394 8.04 8.97 10.91
10/28/2021 5:00:00 PM 11.85 53.33 0.394 8.04 9.14 10.85
10/28/2021 5:15:00 PM 11.87 53.366 0.394 8.02 8.98 10.82
10/28/2021 5:30:00 PM 11.85 53.33 0.393 8.02 8.86 10.78
10/28/2021 5:45:00 PM 11.81 53.258 0.393 8.02 9.07 10.71
10/28/2021 6:00:00 PM 11.77 53.186 0.393 8 8.9 10.63
10/28/2021 6:15:00 PM 11.73 53.114 0.393 7.98 8.94 10.57
10/28/2021 6:30:00 PM 11.7 53.06 0.393 7.98 9.05 10.52
10/28/2021 6:45:00 PM 11.67 53.006 0.393 7.96 8.95 10.47
10/28/2021 7:00:00 PM 11.65 52.97 0.393 7.96 8.99 10.43
10/28/2021 7:15:00 PM 11.64 52.952 0.393 7.95 8.85 10.41
10/28/2021 7:30:00 PM 11.63 52.934 0.393 7.94 8.84 10.38
10/28/2021 7:45:00 PM 11.63 52.934 0.393 7.92 9.59 10.35
10/28/2021 8:00:00 PM 11.61 52.898 0.392 7.93 9.13 10.33
10/28/2021 8:15:00 PM 11.61 52.898 0.392 7.91 10.52 10.31
10/28/2021 8:30:00 PM 11.61 52.898 0.392 7.91 10.37 10.3
10/28/2021 8:45:00 PM 11.62 52.916 0.392 7.91 9.79 10.29
10/28/2021 9:00:00 PM 11.62 52.916 0.391 7.9 10.18 10.29
10/28/2021 9:15:00 PM 11.63 52.934 0.392 7.9 8.97 10.27
10/28/2021 9:30:00 PM 11.63 52.934 0.392 7.9 8.94 10.25
10/28/2021 9:45:00 PM 11.62 52.916 0.391 7.9 8.96 10.26
10/28/2021 10:00:00 PM 11.62 52.916 0.392 7.89 9.75 10.25
10/28/2021 10:15:00 PM 11.61 52.898 0.392 7.89 8.89 10.22
10/28/2021 10:30:00 PM 11.6 52.88 0.391 7.89 8.88 10.24
10/28/2021 10:45:00 PM 11.6 52.88 0.391 7.89 8.92 10.24
10/28/2021 11:00:00 PM 11.59 52.862 0.391 7.89 9.05 10.22
10/28/2021 11:15:00 PM 11.58 52.844 0.391 7.89 8.87 10.23
10/28/2021 11:30:00 PM 11.58 52.844 0.391 7.88 9.01 10.2
10/28/2021 11:45:00 PM 11.57 52.826 0.391 7.88 8.91 10.21
10/29/2021 12:00:00 AM 11.57 52.826 0.391 7.88 8.93 10.22
10/29/2021 12:15:00 AM 11.56 52.808 0.391 7.87 9.88 10.22
10/29/2021 12:30:00 AM 11.56 52.808 0.39 7.87 9.97 10.21
10/29/2021 12:45:00 AM 11.55 52.79 0.391 7.87 9.74 10.21
10/29/2021 1:00:00 AM 11.55 52.79 0.391 7.86 9.12 10.2
10/29/2021 1:15:00 AM 11.55 52.79 0.391 7.87 9.9 10.2
10/29/2021 1:30:00 AM 11.55 52.79 0.391 7.86 10.08 10.18
10/29/2021 1:45:00 AM 11.56 52.808 0.39 7.86 10.2 10.2
10/29/2021 2:00:00 AM 11.56 52.808 0.39 7.86 9.86 10.2
10/29/2021 2:15:00 AM 11.57 52.826 0.39 7.86 10.21 10.19
10/29/2021 2:30:00 AM 11.57 52.826 0.39 7.86 10.17 10.18
10/29/2021 2:45:00 AM 11.57 52.826 0.39 7.86 8.93 10.17
10/29/2021 3:00:00 AM 11.57 52.826 0.39 7.86 9.24 10.18
10/29/2021 3:15:00 AM 11.58 52.844 0.39 7.86 9.68 10.17
10/29/2021 3:30:00 AM 11.58 52.844 0.389 7.86 9.79 10.17
10/29/2021 3:45:00 AM 11.57 52.826 0.39 7.85 9.02 10.17
10/29/2021 4:00:00 AM 11.57 52.826 0.39 7.86 9.05 10.16
10/29/2021 4:15:00 AM 11.57 52.826 0.388 7.86 10.07 10.18
10/29/2021 4:30:00 AM 11.57 52.826 0.388 7.87 9.31 10.18
10/29/2021 4:45:00 AM 11.56 52.808 0.388 7.86 9.08 10.16
10/29/2021 5:00:00 AM 11.56 52.808 0.388 7.86 10.5 10.15
10/29/2021 5:15:00 AM 11.56 52.808 0.388 7.86 10.89 10.17
10/29/2021 5:30:00 AM 11.56 52.808 0.388 7.86 9.7 10.16
10/29/2021 5:45:00 AM 11.55 52.79 0.388 7.86 9.43 10.16
10/29/2021 6:00:00 AM 11.55 52.79 0.388 7.86 10.74 10.16
10/29/2021 6:15:00 AM 11.54 52.772 0.386 7.85 10.22 10.16
10/29/2021 6:30:00 AM 11.52 52.736 0.385 7.86 9.51 10.17
10/29/2021 6:45:00 AM 11.5 52.7 0.383 7.85 9.86 10.17
10/29/2021 7:00:00 AM 11.49 52.682 0.382 7.86 9.83 10.17
10/29/2021 7:15:00 AM 11.48 52.664 0.38 7.85 9.85 10.16
10/29/2021 7:30:00 AM 11.46 52.628 0.38 7.84 10.59 10.17
10/29/2021 7:45:00 AM 11.45 52.61 0.379 7.84 10.32 10.15
10/29/2021 8:00:00 AM 11.44 52.592 0.379 7.84 9.99 10.15
10/29/2021 8:15:00 AM 11.43 52.574 0.379 7.84 9.69 10.16
10/29/2021 8:30:00 AM 11.43 52.574 0.38 7.84 9.47 10.19
10/29/2021 8:45:00 AM 11.42 52.556 0.379 7.84 11.1 10.25
10/29/2021 9:00:00 AM 11.41 52.538 0.38 7.85 9.38 10.26
10/29/2021 9:15:00 AM 11.4 52.52 0.38 7.85 10.4 10.26
10/29/2021 9:30:00 AM 11.38 52.484 0.38 7.85 9.59 10.27
10/29/2021 9:45:00 AM 11.37 52.466 0.38 7.85 10.09 10.28
10/29/2021 10:00:00 AM 11.36 52.448 0.379 7.85 10.03 10.3
10/29/2021 10:15:00 AM 11.34 52.412 0.379 7.86 9.26 10.3
10/29/2021 10:30:00 AM 11.33 52.394 0.379 7.87 9.28 10.33
10/29/2021 10:45:00 AM 11.32 52.376 0.379 7.87 12.23 10.34
10/29/2021 11:00:00 AM 11.3 52.34 0.377 7.87 9.59 10.36
10/29/2021 11:15:00 AM 11.29 52.322 0.375 7.86 9.34 10.38
10/29/2021 11:30:00 AM 11.31 52.358 0.375 7.87 9.41 10.4
10/29/2021 11:45:00 AM 11.31 52.358 0.374 7.87 9.21 10.44
10/29/2021 12:00:00 PM 11.29 52.322 0.373 7.88 9.49 10.45
10/29/2021 12:15:00 PM 11.26 52.268 0.371 7.87 10.2 10.46
10/29/2021 12:30:00 PM 11.24 52.232 0.369 7.87 10.24 10.44
10/29/2021 12:45:00 PM 11.23 52.214 0.367 7.86 10.57 10.44
10/29/2021 1:00:00 PM 11.22 52.196 0.365 7.85 9.85 10.44
10/29/2021 1:15:00 PM 11.27 52.286 0.365 7.86 9.84 10.48
10/29/2021 1:30:00 PM 11.27 52.286 0.363 7.86 10.34 10.53
10/29/2021 1:45:00 PM 11.27 52.286 0.363 7.85 11.03 10.52
10/29/2021 2:00:00 PM 11.26 52.268 0.362 7.86 10.76 10.52
10/29/2021 2:15:00 PM 11.25 52.25 0.36 7.85 11.61 10.51
10/29/2021 2:30:00 PM 11.24 52.232 0.359 7.85 11.45 10.5
10/29/2021 2:45:00 PM 11.22 52.196 0.357 7.84 12.77 10.46
10/29/2021 3:00:00 PM 11.21 52.178 0.355 7.83 13.53 10.43
10/29/2021 3:15:00 PM 11.2 52.16 0.353 7.83 13.04 10.43
10/29/2021 3:30:00 PM 11.2 52.16 0.351 7.82 13.5 10.45
10/29/2021 3:45:00 PM 11.21 52.178 0.35 7.81 14.12 10.46
10/29/2021 4:00:00 PM 11.21 52.178 0.348 7.81 14.39 10.48
10/29/2021 4:15:00 PM 11.22 52.196 0.347 7.81 19.46 10.46
10/29/2021 4:30:00 PM 11.21 52.178 0.345 7.8 19.43 10.45
10/29/2021 4:45:00 PM 11.22 52.196 0.344 7.79 21.56 10.44
10/29/2021 5:00:00 PM 11.22 52.196 0.344 7.79 20.27 10.43
10/29/2021 5:15:00 PM 11.22 52.196 0.344 7.78 25.84 10.4
10/29/2021 5:30:00 PM 11.2 52.16 0.343 7.77 22.33 10.39
10/29/2021 5:45:00 PM 11.19 52.142 0.342 7.77 26.08 10.38
10/29/2021 6:00:00 PM 11.19 52.142 0.342 7.76 22.59 10.37
10/29/2021 6:15:00 PM 11.17 52.106 0.341 7.76 24.85 10.35
10/29/2021 6:30:00 PM 11.16 52.088 0.34 7.75 22.65 10.33
10/29/2021 6:45:00 PM 11.15 52.07 0.338 7.74 30.09 10.32
10/29/2021 7:00:00 PM 11.15 52.07 0.336 7.74 23.43 10.29
10/29/2021 7:15:00 PM 11.14 52.052 0.335 7.73 24.27 10.3
10/29/2021 7:30:00 PM 11.13 52.034 0.333 7.73 27.55 10.3
10/29/2021 7:45:00 PM 11.11 51.998 0.333 7.73 25.23 10.29
10/29/2021 8:00:00 PM 11.11 51.998 0.333 7.73 23.03 10.28
10/29/2021 8:15:00 PM 11.1 51.98 0.333 7.72 23.1 10.27
10/29/2021 8:30:00 PM 11.09 51.962 0.332 7.72 28.27 10.27
10/29/2021 8:45:00 PM 11.08 51.944 0.332 7.73 25.35 10.26
10/29/2021 9:00:00 PM 11.08 51.944 0.331 7.72 25.17 10.25
10/29/2021 9:15:00 PM 11.07 51.926 0.33 7.72 36.99 10.24
10/29/2021 9:30:00 PM 11.06 51.908 0.329 7.73 26.01 10.24
10/29/2021 9:45:00 PM 11.05 51.89 0.328 7.73 24.09 10.23
10/29/2021 10:00:00 PM 11.04 51.872 0.327 7.73 26.25 10.24
10/29/2021 10:15:00 PM 11.03 51.854 0.326 7.73 50.04 10.24
10/29/2021 10:30:00 PM 11.02 51.836 0.324 7.72 23.85 10.24
10/29/2021 10:45:00 PM 11.01 51.818 0.324 7.73 23 10.24
10/29/2021 11:00:00 PM 11 51.8 0.323 7.73 29.23 10.25
10/29/2021 11:15:00 PM 10.99 51.782 0.322 7.73 23.42 10.25
10/29/2021 11:30:00 PM 10.98 51.764 0.322 7.73 24.8 10.26
10/29/2021 11:45:00 PM 10.98 51.764 0.322 7.73 23.83 10.25
10/30/2021 12:00:00 AM 10.97 51.746 0.322 7.74 24.77 10.26
10/30/2021 12:15:00 AM 10.96 51.728 0.322 7.73 28.59 10.26
10/30/2021 12:30:00 AM 10.95 51.71 0.322 7.74 27.21 10.26
10/30/2021 12:45:00 AM 10.95 51.71 0.321 7.75 27.02 10.27
10/30/2021 1:00:00 AM 10.94 51.692 0.32 7.75 26.42 10.27
10/30/2021 1:15:00 AM 10.93 51.674 0.319 7.75 28.85 10.27
10/30/2021 1:30:00 AM 10.92 51.656 0.317 7.75 32.02 10.28
10/30/2021 1:45:00 AM 10.91 51.638 0.316 7.75 28.74 10.27
10/30/2021 2:00:00 AM 10.9 51.62 0.314 7.74 47.16 10.27
10/30/2021 2:15:00 AM 10.89 51.602 0.314 7.74 31.42 10.27
10/30/2021 2:30:00 AM 10.89 51.602 0.313 7.74 37.51 10.27
10/30/2021 2:45:00 AM 10.88 51.584 0.312 7.74 38.72 10.27
10/30/2021 3:00:00 AM 10.87 51.566 0.311 7.74 40 10.27
10/30/2021 3:15:00 AM 10.86 51.548 0.311 7.74 33.74 10.28
10/30/2021 3:30:00 AM 10.86 51.548 0.31 7.75 31.72 10.27
10/30/2021 3:45:00 AM 10.85 51.53 0.31 7.74 33.15 10.28
10/30/2021 4:00:00 AM 10.84 51.512 0.311 7.75 34.22 10.28
10/30/2021 4:15:00 AM 10.83 51.494 0.312 7.76 32.65 10.28
10/30/2021 4:30:00 AM 10.83 51.494 0.314 7.75 79.94 10.28
10/30/2021 4:45:00 AM 10.82 51.476 0.316 7.75 32.2 10.29
10/30/2021 5:00:00 AM 10.81 51.458 0.319 7.75 37.7 10.29
10/30/2021 5:15:00 AM 10.81 51.458 0.321 7.76 28.04 10.3
10/30/2021 5:30:00 AM 10.8 51.44 0.322 7.76 29.22 10.29
10/30/2021 5:45:00 AM 10.79 51.422 0.324 7.76 35.58 10.29
10/30/2021 6:00:00 AM 10.78 51.404 0.326 7.77 27.72 10.31
10/30/2021 6:15:00 AM 10.78 51.404 0.327 7.76 28.07 10.31
10/30/2021 6:30:00 AM 10.77 51.386 0.329 7.77 28.99 10.31
10/30/2021 6:45:00 AM 10.76 51.368 0.33 7.77 27.48 10.32
10/30/2021 7:00:00 AM 10.74 51.332 0.332 7.77 42.84 10.3
10/30/2021 7:15:00 AM 10.74 51.332 0.332 7.77 19.25 10.31
10/30/2021 7:30:00 AM 10.72 51.296 0.333 7.78 14.09 10.33
10/30/2021 7:45:00 AM 10.72 51.296 0.333 7.77 14.12 10.33
10/30/2021 8:00:00 AM 10.71 51.278 0.333 7.78 13.32 10.34
10/30/2021 8:15:00 AM 10.71 51.278 0.333 7.77 13.88 10.33
10/30/2021 8:30:00 AM 10.71 51.278 0.333 7.78 14.06 10.34
10/30/2021 8:45:00 AM 10.71 51.278 0.333 7.77 13.14 10.37
10/30/2021 9:00:00 AM 10.72 51.296 0.332 7.78 15.65 10.38
10/30/2021 9:15:00 AM 10.74 51.332 0.332 7.78 13.4 10.4
10/30/2021 9:30:00 AM 10.75 51.35 0.331 7.79 12.78 10.42
10/30/2021 9:45:00 AM 10.78 51.404 0.331 7.79 48.48 10.44
10/30/2021 10:00:00 AM 10.8 51.44 0.33 7.79 11.62 10.45
10/30/2021 10:15:00 AM 10.82 51.476 0.329 7.79 11.41 10.47
10/30/2021 10:30:00 AM 10.85 51.53 0.328 7.8 10.8 10.49
10/30/2021 10:45:00 AM 10.89 51.602 0.328 7.8 10.46 10.5
10/30/2021 11:00:00 AM 10.93 51.674 0.327 7.79 13.69 10.52
10/30/2021 11:15:00 AM 10.96 51.728 0.326 7.81 11.67 10.53
10/30/2021 11:30:00 AM 11 51.8 0.325 7.8 13.26 10.54
10/30/2021 11:45:00 AM 11.06 51.908 0.324 7.8 10.48 10.56
10/30/2021 12:00:00 PM 11.1 51.98 0.323 7.81 10.42 10.56
10/30/2021 12:15:00 PM 11.14 52.052 0.321 7.81 12.4 10.58
10/30/2021 12:30:00 PM 11.18 52.124 0.32 7.81 12.78 10.58
10/30/2021 12:45:00 PM 11.2 52.16 0.316 7.81 11.32 10.56
10/30/2021 1:00:00 PM 11.22 52.196 0.317 7.81 12.51 10.56
10/30/2021 1:15:00 PM 11.25 52.25 0.312 7.8 11.52 10.55
10/30/2021 1:30:00 PM 11.29 52.322 0.314 7.81 11.8 10.56
10/30/2021 1:45:00 PM 11.31 52.358 0.313 7.82 11.04 10.56
10/30/2021 2:00:00 PM 11.37 52.466 0.312 7.81 11.76 10.57
10/30/2021 2:15:00 PM 11.43 52.574 0.311 7.81 12.17 10.59
10/30/2021 2:30:00 PM 11.47 52.646 0.31 7.81 12.04 10.58
10/30/2021 2:45:00 PM 11.52 52.736 0.309 7.81 14.88 10.58
10/30/2021 3:00:00 PM 11.56 52.808 0.308 7.81 11.96 10.57
10/30/2021 3:15:00 PM 11.59 52.862 0.307 7.82 10.7 10.57
10/30/2021 3:30:00 PM 11.62 52.916 0.306 7.82 9.87 10.55
10/30/2021 3:45:00 PM 11.65 52.97 0.306 7.81 12.38 10.55
10/30/2021 4:00:00 PM 11.68 53.024 0.305 7.81 12.74 10.53
10/30/2021 4:15:00 PM 11.7 53.06 0.304 7.81 11.88 10.52
10/30/2021 4:30:00 PM 11.72 53.096 0.304 7.8 11.6 10.48
10/30/2021 4:45:00 PM 11.74 53.132 0.303 7.8 11.96 10.44
10/30/2021 5:00:00 PM 11.75 53.15 0.303 7.79 12.58 10.4
10/30/2021 5:15:00 PM 11.75 53.15 0.302 7.79 10.18 10.37
10/30/2021 5:30:00 PM 11.74 53.132 0.302 7.78 12.03 10.34
10/30/2021 5:45:00 PM 11.75 53.15 0.301 7.77 11.83 10.31
10/30/2021 6:00:00 PM 11.75 53.15 0.3 7.77 11.39 10.28
10/30/2021 6:15:00 PM 11.74 53.132 0.299 7.77 10.46 10.26
10/30/2021 6:30:00 PM 11.74 53.132 0.298 7.77 11.66 10.24
10/30/2021 6:45:00 PM 11.73 53.114 0.298 7.76 10.36 10.21
10/30/2021 7:00:00 PM 11.71 53.078 0.297 7.75 10.84 10.19
10/30/2021 7:15:00 PM 11.7 53.06 0.296 7.74 12.09 10.18
10/30/2021 7:30:00 PM 11.69 53.042 0.295 7.73 10.83 10.16
10/30/2021 7:45:00 PM 11.68 53.024 0.294 7.74 10.52 10.15
10/30/2021 8:00:00 PM 11.68 53.024 0.293 7.72 11.95 10.14
10/30/2021 8:15:00 PM 11.67 53.006 0.292 7.72 13.96 10.13
10/30/2021 8:30:00 PM 11.66 52.988 0.291 7.72 11.68 10.13
10/30/2021 8:45:00 PM 11.65 52.97 0.291 7.71 11.43 10.11
10/30/2021 9:00:00 PM 11.64 52.952 0.29 7.71 11.61 10.12
10/30/2021 9:15:00 PM 11.63 52.934 0.289 7.7 11.58 10.11
10/30/2021 9:30:00 PM 11.62 52.916 0.289 7.71 10.1 10.1
10/30/2021 9:45:00 PM 11.6 52.88 0.288 7.71 10.12 10.12
10/30/2021 10:00:00 PM 11.6 52.88 0.288 7.7 10.78 10.09
10/30/2021 10:15:00 PM 11.6 52.88 0.287 7.7 10.56 10.1
10/30/2021 10:30:00 PM 11.59 52.862 0.287 7.7 10.7 10.09
10/30/2021 10:45:00 PM 11.59 52.862 0.287 7.7 10.63 10.09
10/30/2021 11:00:00 PM 11.58 52.844 0.286 7.7 10.42 10.09
10/30/2021 11:15:00 PM 11.58 52.844 0.286 7.69 11.86 10.09
10/30/2021 11:30:00 PM 11.57 52.826 0.285 7.68 12.08 10.09
10/30/2021 11:45:00 PM 11.57 52.826 0.285 7.68 12.73 10.09
10/31/2021 12:00:00 AM 11.56 52.808 0.285 7.69 10.05 10.09
10/31/2021 12:15:00 AM 11.56 52.808 0.285 7.68 10.79 10.1
10/31/2021 12:30:00 AM 11.56 52.808 0.284 7.68 12.17 10.1
10/31/2021 12:45:00 AM 11.55 52.79 0.284 7.68 10.8 10.1
10/31/2021 1:00:00 AM 11.53 52.754 0.284 7.69 11.23 10.11
10/31/2021 1:15:00 AM 11.52 52.736 0.284 7.67 15.62 10.1
10/31/2021 1:30:00 AM 11.52 52.736 0.283 7.67 12.05 10.09
10/31/2021 1:45:00 AM 11.51 52.718 0.284 7.67 10.47 10.09
10/31/2021 2:00:00 AM 11.5 52.7 0.283 7.67 11.89 10.1
10/31/2021 2:15:00 AM 11.5 52.7 0.283 7.67 10.7 10.09
10/31/2021 2:30:00 AM 11.49 52.682 0.283 7.66 11.68 10.1
10/31/2021 2:45:00 AM 11.48 52.664 0.283 7.67 10.72 10.08
10/31/2021 3:00:00 AM 11.47 52.646 0.283 7.66 11.05 10.1
10/31/2021 3:15:00 AM 11.47 52.646 0.282 7.66 11.41 10.11
10/31/2021 3:30:00 AM 11.46 52.628 0.283 7.65 10.51 10.1
10/31/2021 3:45:00 AM 11.46 52.628 0.283 7.66 11.76 10.1
10/31/2021 4:00:00 AM 11.46 52.628 0.282 7.66 13.67 10.11
10/31/2021 4:15:00 AM 11.45 52.61 0.282 7.66 10.47 10.11
10/31/2021 4:30:00 AM 11.45 52.61 0.282 7.66 11.07 10.1
10/31/2021 4:45:00 AM 11.44 52.592 0.282 7.66 11.43 10.09
10/31/2021 5:00:00 AM 11.44 52.592 0.282 7.66 11.87 10.12
10/31/2021 5:15:00 AM 11.43 52.574 0.282 7.66 10.34 10.1
10/31/2021 5:30:00 AM 11.43 52.574 0.282 7.65 13.05 10.11
10/31/2021 5:45:00 AM 11.42 52.556 0.282 7.65 11.64 10.12
10/31/2021 6:00:00 AM 11.41 52.538 0.282 7.65 12.25 10.12
10/31/2021 6:15:00 AM 11.41 52.538 0.282 7.66 10.7 10.12
10/31/2021 6:30:00 AM 11.41 52.538 0.282 7.65 11.53 10.13
10/31/2021 6:45:00 AM 11.4 52.52 0.282 7.66 10.13 10.13
10/31/2021 7:00:00 AM 11.4 52.52 0.282 7.66 10.61 10.13
10/31/2021 7:15:00 AM 11.39 52.502 0.282 7.65 10.49 10.14
10/31/2021 7:30:00 AM 11.39 52.502 0.282 7.65 11.4 10.13
10/31/2021 7:45:00 AM 11.39 52.502 0.282 7.66 10.5 10.12
10/31/2021 8:00:00 AM 11.39 52.502 0.282 7.65 11.6 10.14
10/31/2021 8:15:00 AM 11.39 52.502 0.282 7.66 10.6 10.14
10/31/2021 8:30:00 AM 11.39 52.502 0.282 7.66 10.27 10.16
10/31/2021 8:45:00 AM 11.4 52.52 0.282 7.65 12.2 10.18
10/31/2021 9:00:00 AM 11.42 52.556 0.282 7.65 10.14 10.21
10/31/2021 9:15:00 AM 11.43 52.574 0.282 7.65 11.14 10.22
10/31/2021 9:30:00 AM 11.45 52.61 0.282 7.66 9.43 10.25
10/31/2021 9:45:00 AM 11.46 52.628 0.282 7.67 12.93 10.28
10/31/2021 10:00:00 AM 11.47 52.646 0.282 7.67 11.47 10.29
10/31/2021 10:15:00 AM 11.51 52.718 0.282 7.69 11.01 10.32
10/31/2021 10:30:00 AM 11.52 52.736 0.282 7.7 10.04 10.34
10/31/2021 10:45:00 AM 11.54 52.772 0.282 7.7 9.96 10.36
10/31/2021 11:00:00 AM 11.57 52.826 0.282 7.7 11.11 10.39
10/31/2021 11:15:00 AM 11.59 52.862 0.282 7.71 9.91 10.42
10/31/2021 11:30:00 AM 11.62 52.916 0.282 7.71 12.09 10.44
10/31/2021 11:45:00 AM 11.64 52.952 0.282 7.71 11.15 10.44
10/31/2021 12:00:00 PM 11.65 52.97 0.282 7.73 10.4 10.45
10/31/2021 12:15:00 PM 11.69 53.042 0.282 7.73 10.27 10.46
10/31/2021 12:30:00 PM 11.73 53.114 0.282 7.73 11.4 10.5
10/31/2021 12:45:00 PM 11.74 53.132 0.282 7.74 10.63 10.5
10/31/2021 1:00:00 PM 11.76 53.168 0.281 7.74 10.59 10.5
10/31/2021 1:15:00 PM 11.78 53.204 0.281 7.74 10.56 10.5
10/31/2021 1:30:00 PM 11.8 53.24 0.281 7.74 10.23 10.49
10/31/2021 1:45:00 PM 11.82 53.276 0.281 7.75 10.51 10.49
10/31/2021 2:00:00 PM 11.84 53.312 0.281 7.75 10.48 10.5
10/31/2021 2:15:00 PM 11.85 53.33 0.281 7.73 12.39 10.48
10/31/2021 2:30:00 PM 11.88 53.384 0.281 7.74 10.41 10.49
10/31/2021 2:45:00 PM 11.88 53.384 0.281 7.75 12.68 10.48
10/31/2021 3:00:00 PM 11.93 53.474 0.28 7.76 10.62 10.51
10/31/2021 3:15:00 PM 11.97 53.546 0.28 7.76 11.97 10.54
10/31/2021 3:30:00 PM 11.99 53.582 0.28 7.77 11.18 10.53
10/31/2021 3:45:00 PM 12 53.6 0.28 7.77 12.91 10.53
10/31/2021 4:00:00 PM 12.05 53.69 0.28 7.76 10.93 10.52
10/31/2021 4:15:00 PM 12.06 53.708 0.279 7.76 10.47 10.52
10/31/2021 4:30:00 PM 12.08 53.744 0.279 7.77 11.82 10.51
10/31/2021 4:45:00 PM 12.05 53.69 0.279 7.77 10.83 10.49
10/31/2021 5:00:00 PM 12.02 53.636 0.279 7.77 10.68 10.47
10/31/2021 5:15:00 PM 12.01 53.618 0.279 7.76 10.82 10.43
10/31/2021 5:30:00 PM 11.98 53.564 0.279 7.76 11.37 10.41
10/31/2021 5:45:00 PM 11.95 53.51 0.278 7.74 11.99 10.37
10/31/2021 6:00:00 PM 11.92 53.456 0.278 7.73 11.01 10.33
10/31/2021 6:15:00 PM 11.88 53.384 0.278 7.73 12.75 10.31
10/31/2021 6:30:00 PM 11.85 53.33 0.278 7.73 11.07 10.28
10/31/2021 6:45:00 PM 11.82 53.276 0.278 7.71 11.01 10.27
10/31/2021 7:00:00 PM 11.79 53.222 0.278 7.72 11.71 10.25
10/31/2021 7:15:00 PM 11.75 53.15 0.278 7.7 11.65 10.24
10/31/2021 7:30:00 PM 11.71 53.078 0.278 7.71 11.38 10.24
10/31/2021 7:45:00 PM 11.67 53.006 0.278 7.71 11.49 10.23
10/31/2021 8:00:00 PM 11.63 52.934 0.278 7.7 10.81 10.22
10/31/2021 8:15:00 PM 11.59 52.862 0.277 7.7 11.25 10.23
10/31/2021 8:30:00 PM 11.55 52.79 0.277 7.69 11.32 10.22
10/31/2021 8:45:00 PM 11.51 52.718 0.277 7.7 11.44 10.24
10/31/2021 9:00:00 PM 11.49 52.682 0.277 7.69 12.65 10.23
10/31/2021 9:15:00 PM 11.47 52.646 0.277 7.69 12.77 10.25
10/31/2021 9:30:00 PM 11.46 52.628 0.277 7.69 12.7 10.23
10/31/2021 9:45:00 PM 11.46 52.628 0.277 7.68 11.14 10.24
10/31/2021 10:00:00 PM 11.45 52.61 0.277 7.7 11.52 10.24
10/31/2021 10:15:00 PM 11.44 52.592 0.277 7.69 11.68 10.24
10/31/2021 10:30:00 PM 11.43 52.574 0.277 7.68 13.45 10.24
10/31/2021 10:45:00 PM 11.41 52.538 0.277 7.68 13.43 10.24
10/31/2021 11:00:00 PM 11.39 52.502 0.277 7.68 11.89 10.26
10/31/2021 11:15:00 PM 11.38 52.484 0.277 7.68 13.36 10.26
10/31/2021 11:30:00 PM 11.38 52.484 0.277 7.68 11.58 10.24
10/31/2021 11:45:00 PM 11.37 52.466 0.277 7.69 12.01 10.26
11/1/2021 12:00:00 AM 11.36 52.448 0.277 7.69 11.75 10.27
11/1/2021 12:15:00 AM 11.35 52.43 0.277 7.68 11.88 10.26
11/1/2021 12:30:00 AM 11.35 52.43 0.277 7.69 11.72 10.26
11/1/2021 12:45:00 AM 11.34 52.412 0.274 7.68 13.53 10.28
11/1/2021 1:00:00 AM 11.33 52.394 0.276 7.68 11.38 10.29
11/1/2021 1:15:00 AM 11.33 52.394 0.276 7.68 13.14 10.28
11/1/2021 1:30:00 AM 11.31 52.358 0.277 7.69 11.57 10.3
11/1/2021 1:45:00 AM 11.3 52.34 0.277 7.69 11.97 10.3
11/1/2021 2:00:00 AM 11.29 52.322 0.277 7.69 11.48 10.3
11/1/2021 2:15:00 AM 11.28 52.304 0.277 7.68 13.13 10.3
11/1/2021 2:30:00 AM 11.26 52.268 0.277 7.69 11.91 10.3
11/1/2021 2:45:00 AM 11.24 52.232 0.277 7.69 11.71 10.32
11/1/2021 3:00:00 AM 11.22 52.196 0.277 7.68 13.57 10.33
11/1/2021 3:15:00 AM 11.18 52.124 0.277 7.69 12.69 10.34
11/1/2021 3:30:00 AM 11.15 52.07 0.277 7.69 11.41 10.34
11/1/2021 3:45:00 AM 11.11 51.998 0.277 7.69 12.84 10.35
11/1/2021 4:00:00 AM 11.08 51.944 0.278 7.69 13.12 10.36
11/1/2021 4:15:00 AM 11.05 51.89 0.278 7.68 13.12 10.36
11/1/2021 4:30:00 AM 11.02 51.836 0.278 7.68 13.37 10.36
11/1/2021 4:45:00 AM 10.98 51.764 0.279 7.69 13.37 10.38
11/1/2021 5:00:00 AM 10.94 51.692 0.279 7.69 14 10.4
11/1/2021 5:15:00 AM 10.89 51.602 0.279 7.69 13.4 10.39
11/1/2021 5:30:00 AM 10.84 51.512 0.279 7.69 12.16 10.41
11/1/2021 5:45:00 AM 10.78 51.404 0.28 7.69 12.63 10.43
11/1/2021 6:00:00 AM 10.73 51.314 0.28 7.69 12.3 10.44
11/1/2021 6:15:00 AM 10.69 51.242 0.28 7.69 12.25 10.45
11/1/2021 6:30:00 AM 10.65 51.17 0.28 7.69 12.01 10.46
11/1/2021 6:45:00 AM 10.6 51.08 0.28 7.69 11.68 10.48
11/1/2021 7:00:00 AM 10.54 50.972 0.28 7.68 12.39 10.49
11/1/2021 7:15:00 AM 10.49 50.882 0.28 7.69 11.78 10.51
11/1/2021 7:30:00 AM 10.43 50.774 0.28 7.68 11.57 10.53
11/1/2021 7:45:00 AM 10.37 50.666 0.28 7.68 11.98 10.54
11/1/2021 8:00:00 AM 10.32 50.576 0.28 7.68 12.38 10.57
11/1/2021 8:15:00 AM 10.26 50.468 0.28 7.68 13.14 10.59
11/1/2021 8:30:00 AM 10.21 50.378 0.28 7.68 11.67 10.63
11/1/2021 8:45:00 AM 10.16 50.288 0.28 7.69 11.44 10.66
11/1/2021 9:00:00 AM 10.13 50.234 0.28 7.69 11.47 10.68
11/1/2021 9:15:00 AM 10.09 50.162 0.28 7.69 11.63 10.72
11/1/2021 9:30:00 AM 10.06 50.108 0.28 7.7 11.26 10.76
11/1/2021 9:45:00 AM 10.04 50.072 0.28 7.7 11.77 10.8
11/1/2021 10:00:00 AM 10.02 50.036 0.28 7.71 12.15 10.83
11/1/2021 10:15:00 AM 10.01 50.018 0.28 7.72 10.95 10.85
11/1/2021 10:30:00 AM 9.99 49.982 0.28 7.71 12.94 10.89
11/1/2021 10:45:00 AM 9.98 49.964 0.28 7.72 12.88 10.92
11/1/2021 11:00:00 AM 9.97 49.946 0.28 7.73 11.14 10.96
11/1/2021 11:15:00 AM 9.96 49.928 0.28 7.73 12.21 10.98
11/1/2021 11:30:00 AM 9.97 49.946 0.28 7.73 12.96 11.02
11/1/2021 11:45:00 AM 9.99 49.982 0.28 7.73 11.69 11.03
11/1/2021 12:00:00 PM 10.03 50.054 0.28 7.75 12.37 11.06
11/1/2021 12:15:00 PM 10.13 50.234 0.28 7.75 13.11 11.08
11/1/2021 12:30:00 PM 10.19 50.342 0.28 7.77 11.27 11.11
11/1/2021 12:45:00 PM 10.23 50.414 0.28 7.76 12.11 11.1
11/1/2021 1:00:00 PM 10.29 50.522 0.28 7.76 11.42 11.11
11/1/2021 1:15:00 PM 10.37 50.666 0.28 7.77 12.4 11.1
11/1/2021 1:30:00 PM 10.48 50.864 0.281 7.78 11.14 11.11
11/1/2021 1:45:00 PM 10.54 50.972 0.28 7.78 13.49 11.1
11/1/2021 2:00:00 PM 10.57 51.026 0.28 7.78 12.58 11.07
11/1/2021 2:15:00 PM 10.63 51.134 0.281 7.77 11.34 11.05
11/1/2021 2:30:00 PM 10.74 51.332 0.28 7.79 11.56 11.05
11/1/2021 2:45:00 PM 10.77 51.386 0.28 7.78 13.43 11.05
11/1/2021 3:00:00 PM 10.71 51.278 0.281 7.78 11.4 11.06
11/1/2021 3:15:00 PM 10.79 51.422 0.28 7.79 12.89 11.04
11/1/2021 3:30:00 PM 10.78 51.404 0.281 7.79 11.43 11.03
11/1/2021 3:45:00 PM 10.73 51.314 0.281 7.79 11.09 11.01
11/1/2021 4:00:00 PM 10.76 51.368 0.281 7.78 11.97 11.01
11/1/2021 4:15:00 PM 10.72 51.296 0.28 7.78 12.03 11.02
11/1/2021 4:30:00 PM 10.67 51.206 0.278 7.78 12.17 11.01
11/1/2021 4:45:00 PM 10.65 51.17 0.281 7.79 11.36 11.01
11/1/2021 5:00:00 PM 10.62 51.116 0.281 7.79 11.27 11.01
11/1/2021 5:15:00 PM 10.6 51.08 0.281 7.78 13.02 11
11/1/2021 5:30:00 PM 10.55 50.99 0.281 7.77 12.77 10.97
11/1/2021 5:45:00 PM 10.5 50.9 0.281 7.76 12.08 10.94
11/1/2021 6:00:00 PM 10.45 50.81 0.281 7.76 40.22 10.92
11/1/2021 6:15:00 PM 10.41 50.738 0.282 7.75 12.02 10.88
11/1/2021 6:30:00 PM 10.38 50.684 0.282 7.75 11.92 10.85
11/1/2021 6:45:00 PM 10.35 50.63 0.282 7.73 13.33 10.83
11/1/2021 7:00:00 PM 10.32 50.576 0.282 7.73 12.49 10.8
11/1/2021 7:15:00 PM 10.27 50.486 0.282 7.72 13.01 10.79
11/1/2021 7:30:00 PM 10.22 50.396 0.282 7.71 12 10.79
11/1/2021 7:45:00 PM 10.16 50.288 0.282 7.72 12.97 10.8
11/1/2021 8:00:00 PM 10.11 50.198 0.278 7.71 13.89 10.78
11/1/2021 8:15:00 PM 10.05 50.09 0.282 7.71 12.79 10.79
11/1/2021 8:30:00 PM 9.99 49.982 0.283 7.71 13.1 10.8
11/1/2021 8:45:00 PM 9.94 49.892 0.283 7.7 12.15 10.8
11/1/2021 9:00:00 PM 9.88 49.784 0.283 7.72 12.5 10.81
11/1/2021 9:15:00 PM 9.82 49.676 0.283 7.71 12.5 10.81
11/1/2021 9:30:00 PM 9.77 49.586 0.284 7.7 11.85 10.8
11/1/2021 9:45:00 PM 9.72 49.496 0.284 7.71 12.52 10.81
11/1/2021 10:00:00 PM 9.66 49.388 0.284 7.7 12.13 10.84
11/1/2021 10:15:00 PM 9.6 49.28 0.284 7.69 13.77 10.84
11/1/2021 10:30:00 PM 9.56 49.208 0.284 7.7 13.06 10.86
11/1/2021 10:45:00 PM 9.51 49.118 0.284 7.69 13.44 10.86
11/1/2021 11:00:00 PM 9.44 48.992 0.284 7.68 12.41 10.88
11/1/2021 11:15:00 PM 9.39 48.902 0.284 7.7 12.41 10.89
11/1/2021 11:30:00 PM 9.35 48.83 0.284 7.7 12.07 10.91
11/1/2021 11:45:00 PM 9.32 48.776 0.284 7.7 12.32 10.93
11/2/2021 12:00:00 AM 9.28 48.704 0.284 7.69 62.88 10.81
11/2/2021 12:15:00 AM 9.23 48.614 0.284 7.69 18 10.93
11/2/2021 12:30:00 AM 9.19 48.542 0.285 7.7 7.64 10.96
11/2/2021 12:45:00 AM 9.16 48.488 0.285 7.69 10.97 10.97
11/2/2021 1:00:00 AM 9.12 48.416 0.285 7.7 6.51 10.99
11/2/2021 1:15:00 AM 9.09 48.362 0.285 7.68 7.46 10.99
11/2/2021 1:30:00 AM 9.05 48.29 0.281 7.68 6.44 11
11/2/2021 1:45:00 AM 9.01 48.218 0.285 7.69 4.89 11.02
11/2/2021 2:00:00 AM 8.98 48.164 0.285 7.69 6.56 11.04
11/2/2021 2:15:00 AM 8.94 48.092 0.285 7.68 6.24 11.04
11/2/2021 2:30:00 AM 8.9 48.02 0.285 7.68 6.29 11.06
11/2/2021 2:45:00 AM 8.86 47.948 0.285 7.68 6.34 11.07
11/2/2021 3:00:00 AM 8.81 47.858 0.285 7.69 5.05 11.08
11/2/2021 3:15:00 AM 8.76 47.768 0.285 7.68 4.74 11.08
11/2/2021 3:30:00 AM 8.71 47.678 0.285 7.69 5.01 11.1
11/2/2021 3:45:00 AM 8.68 47.624 0.285 7.68 5.93 11.11
11/2/2021 4:00:00 AM 8.64 47.552 0.285 7.69 4.79 11.14
11/2/2021 4:15:00 AM 8.61 47.498 0.286 7.68 5.97 11.14
11/2/2021 4:30:00 AM 8.57 47.426 0.286 7.69 4.69 11.16
11/2/2021 4:45:00 AM 8.56 47.408 0.286 7.69 4.8 11.16
11/2/2021 5:00:00 AM 8.54 47.372 0.286 7.68 5.88 11.16
11/2/2021 5:15:00 AM 8.52 47.336 0.286 7.69 4.86 11.18
11/2/2021 5:30:00 AM 8.51 47.318 0.286 7.69 4.52 11.18
11/2/2021 5:45:00 AM 8.5 47.3 0.286 7.67 4.61 11.18
11/2/2021 6:00:00 AM 8.48 47.264 0.286 7.69 4.91 11.18
11/2/2021 6:15:00 AM 8.46 47.228 0.286 7.68 6.01 11.19
11/2/2021 6:30:00 AM 8.45 47.21 0.286 7.69 4.82 11.2
11/2/2021 6:45:00 AM 8.44 47.192 0.286 7.67 6.01 11.2
11/2/2021 7:00:00 AM 8.42 47.156 0.286 7.67 4.33 11.21
11/2/2021 7:15:00 AM 8.41 47.138 0.287 7.69 4.63 11.21
11/2/2021 7:30:00 AM 8.4 47.12 0.287 7.68 5.15 11.22
11/2/2021 7:45:00 AM 8.39 47.102 0.287 7.69 4.72 11.22
11/2/2021 8:00:00 AM 8.37 47.066 0.287 7.68 4.72 11.24
11/2/2021 8:15:00 AM 8.36 47.048 0.287 7.68 5.73 11.25
11/2/2021 8:30:00 AM 8.36 47.048 0.287 7.69 4.63 11.27
11/2/2021 8:45:00 AM 8.35 47.03 0.287 7.7 4.55 11.31
11/2/2021 9:00:00 AM 8.36 47.048 0.287 7.69 5.17 11.34
11/2/2021 9:15:00 AM 8.37 47.066 0.287 7.7 5.14 11.38
11/2/2021 9:30:00 AM 8.38 47.084 0.287 7.7 4.68 11.42
11/2/2021 9:45:00 AM 8.4 47.12 0.287 7.71 4.51 11.44
11/2/2021 10:00:00 AM 8.42 47.156 0.287 7.72 5.02 11.47
11/2/2021 10:15:00 AM 8.42 47.156 0.287 7.73 5.64 11.5
11/2/2021 10:30:00 AM 8.46 47.228 0.288 7.74 4.55 11.53
11/2/2021 10:45:00 AM 8.51 47.318 0.287 7.73 6.4 11.55
11/2/2021 11:00:00 AM 8.55 47.39 0.287 7.74 4.61 11.58
11/2/2021 11:15:00 AM 8.58 47.444 0.288 7.76 4.45 11.6
11/2/2021 11:30:00 AM 8.63 47.534 0.287 7.75 5.42 11.6
11/2/2021 11:45:00 AM 8.65 47.57 0.288 7.77 4.53 11.61
11/2/2021 12:00:00 PM 8.71 47.678 0.288 7.77 4.39 11.62
11/2/2021 12:15:00 PM 8.71 47.678 0.288 7.76 5.52 11.61
11/2/2021 12:30:00 PM 8.71 47.678 0.288 7.78 4.35 11.61
11/2/2021 12:45:00 PM 8.75 47.75 0.288 7.77 5.45 11.61
11/2/2021 1:00:00 PM 8.78 47.804 0.288 7.78 5.42 11.63
11/2/2021 1:15:00 PM 8.79 47.822 0.288 7.79 4.47 11.64
11/2/2021 1:30:00 PM 8.79 47.822 0.288 7.8 4.42 11.64
11/2/2021 1:45:00 PM 8.81 47.858 0.288 7.78 4.48 11.62
11/2/2021 2:00:00 PM 8.87 47.966 0.288 7.8 4.45 11.62
11/2/2021 2:15:00 PM 8.89 48.002 0.288 7.8 4.56 11.63
11/2/2021 2:30:00 PM 8.86 47.948 0.289 7.81 4.41 11.63
11/2/2021 2:45:00 PM 8.96 48.128 0.289 7.8 5.45 11.63
11/2/2021 3:00:00 PM 9.01 48.218 0.289 7.79 4.44 11.61
11/2/2021 3:15:00 PM 8.98 48.164 0.289 7.8 5.44 11.58
11/2/2021 3:30:00 PM 9.04 48.272 0.289 7.8 4.39 11.57
11/2/2021 3:45:00 PM 9.07 48.326 0.289 7.81 4.48 11.56
11/2/2021 4:00:00 PM 9.02 48.236 0.289 7.81 4.33 11.53
11/2/2021 4:15:00 PM 8.99 48.182 0.289 7.79 4.54 11.49
11/2/2021 4:30:00 PM 8.99 48.182 0.289 7.8 4.51 11.47
11/2/2021 4:45:00 PM 8.98 48.164 0.29 7.78 4.35 11.45
11/2/2021 5:00:00 PM 8.96 48.128 0.29 7.79 4.39 11.45
11/2/2021 5:15:00 PM 8.93 48.074 0.29 7.78 4.24 11.45
11/2/2021 5:30:00 PM 8.9 48.02 0.29 7.79 4.44 11.43
11/2/2021 5:45:00 PM 8.88 47.984 0.29 7.78 4.47 11.41
11/2/2021 6:00:00 PM 8.86 47.948 0.29 7.78 5.46 11.38
11/2/2021 6:15:00 PM 8.84 47.912 0.29 7.76 5.5 11.34
11/2/2021 6:30:00 PM 8.81 47.858 0.284 7.76 5.65 11.32
11/2/2021 6:45:00 PM 8.75 47.75 0.291 7.75 4.38 11.31
11/2/2021 7:00:00 PM 8.7 47.66 0.291 7.75 5.61 11.29
11/2/2021 7:15:00 PM 8.66 47.588 0.291 7.75 4.39 11.29
11/2/2021 7:30:00 PM 8.64 47.552 0.291 7.75 4.61 11.29
11/2/2021 7:45:00 PM 8.61 47.498 0.292 7.75 4.43 11.28
11/2/2021 8:00:00 PM 8.56 47.408 0.292 7.74 5.43 11.28
11/2/2021 8:15:00 PM 8.52 47.336 0.292 7.74 4.45 11.27
11/2/2021 8:30:00 PM 8.47 47.246 0.292 7.74 4.42 11.28
11/2/2021 8:45:00 PM 8.42 47.156 0.292 7.74 4.64 11.29
11/2/2021 9:00:00 PM 8.36 47.048 0.293 7.73 4.5 11.29
11/2/2021 9:15:00 PM 8.3 46.94 0.293 7.74 4.64 11.31
11/2/2021 9:30:00 PM 8.24 46.832 0.293 7.73 4.48 11.31
11/2/2021 9:45:00 PM 8.19 46.742 0.293 7.73 5.51 11.32
11/2/2021 10:00:00 PM 8.13 46.634 0.293 7.73 4.42 11.32
11/2/2021 10:15:00 PM 8.07 46.526 0.293 7.73 4.49 11.34
11/2/2021 10:30:00 PM 8.02 46.436 0.293 7.72 4.6 11.36
11/2/2021 10:45:00 PM 7.97 46.346 0.294 7.74 4.35 11.37
11/2/2021 11:00:00 PM 7.91 46.238 0.294 7.73 4.53 11.38
11/2/2021 11:15:00 PM 7.86 46.148 0.294 7.72 5.42 11.39
11/2/2021 11:30:00 PM 7.8 46.04 0.294 7.73 4.58 11.4
11/2/2021 11:45:00 PM 7.75 45.95 0.294 7.73 4.67 11.4
11/3/2021 12:00:00 AM 7.69 45.842 0.294 7.73 4.6 11.44
11/3/2021 12:15:00 AM 7.63 45.734 0.294 7.73 4.78 11.44
11/3/2021 12:30:00 AM 7.58 45.644 0.295 7.71 4.54 11.45
11/3/2021 12:45:00 AM 7.52 45.536 0.295 7.72 4.69 11.48
11/3/2021 1:00:00 AM 7.46 45.428 0.295 7.72 4.5 11.49
11/3/2021 1:15:00 AM 7.42 45.356 0.295 7.73 4.69 11.5
11/3/2021 1:30:00 AM 7.38 45.284 0.295 7.72 4.32 11.52
11/3/2021 1:45:00 AM 7.35 45.23 0.295 7.72 5.87 11.54
11/3/2021 2:00:00 AM 7.31 45.158 0.296 7.72 4.47 11.55
11/3/2021 2:15:00 AM 7.27 45.086 0.296 7.72 5.58 11.58
11/3/2021 2:30:00 AM 7.23 45.014 0.296 7.71 4.5 11.58
11/3/2021 2:45:00 AM 7.2 44.96 0.296 7.72 4.61 11.59
11/3/2021 3:00:00 AM 7.17 44.906 0.296 7.72 4.46 11.61
11/3/2021 3:15:00 AM 7.13 44.834 0.297 7.72 4.6 11.62
11/3/2021 3:30:00 AM 7.07 44.726 0.297 7.71 4.55 11.64
11/3/2021 3:45:00 AM 7.03 44.654 0.297 7.72 4.54 11.65
11/3/2021 4:00:00 AM 6.98 44.564 0.297 7.72 4.45 11.67
11/3/2021 4:15:00 AM 6.95 44.51 0.297 7.72 4.62 11.68
11/3/2021 4:30:00 AM 6.91 44.438 0.297 7.71 5.56 11.7
11/3/2021 4:45:00 AM 6.85 44.33 0.297 7.72 4.62 11.71
11/3/2021 5:00:00 AM 6.81 44.258 0.298 7.71 4.57 11.72
11/3/2021 5:15:00 AM 6.76 44.168 0.298 7.72 4.51 11.73
11/3/2021 5:30:00 AM 6.71 44.078 0.298 7.72 4.47 11.76
11/3/2021 5:45:00 AM 6.66 43.988 0.298 7.72 4.36 11.76
11/3/2021 6:00:00 AM 6.61 43.898 0.298 7.71 5.48 11.79
11/3/2021 6:15:00 AM 6.56 43.808 0.298 7.71 4.74 11.79
11/3/2021 6:30:00 AM 6.53 43.754 0.298 7.72 4.5 11.81
11/3/2021 6:45:00 AM 6.47 43.646 0.299 7.7 4.66 11.83
11/3/2021 7:00:00 AM 6.43 43.574 0.299 7.71 5.75 11.84
11/3/2021 7:15:00 AM 6.38 43.484 0.299 7.71 4.55 11.87
11/3/2021 7:30:00 AM 6.34 43.412 0.299 7.72 4.59 11.87
11/3/2021 7:45:00 AM 6.3 43.34 0.299 7.71 5.45 11.89
11/3/2021 8:00:00 AM 6.26 43.268 0.299 7.72 4.92 11.91
11/3/2021 8:15:00 AM 6.21 43.178 0.299 7.71 5.79 11.93
11/3/2021 8:30:00 AM 6.16 43.088 0.299 7.71 9.14 11.96
11/3/2021 8:45:00 AM 6.12 43.016 0.299 7.73 12.05 12
11/3/2021 9:00:00 AM 6.08 42.944 0.299 7.71 6.19 12.03
11/3/2021 9:15:00 AM 6.05 42.89 0.3 7.71 5.14 12.06
11/3/2021 9:30:00 AM 6.04 42.872 0.3 7.73 4.59 12.09
11/3/2021 9:45:00 AM 6.03 42.854 0.3 7.74 4.74 12.13
11/3/2021 10:00:00 AM 6.05 42.89 0.3 7.75 4.46 12.16
11/3/2021 10:15:00 AM 6.1 42.98 0.3 7.74 5.51 12.19
11/3/2021 10:30:00 AM 6.12 43.016 0.3 7.75 4.38 12.23
11/3/2021 10:45:00 AM 6.16 43.088 0.3 7.75 4.47 12.24
11/3/2021 11:00:00 AM 6.17 43.106 0.3 7.77 4.54 12.28
11/3/2021 11:15:00 AM 6.24 43.232 0.3 7.77 4.31 12.28
11/3/2021 11:30:00 AM 6.29 43.322 0.3 7.77 4.45 12.31
11/3/2021 11:45:00 AM 6.34 43.412 0.3 7.78 4.34 12.32
11/3/2021 12:00:00 PM 6.37 43.466 0.3 7.77 4.63 12.33
11/3/2021 12:15:00 PM 6.45 43.61 0.3 7.78 4.51 12.34
11/3/2021 12:30:00 PM 6.53 43.754 0.3 7.8 4.33 12.35
11/3/2021 12:45:00 PM 6.57 43.826 0.3 7.81 4.45 12.35
11/3/2021 1:00:00 PM 6.61 43.898 0.3 7.8 4.63 12.33
11/3/2021 1:15:00 PM 6.7 44.06 0.3 7.81 4.54 12.33
11/3/2021 1:30:00 PM 6.72 44.096 0.3 7.8 5.41 12.33
11/3/2021 1:45:00 PM 6.84 44.312 0.3 7.81 5.27 12.33
11/3/2021 2:00:00 PM 6.87 44.366 0.3 7.82 4.31 12.31
11/3/2021 2:15:00 PM 7.02 44.636 0.3 7.82 4.49 12.32
11/3/2021 2:30:00 PM 7.02 44.636 0.3 7.83 4.38 12.31
11/3/2021 2:45:00 PM 7.07 44.726 0.3 7.82 5.42 12.3
11/3/2021 3:00:00 PM 7.06 44.708 0.3 7.83 4.38 12.28
11/3/2021 3:15:00 PM 7.21 44.978 0.3 7.84 4.51 12.27
11/3/2021 3:30:00 PM 7.22 44.996 0.3 7.84 4.32 12.25
11/3/2021 3:45:00 PM 7.24 45.032 0.3 7.84 4.45 12.22
11/3/2021 4:00:00 PM 7.27 45.086 0.301 7.84 4.39 12.21
11/3/2021 4:15:00 PM 7.3 45.14 0.301 7.85 4.28 12.18
11/3/2021 4:30:00 PM 7.31 45.158 0.301 7.83 5.46 12.15
11/3/2021 4:45:00 PM 7.3 45.14 0.3 7.83 5.37 12.13
11/3/2021 5:00:00 PM 7.26 45.068 0.301 7.83 4.42 12.1
11/3/2021 5:15:00 PM 7.25 45.05 0.301 7.83 4.35 12.07
11/3/2021 5:30:00 PM 7.23 45.014 0.301 7.82 5.32 12.04
11/3/2021 5:45:00 PM 7.21 44.978 0.301 7.81 4.28 12.01
11/3/2021 6:00:00 PM 7.18 44.924 0.295 7.81 5.41 11.99
11/3/2021 6:15:00 PM 7.15 44.87 0.302 7.81 4.36 11.95
11/3/2021 6:30:00 PM 7.13 44.834 0.302 7.8 6.07 11.93
11/3/2021 6:45:00 PM 7.12 44.816 0.302 7.78 4.74 11.89
11/3/2021 7:00:00 PM 7.09 44.762 0.302 7.78 4.59 11.88
11/3/2021 7:15:00 PM 7.08 44.744 0.302 7.78 4.6 11.85
11/3/2021 7:30:00 PM 7.05 44.69 0.302 7.78 4.37 11.86
11/3/2021 7:45:00 PM 7.02 44.636 0.303 7.76 4.74 11.85
11/3/2021 8:00:00 PM 6.98 44.564 0.303 7.77 5.44 11.84
11/3/2021 8:15:00 PM 6.94 44.492 0.303 7.77 4.96 11.85
11/3/2021 8:30:00 PM 6.92 44.456 0.303 7.76 4.36 11.82
11/3/2021 8:45:00 PM 6.89 44.402 0.303 7.77 5.24 11.85
11/3/2021 9:00:00 PM 6.85 44.33 0.303 7.75 5.42 11.84
11/3/2021 9:15:00 PM 6.81 44.258 0.303 7.76 4.52 11.84
11/3/2021 9:30:00 PM 6.75 44.15 0.304 7.76 4.54 11.85
11/3/2021 9:45:00 PM 6.7 44.06 0.304 7.76 4.54 11.85
11/3/2021 10:00:00 PM 6.65 43.97 0.304 7.76 4.42 11.86
11/3/2021 10:15:00 PM 6.59 43.862 0.304 7.76 4.75 11.88
11/3/2021 10:30:00 PM 6.53 43.754 0.304 7.76 4.52 11.89
11/3/2021 10:45:00 PM 6.48 43.664 0.304 7.75 4.65 11.91
11/3/2021 11:00:00 PM 6.42 43.556 0.305 7.75 4.41 11.91
11/3/2021 11:15:00 PM 6.37 43.466 0.305 7.75 4.64 11.91
11/3/2021 11:30:00 PM 6.32 43.376 0.305 7.75 4.56 11.94
11/3/2021 11:45:00 PM 6.27 43.286 0.305 7.75 4.59 11.94
11/4/2021 12:00:00 AM 6.22 43.196 0.305 7.75 4.5 11.97
11/4/2021 12:15:00 AM 6.17 43.106 0.305 7.75 4.62 11.97
11/4/2021 12:30:00 AM 6.12 43.016 0.305 7.75 4.52 11.99
11/4/2021 12:45:00 AM 6.08 42.944 0.306 7.75 4.47 12.01
11/4/2021 1:00:00 AM 6.04 42.872 0.306 7.74 4.58 12.01
11/4/2021 1:15:00 AM 6.01 42.818 0.306 7.75 4.88 12.03
11/4/2021 1:30:00 AM 5.97 42.746 0.306 7.74 4.54 12.01
11/4/2021 1:45:00 AM 5.94 42.692 0.297 7.73 5.46 12.07
11/4/2021 2:00:00 AM 5.91 42.638 0.306 7.74 4.52 12.05
11/4/2021 2:15:00 AM 5.87 42.566 0.306 7.74 4.5 12.08
11/4/2021 2:30:00 AM 5.83 42.494 0.307 7.75 5.07 12.1
11/4/2021 2:45:00 AM 5.8 42.44 0.307 7.74 4.52 12.11
11/4/2021 3:00:00 AM 5.76 42.368 0.307 7.74 4.53 12.12
11/4/2021 3:15:00 AM 5.71 42.278 0.307 7.74 5.51 12.15
11/4/2021 3:30:00 AM 5.66 42.188 0.307 7.74 4.67 12.15
11/4/2021 3:45:00 AM 5.62 42.116 0.307 7.74 4.47 12.17
11/4/2021 4:00:00 AM 5.57 42.026 0.307 7.73 4.89 12.18
11/4/2021 4:15:00 AM 5.52 41.936 0.307 7.74 4.55 12.2
11/4/2021 4:30:00 AM 5.47 41.846 0.307 7.73 5.5 12.22
11/4/2021 4:45:00 AM 5.42 41.756 0.308 7.73 5.47 12.23
11/4/2021 5:00:00 AM 5.37 41.666 0.308 7.74 4.59 12.23
11/4/2021 5:15:00 AM 5.32 41.576 0.308 7.74 4.5 12.26
11/4/2021 5:30:00 AM 5.27 41.486 0.308 7.74 4.62 12.28
11/4/2021 5:45:00 AM 5.22 41.396 0.308 7.74 4.62 12.3
11/4/2021 6:00:00 AM 5.17 41.306 0.308 7.74 4.47 12.31
11/4/2021 6:15:00 AM 5.13 41.234 0.309 7.74 4.81 12.31
11/4/2021 6:30:00 AM 5.08 41.144 0.309 7.73 5.69 12.35
11/4/2021 6:45:00 AM 5.03 41.054 0.309 7.74 4.55 12.36
11/4/2021 7:00:00 AM 4.98 40.964 0.31 7.73 5.78 12.38
11/4/2021 7:15:00 AM 4.93 40.874 0.31 7.72 4.56 12.39
11/4/2021 7:30:00 AM 4.89 40.802 0.31 7.74 4.58 12.4
11/4/2021 7:45:00 AM 4.84 40.712 0.311 7.73 4.5 12.43
11/4/2021 8:00:00 AM 4.79 40.622 0.311 7.74 5.12 12.45
11/4/2021 8:15:00 AM 4.75 40.55 0.311 7.74 5.59 12.47
11/4/2021 8:30:00 AM 4.71 40.478 0.311 7.74 5.32 12.49
11/4/2021 8:45:00 AM 4.67 40.406 0.311 7.74 4.62 12.52
11/4/2021 9:00:00 AM 4.63 40.334 0.311 7.74 4.85 12.54
11/4/2021 9:15:00 AM 4.61 40.298 0.311 7.74 4.49 12.58
11/4/2021 9:30:00 AM 4.61 40.298 0.312 7.74 4.44 12.59
11/4/2021 9:45:00 AM 4.6 40.28 0.312 7.74 4.56 12.63
11/4/2021 10:00:00 AM 4.63 40.334 0.312 7.74 4.38 12.66
11/4/2021 10:15:00 AM 4.67 40.406 0.312 7.75 4.53 12.68
11/4/2021 10:30:00 AM 4.72 40.496 0.312 7.75 4.46 12.67
11/4/2021 10:45:00 AM 4.66 40.388 0.312 7.75 4.44 12.71
11/4/2021 11:00:00 AM 4.68 40.424 0.312 7.76 4.89 12.73
11/4/2021 11:15:00 AM 4.76 40.568 0.312 7.76 4.51 12.72
11/4/2021 11:30:00 AM 4.78 40.604 0.312 7.76 4.98 12.75
11/4/2021 11:45:00 AM 4.83 40.694 0.312 7.76 4.58 12.75
11/4/2021 12:00:00 PM 4.87 40.766 0.312 7.78 4.85 12.79
11/4/2021 12:15:00 PM 4.95 40.91 0.312 7.79 5.61 12.79
11/4/2021 12:30:00 PM 5.04 41.072 0.312 7.78 5.61 12.79
11/4/2021 12:45:00 PM 5.12 41.216 0.313 7.8 4.72 12.79
11/4/2021 1:00:00 PM 5.27 41.486 0.312 7.8 5.06 12.78
11/4/2021 1:15:00 PM 5.37 41.666 0.312 7.81 4.73 12.78
11/4/2021 1:30:00 PM 5.47 41.846 0.313 7.8 4.64 12.75
11/4/2021 1:45:00 PM 5.6 42.08 0.313 7.81 5.71 12.73
11/4/2021 2:00:00 PM 5.7 42.26 0.313 7.81 5.01 12.71
11/4/2021 2:15:00 PM 5.85 42.53 0.313 7.81 4.57 12.67
11/4/2021 2:30:00 PM 6.03 42.854 0.313 7.8 4.77 12.64
11/4/2021 2:45:00 PM 6.16 43.088 0.313 7.83 4.52 12.64
11/4/2021 3:00:00 PM 6.23 43.214 0.313 7.82 4.53 12.61
11/4/2021 3:15:00 PM 6.2 43.16 0.313 7.84 4.54 12.58
11/4/2021 3:30:00 PM 6.28 43.304 0.313 7.84 4.45 12.53
11/4/2021 3:45:00 PM 6.4 43.52 0.313 7.83 5.86 12.5
11/4/2021 4:00:00 PM 6.51 43.718 0.313 7.84 4.7 12.47
11/4/2021 4:15:00 PM 6.59 43.862 0.313 7.83 4.66 12.45
11/4/2021 4:30:00 PM 6.53 43.754 0.313 7.84 4.51 12.43
11/4/2021 4:45:00 PM 6.45 43.61 0.313 7.84 4.64 12.4
11/4/2021 5:00:00 PM 6.45 43.61 0.313 7.83 4.54 12.37
11/4/2021 5:15:00 PM 6.45 43.61 0.313 7.82 4.58 12.34
11/4/2021 5:30:00 PM 6.42 43.556 0.313 7.83 4.53 12.31
11/4/2021 5:45:00 PM 6.38 43.484 0.314 7.83 4.68 12.28
11/4/2021 6:00:00 PM 6.31 43.358 0.314 7.83 4.6 12.27
11/4/2021 6:15:00 PM 6.26 43.268 0.314 7.81 6.48 12.22
11/4/2021 6:30:00 PM 6.2 43.16 0.314 7.81 4.4 12.22
11/4/2021 6:45:00 PM 6.16 43.088 0.314 7.81 10.49 12.2
11/4/2021 7:00:00 PM 6.14 43.052 0.314 7.81 5.27 12.19
11/4/2021 7:15:00 PM 6.11 42.998 0.315 7.8 4.45 12.17
11/4/2021 7:30:00 PM 6.09 42.962 0.315 7.79 4.65 12.16
11/4/2021 7:45:00 PM 6.06 42.908 0.315 7.78 4.53 12.15
11/4/2021 8:00:00 PM 6.04 42.872 0.315 7.79 4.91 12.14
11/4/2021 8:15:00 PM 6.02 42.836 0.315 7.79 4.56 12.13
11/4/2021 8:30:00 PM 6 42.8 0.315 7.79 4.61 12.14
11/4/2021 8:45:00 PM 5.97 42.746 0.315 7.78 4.44 12.14
11/4/2021 9:00:00 PM 5.95 42.71 0.316 7.78 4.73 12.14
11/4/2021 9:15:00 PM 5.93 42.674 0.316 7.78 4.52 12.14
11/4/2021 9:30:00 PM 5.91 42.638 0.316 7.78 4.57 12.14
11/4/2021 9:45:00 PM 5.89 42.602 0.316 7.77 4.62 12.13
11/4/2021 10:00:00 PM 5.87 42.566 0.316 7.77 4.96 12.14
11/4/2021 10:15:00 PM 5.86 42.548 0.316 7.77 4.8 12.14
11/4/2021 10:30:00 PM 5.84 42.512 0.316 7.76 4.64 12.15
11/4/2021 10:45:00 PM 5.82 42.476 0.317 7.76 4.56 12.15
11/4/2021 11:00:00 PM 5.8 42.44 0.317 7.78 4.56 12.16
11/4/2021 11:15:00 PM 5.76 42.368 0.317 7.77 4.71 12.16
11/4/2021 11:30:00 PM 5.72 42.296 0.317 7.77 4.92 12.16
11/4/2021 11:45:00 PM 5.67 42.206 0.317 7.75 4.54 12.18
11/5/2021 12:00:00 AM 5.62 42.116 0.317 7.76 4.58 12.18
11/5/2021 12:15:00 AM 5.58 42.044 0.318 7.76 4.67 12.2
11/5/2021 12:30:00 AM 5.53 41.954 0.318 7.77 4.62 12.21
11/5/2021 12:45:00 AM 5.48 41.864 0.318 7.75 4.67 12.22
11/5/2021 1:00:00 AM 5.44 41.792 0.318 7.76 4.74 12.22
11/5/2021 1:15:00 AM 5.4 41.72 0.318 7.76 4.63 12.24
11/5/2021 1:30:00 AM 5.36 41.648 0.312 7.75 5.43 12.24
11/5/2021 1:45:00 AM 5.33 41.594 0.319 7.75 4.69 12.25
11/5/2021 2:00:00 AM 5.29 41.522 0.319 7.76 4.69 12.26
11/5/2021 2:15:00 AM 5.28 41.504 0.319 7.75 4.65 12.28
11/5/2021 2:30:00 AM 5.25 41.45 0.319 7.75 4.67 12.27
11/5/2021 2:45:00 AM 5.21 41.378 0.319 7.75 4.68 12.3
11/5/2021 3:00:00 AM 5.17 41.306 0.319 7.75 4.64 12.3
11/5/2021 3:15:00 AM 5.14 41.252 0.319 7.76 4.63 12.32
11/5/2021 3:30:00 AM 5.09 41.162 0.319 7.75 4.63 12.33
11/5/2021 3:45:00 AM 5.04 41.072 0.309 7.75 5.58 12.35
11/5/2021 4:00:00 AM 4.99 40.982 0.319 7.74 4.72 12.36
11/5/2021 4:15:00 AM 4.94 40.892 0.32 7.74 5.73 12.4
11/5/2021 4:30:00 AM 4.89 40.802 0.32 7.75 4.84 12.41
11/5/2021 4:45:00 AM 4.84 40.712 0.32 7.76 4.96 12.41
11/5/2021 5:00:00 AM 4.79 40.622 0.32 7.76 4.8 12.44
11/5/2021 5:15:00 AM 4.73 40.514 0.32 7.76 4.56 12.46
11/5/2021 5:30:00 AM 4.69 40.442 0.32 7.75 4.61 12.47
11/5/2021 5:45:00 AM 4.64 40.352 0.321 7.75 4.79 12.49
11/5/2021 6:00:00 AM 4.59 40.262 0.321 7.75 4.62 12.51
11/5/2021 6:15:00 AM 4.54 40.172 0.321 7.75 4.86 12.52
11/5/2021 6:30:00 AM 4.49 40.082 0.321 7.75 4.65 12.55
11/5/2021 6:45:00 AM 4.43 39.974 0.322 7.75 4.7 12.56
11/5/2021 7:00:00 AM 4.38 39.884 0.322 7.76 4.87 12.6
11/5/2021 7:15:00 AM 4.33 39.794 0.322 7.76 4.65 12.6
11/5/2021 7:30:00 AM 4.28 39.704 0.322 7.75 12.17 12.62
11/5/2021 7:45:00 AM 4.23 39.614 0.323 7.75 4.69 12.64
11/5/2021 8:00:00 AM 4.19 39.542 0.323 7.76 4.68 12.67
11/5/2021 8:15:00 AM 4.14 39.452 0.323 7.74 4.7 12.67
11/5/2021 8:30:00 AM 4.11 39.398 0.323 7.76 4.55 12.73
11/5/2021 8:45:00 AM 4.07 39.326 0.323 7.75 4.65 12.77
11/5/2021 9:00:00 AM 4.04 39.272 0.324 7.76 4.51 12.78
11/5/2021 9:15:00 AM 4.02 39.236 0.324 7.75 4.54 12.82
11/5/2021 9:30:00 AM 4.02 39.236 0.324 7.76 4.57 12.84
11/5/2021 9:45:00 AM 4.03 39.254 0.324 7.76 4.48 12.86
11/5/2021 10:00:00 AM 4.06 39.308 0.324 7.76 4.52 12.91
11/5/2021 10:15:00 AM 4.11 39.398 0.324 7.76 4.62 12.9
11/5/2021 10:30:00 AM 4.1 39.38 0.324 7.77 4.66 12.94
11/5/2021 10:45:00 AM 4.13 39.434 0.324 7.78 4.6 12.96
11/5/2021 11:00:00 AM 4.19 39.542 0.324 7.78 4.71 12.97
11/5/2021 11:15:00 AM 4.17 39.506 0.324 7.78 4.74 12.97
11/5/2021 11:30:00 AM 4.23 39.614 0.324 7.78 4.65 12.98
11/5/2021 11:45:00 AM 4.25 39.65 0.325 7.78 4.57 12.96
11/5/2021 12:00:00 PM 4.29 39.722 0.325 7.78 4.79 12.98
11/5/2021 12:15:00 PM 4.34 39.812 0.325 7.79 4.53 12.97
11/5/2021 12:30:00 PM 4.41 39.938 0.325 7.79 4.59 12.98
11/5/2021 12:45:00 PM 4.49 40.082 0.325 7.8 4.62 12.99
11/5/2021 1:00:00 PM 4.59 40.262 0.325 7.81 4.66 13
11/5/2021 1:15:00 PM 4.67 40.406 0.325 7.82 4.68 12.99
11/5/2021 1:30:00 PM 4.73 40.514 0.325 7.82 4.57 12.97
11/5/2021 1:45:00 PM 4.88 40.784 0.325 7.82 4.6 12.96
11/5/2021 2:00:00 PM 5.06 41.108 0.325 7.83 4.61 12.93
11/5/2021 2:15:00 PM 5.03 41.054 0.325 7.84 4.57 12.91
11/5/2021 2:30:00 PM 5.26 41.468 0.325 7.83 4.63 12.89
11/5/2021 2:45:00 PM 5.4 41.72 0.325 7.83 4.72 12.83
11/5/2021 3:00:00 PM 5.37 41.666 0.325 7.84 4.65 12.81
11/5/2021 3:15:00 PM 5.56 42.008 0.325 7.85 4.62 12.78
11/5/2021 3:30:00 PM 5.72 42.296 0.325 7.86 4.94 12.74
11/5/2021 3:45:00 PM 5.85 42.53 0.325 7.86 4.58 12.68
11/5/2021 4:00:00 PM 5.91 42.638 0.325 7.86 4.6 12.63
11/5/2021 4:15:00 PM 5.96 42.728 0.325 7.85 4.55 12.61
11/5/2021 4:30:00 PM 5.96 42.728 0.325 7.85 5.51 12.59
11/5/2021 4:45:00 PM 5.96 42.728 0.325 7.86 4.59 12.56
11/5/2021 5:00:00 PM 5.92 42.656 0.325 7.85 4.69 12.54
11/5/2021 5:15:00 PM 5.87 42.566 0.325 7.85 4.66 12.5
11/5/2021 5:30:00 PM 5.83 42.494 0.326 7.84 4.63 12.5
11/5/2021 5:45:00 PM 5.78 42.404 0.326 7.83 4.72 12.48
11/5/2021 6:00:00 PM 5.72 42.296 0.326 7.84 4.74 12.48
11/5/2021 6:15:00 PM 5.66 42.188 0.326 7.84 4.81 12.46
11/5/2021 6:30:00 PM 5.6 42.08 0.326 7.83 4.77 12.44
11/5/2021 6:45:00 PM 5.55 41.99 0.326 7.83 4.68 12.43
11/5/2021 7:00:00 PM 5.51 41.918 0.327 7.82 4.83 12.4
11/5/2021 7:15:00 PM 5.46 41.828 0.327 7.81 4.71 12.39
11/5/2021 7:30:00 PM 5.42 41.756 0.327 7.81 4.79 12.39
11/5/2021 7:45:00 PM 5.36 41.648 0.327 7.82 4.81 12.4
11/5/2021 8:00:00 PM 5.31 41.558 0.327 7.81 4.68 12.42
11/5/2021 8:15:00 PM 5.25 41.45 0.327 7.8 5.58 12.41
11/5/2021 8:30:00 PM 5.19 41.342 0.328 7.8 4.7 12.44
11/5/2021 8:45:00 PM 5.13 41.234 0.328 7.78 4.73 12.43
11/5/2021 9:00:00 PM 5.06 41.108 0.328 7.8 4.77 12.45
11/5/2021 9:15:00 PM 5 41 0.329 7.8 4.73 12.48
11/5/2021 9:30:00 PM 4.94 40.892 0.329 7.8 4.73 12.48
11/5/2021 9:45:00 PM 4.9 40.82 0.329 7.79 4.67 12.49
11/5/2021 10:00:00 PM 4.84 40.712 0.329 7.8 4.77 12.51
11/5/2021 10:15:00 PM 4.79 40.622 0.329 7.79 4.74 12.51
11/5/2021 10:30:00 PM 4.74 40.532 0.329 7.79 4.76 12.52
11/5/2021 10:45:00 PM 4.68 40.424 0.329 7.79 4.82 12.55
11/5/2021 11:00:00 PM 4.63 40.334 0.33 7.79 4.75 12.57
11/5/2021 11:15:00 PM 4.58 40.244 0.33 7.8 4.71 12.59
11/5/2021 11:30:00 PM 4.53 40.154 0.33 7.79 4.69 12.59
11/5/2021 11:45:00 PM 4.48 40.064 0.33 7.79 4.69 12.6
11/6/2021 12:00:00 AM 4.43 39.974 0.33 7.77 4.7 12.61
11/6/2021 12:15:00 AM 4.38 39.884 0.33 7.79 4.74 12.62
11/6/2021 12:30:00 AM 4.34 39.812 0.331 7.78 4.79 12.63
11/6/2021 12:45:00 AM 4.3 39.74 0.331 7.79 4.81 12.64
11/6/2021 1:00:00 AM 4.25 39.65 0.331 7.79 4.97 12.67
11/6/2021 1:15:00 AM 4.21 39.578 0.331 7.78 4.72 12.67
11/6/2021 1:30:00 AM 4.17 39.506 0.331 7.78 4.73 12.69
11/6/2021 1:45:00 AM 4.13 39.434 0.332 7.77 5.64 12.71
11/6/2021 2:00:00 AM 4.08 39.344 0.332 7.76 4.74 12.72
11/6/2021 2:15:00 AM 4.04 39.272 0.332 7.78 4.86 12.74
11/6/2021 2:30:00 AM 4 39.2 0.332 7.78 4.78 12.75
11/6/2021 2:45:00 AM 3.95 39.11 0.332 7.78 4.87 12.76
11/6/2021 3:00:00 AM 3.9 39.02 0.332 7.76 4.93 12.77
11/6/2021 3:15:00 AM 3.86 38.948 0.333 7.78 4.91 12.77
11/6/2021 3:30:00 AM 3.81 38.858 0.333 7.77 4.89 12.82
11/6/2021 3:45:00 AM 3.76 38.768 0.333 7.78 4.88 12.84
11/6/2021 4:00:00 AM 3.72 38.696 0.333 7.77 4.83 12.84
11/6/2021 4:15:00 AM 3.67 38.606 0.333 7.78 5.82 12.86
11/6/2021 4:30:00 AM 3.62 38.516 0.333 7.77 4.81 12.87
11/6/2021 4:45:00 AM 3.58 38.444 0.334 7.77 4.96 12.89
11/6/2021 5:00:00 AM 3.52 38.336 0.334 7.77 5.23 12.93
11/6/2021 5:15:00 AM 3.48 38.264 0.334 7.78 4.94 12.94
11/6/2021 5:30:00 AM 3.43 38.174 0.334 7.78 4.8 12.95
11/6/2021 5:45:00 AM 3.38 38.084 0.334 7.78 4.83 12.98
11/6/2021 6:00:00 AM 3.33 37.994 0.334 7.76 4.94 12.98
11/6/2021 6:15:00 AM 3.28 37.904 0.335 7.78 4.87 13.01
11/6/2021 6:30:00 AM 3.22 37.796 0.335 7.77 4.86 13.04
11/6/2021 6:45:00 AM 3.17 37.706 0.335 7.76 4.82 13.05
11/6/2021 7:00:00 AM 3.12 37.616 0.335 7.78 4.86 13.07
11/6/2021 7:15:00 AM 3.07 37.526 0.335 7.78 4.77 13.1
11/6/2021 7:30:00 AM 3.02 37.436 0.336 7.78 5.09 13.11
11/6/2021 7:45:00 AM 2.96 37.328 0.336 7.76 5.25 13.13
11/6/2021 8:00:00 AM 2.92 37.256 0.336 7.78 5.25 13.15
11/6/2021 8:15:00 AM 2.87 37.166 0.336 7.76 4.95 13.19
11/6/2021 8:30:00 AM 2.83 37.094 0.337 7.78 4.86 13.22
11/6/2021 8:45:00 AM 2.79 37.022 0.337 7.78 4.69 13.26
11/6/2021 9:00:00 AM 2.76 36.968 0.337 7.77 4.69 13.27
11/6/2021 9:15:00 AM 2.73 36.914 0.337 7.78 4.66 13.31
11/6/2021 9:30:00 AM 2.74 36.932 0.337 7.77 4.62 13.34
11/6/2021 9:45:00 AM 2.75 36.95 0.337 7.78 4.66 13.36
11/6/2021 10:00:00 AM 2.78 37.004 0.337 7.78 4.63 13.4
11/6/2021 10:15:00 AM 2.84 37.112 0.337 7.77 4.65 13.42
11/6/2021 10:30:00 AM 2.88 37.184 0.337 7.79 4.65 13.44
11/6/2021 10:45:00 AM 2.9 37.22 0.337 7.79 4.61 13.45
11/6/2021 11:00:00 AM 2.93 37.274 0.337 7.79 4.6 13.45
11/6/2021 11:15:00 AM 2.97 37.346 0.337 7.8 4.73 13.46
11/6/2021 11:30:00 AM 3.01 37.418 0.338 7.79 4.68 13.45
11/6/2021 11:45:00 AM 3.04 37.472 0.338 7.8 4.73 13.45
11/6/2021 12:00:00 PM 3.1 37.58 0.338 7.8 4.73 13.43
11/6/2021 12:15:00 PM 3.14 37.652 0.338 7.8 4.8 13.41
11/6/2021 12:30:00 PM 3.21 37.778 0.337 7.79 4.8 13.41
11/6/2021 12:45:00 PM 3.28 37.904 0.338 7.81 4.67 13.4
11/6/2021 1:00:00 PM 3.37 38.066 0.338 7.81 4.78 13.37
11/6/2021 1:15:00 PM 3.5 38.3 0.338 7.82 4.67 13.36
11/6/2021 1:30:00 PM 3.6 38.48 0.338 7.81 4.69 13.32
11/6/2021 1:45:00 PM 3.74 38.732 0.338 7.83 4.9 13.31
11/6/2021 2:00:00 PM 3.92 39.056 0.338 7.83 4.69 13.27
11/6/2021 2:15:00 PM 4.07 39.326 0.337 7.82 4.79 13.25
11/6/2021 2:30:00 PM 4.27 39.686 0.337 7.83 4.7 13.19
11/6/2021 2:45:00 PM 4.38 39.884 0.337 7.84 4.7 13.15
11/6/2021 3:00:00 PM 4.56 40.208 0.337 7.84 4.66 13.11
11/6/2021 3:15:00 PM 4.69 40.442 0.337 7.84 4.89 13.06
11/6/2021 3:30:00 PM 4.84 40.712 0.337 7.84 4.76 13.01
11/6/2021 3:45:00 PM 5 41 0.337 7.85 4.75 12.95
11/6/2021 4:00:00 PM 5.13 41.234 0.337 7.86 4.77 12.91
11/6/2021 4:15:00 PM 5.23 41.414 0.337 7.86 4.74 12.85
11/6/2021 4:30:00 PM 5.32 41.576 0.337 7.84 4.74 12.8
11/6/2021 4:45:00 PM 5.35 41.63 0.338 7.86 4.73 12.77
11/6/2021 5:00:00 PM 5.33 41.594 0.338 7.86 4.77 12.74
11/6/2021 5:15:00 PM 5.3 41.54 0.338 7.86 4.93 12.7
11/6/2021 5:30:00 PM 5.29 41.522 0.338 7.84 4.81 12.67
11/6/2021 5:45:00 PM 5.24 41.432 0.338 7.85 5.69 12.66
11/6/2021 6:00:00 PM 5.17 41.306 0.338 7.85 4.76 12.66
11/6/2021 6:15:00 PM 5.08 41.144 0.338 7.84 4.86 12.65
11/6/2021 6:30:00 PM 5.02 41.036 0.339 7.85 5.23 12.64
11/6/2021 6:45:00 PM 4.95 40.91 0.339 7.84 5.03 12.61
11/6/2021 7:00:00 PM 4.89 40.802 0.339 7.84 4.82 12.62
11/6/2021 7:15:00 PM 4.84 40.712 0.339 7.83 4.84 12.6
11/6/2021 7:30:00 PM 4.79 40.622 0.339 7.82 4.8 12.6
11/6/2021 7:45:00 PM 4.74 40.532 0.339 7.82 4.96 12.6
11/6/2021 8:00:00 PM 4.7 40.46 0.34 7.82 4.97 12.6
11/6/2021 8:15:00 PM 4.65 40.37 0.34 7.81 4.74 12.6
11/6/2021 8:30:00 PM 4.6 40.28 0.34 7.82 4.77 12.61
11/6/2021 8:45:00 PM 4.54 40.172 0.34 7.81 4.73 12.63
11/6/2021 9:00:00 PM 4.5 40.1 0.34 7.81 4.75 12.62
11/6/2021 9:15:00 PM 4.44 39.992 0.34 7.81 4.82 12.63
11/6/2021 9:30:00 PM 4.39 39.902 0.34 7.81 4.83 12.64
11/6/2021 9:45:00 PM 4.34 39.812 0.341 7.81 4.81 12.65
11/6/2021 10:00:00 PM 4.3 39.74 0.341 7.8 4.7 12.66
11/6/2021 10:15:00 PM 4.23 39.614 0.341 7.8 4.92 12.68
11/6/2021 10:30:00 PM 4.18 39.524 0.341 7.8 4.89 12.68
11/6/2021 10:45:00 PM 4.12 39.416 0.341 7.8 4.98 12.72
11/6/2021 11:00:00 PM 4.06 39.308 0.342 7.8 4.91 12.72
11/6/2021 11:15:00 PM 4 39.2 0.341 7.79 5.63 12.76
11/6/2021 11:30:00 PM 3.94 39.092 0.342 7.81 4.82 12.78
11/6/2021 11:45:00 PM 3.89 39.002 0.342 7.8 4.82 12.78
11/7/2021 12:00:00 AM 3.83 38.894 0.342 7.8 4.76 12.79
11/7/2021 12:15:00 AM 3.78 38.804 0.343 7.8 4.87 12.81
11/7/2021 12:30:00 AM 3.73 38.714 0.343 7.78 4.79 12.82
11/7/2021 12:45:00 AM 3.69 38.642 0.343 7.79 5.17 12.84
11/7/2021 1:00:00 AM 3.64 38.552 0.343 7.78 5.6 12.86
11/7/2021 1:15:00 AM 3.6 38.48 0.343 7.79 4.81 12.87
11/7/2021 1:30:00 AM 3.55 38.39 0.343 7.79 4.91 12.89
11/7/2021 1:45:00 AM 3.51 38.318 0.344 7.79 4.89 12.9
11/7/2021 2:00:00 AM 3.47 38.246 0.344 7.79 4.84 12.91
11/7/2021 2:15:00 AM 3.44 38.192 0.344 7.8 4.85 12.92
11/7/2021 2:30:00 AM 3.39 38.102 0.344 7.78 4.79 12.94
11/7/2021 2:45:00 AM 3.36 38.048 0.344 7.79 4.86 12.95
11/7/2021 3:00:00 AM 3.31 37.958 0.344 7.8 4.81 12.96
11/7/2021 3:15:00 AM 3.27 37.886 0.344 7.79 4.92 12.97
11/7/2021 3:30:00 AM 3.08 37.544 0.345 7.79 4.85 13.04
11/7/2021 3:45:00 AM 3.04 37.472 0.345 7.79 4.8 13.06
11/7/2021 4:00:00 AM 3 37.4 0.346 7.79 4.8 13.05
11/7/2021 4:15:00 AM 2.97 37.346 0.346 7.79 4.73 13.09
11/7/2021 4:30:00 AM 2.92 37.256 0.346 7.78 4.95 13.1
11/7/2021 4:45:00 AM 2.88 37.184 0.346 7.79 4.81 13.11
11/7/2021 5:00:00 AM 2.85 37.13 0.346 7.79 4.81 13.13
11/7/2021 5:15:00 AM 2.8 37.04 0.346 7.79 4.98 13.16
11/7/2021 5:30:00 AM 2.77 36.986 0.346 7.79 4.96 13.15
11/7/2021 5:45:00 AM 2.73 36.914 0.346 7.79 4.9 13.17
11/7/2021 6:00:00 AM 2.68 36.824 0.347 7.79 4.89 13.19
11/7/2021 6:15:00 AM 2.65 36.77 0.347 7.79 4.81 13.22
11/7/2021 6:30:00 AM 2.6 36.68 0.347 7.79 4.86 13.24
11/7/2021 6:45:00 AM 2.56 36.608 0.347 7.79 4.92 13.24
11/7/2021 7:00:00 AM 2.52 36.536 0.347 7.77 4.88 13.25
11/7/2021 7:15:00 AM 2.48 36.464 0.347 7.79 4.94 13.28
11/7/2021 7:30:00 AM 2.45 36.41 0.348 7.78 4.94 13.32
11/7/2021 7:45:00 AM 2.41 36.338 0.348 7.79 4.88 13.36
11/7/2021 8:00:00 AM 2.38 36.284 0.348 7.79 4.96 13.38
11/7/2021 8:15:00 AM 2.36 36.248 0.348 7.79 5 13.41
11/7/2021 8:30:00 AM 2.35 36.23 0.348 7.8 4.88 13.43
11/7/2021 8:45:00 AM 2.38 36.284 0.348 7.8 4.87 13.47
11/7/2021 9:00:00 AM 2.43 36.374 0.349 7.79 4.88 13.5
11/7/2021 9:15:00 AM 2.48 36.464 0.349 7.8 4.95 13.54
11/7/2021 9:30:00 AM 2.56 36.608 0.349 7.81 4.85 13.53
11/7/2021 9:45:00 AM 2.61 36.698 0.349 7.79 5.05 13.55
11/7/2021 10:00:00 AM 2.56 36.608 0.348 7.81 4.91 13.55
11/7/2021 10:15:00 AM 2.62 36.716 0.349 7.82 4.98 13.54
11/7/2021 10:30:00 AM 2.63 36.734 0.349 7.81 4.97 13.54
11/7/2021 10:45:00 AM 2.67 36.806 0.349 7.82 5.36 13.53
11/7/2021 11:00:00 AM 2.73 36.914 0.349 7.82 4.96 13.53
11/7/2021 11:15:00 AM 2.79 37.022 0.349 7.83 4.94 13.53
11/7/2021 11:30:00 AM 2.86 37.148 0.349 7.83 5.09 13.51
11/7/2021 11:45:00 AM 2.95 37.31 0.349 7.82 5.07 13.49
11/7/2021 12:00:00 PM 3.05 37.49 0.349 7.81 5 13.48
11/7/2021 12:15:00 PM 3.16 37.688 0.349 7.84 5.24 13.46
11/7/2021 12:30:00 PM 3.27 37.886 0.349 7.83 5.46 13.41
11/7/2021 12:45:00 PM 3.4 38.12 0.349 7.83 5.02 13.39
11/7/2021 1:00:00 PM 3.59 38.462 0.349 7.84 5.03 13.35
11/7/2021 1:15:00 PM 3.79 38.822 0.349 7.85 5.15 13.31
11/7/2021 1:30:00 PM 3.96 39.128 0.349 7.84 4.98 13.28
11/7/2021 1:45:00 PM 4.13 39.434 0.349 7.85 5.07 13.23
11/7/2021 2:00:00 PM 4.27 39.686 0.349 7.86 5.12 13.19
11/7/2021 2:15:00 PM 4.41 39.938 0.349 7.86 5.03 13.13
11/7/2021 2:30:00 PM 4.6 40.28 0.349 7.86 5.04 13.08
11/7/2021 2:45:00 PM 4.77 40.586 0.349 7.87 5.41 13.01
11/7/2021 3:00:00 PM 4.93 40.874 0.35 7.87 5.98 12.95
11/7/2021 3:15:00 PM 5.05 41.09 0.351 7.86 4.94 12.9
11/7/2021 3:30:00 PM 5.15 41.27 0.351 7.86 5.02 12.86
11/7/2021 3:45:00 PM 5.22 41.396 0.352 7.86 5.07 12.79
11/7/2021 4:00:00 PM 5.25 41.45 0.353 7.86 5.04 12.75
11/7/2021 4:15:00 PM 5.24 41.432 0.354 7.86 5.08 12.71
11/7/2021 4:30:00 PM 5.23 41.414 0.354 7.86 5.01 12.65
11/7/2021 4:45:00 PM 5.2 41.36 0.354 7.85 5.18 12.64
11/7/2021 5:00:00 PM 5.16 41.288 0.354 7.85 5.33 12.64
11/7/2021 5:15:00 PM 5.1 41.18 0.353 7.85 5.02 12.61
11/7/2021 5:30:00 PM 5.03 41.054 0.353 7.85 4.99 12.6
11/7/2021 5:45:00 PM 4.98 40.964 0.352 7.84 4.96 12.58
11/7/2021 6:00:00 PM 4.92 40.856 0.352 7.84 5.05 12.58
11/7/2021 6:15:00 PM 4.88 40.784 0.351 7.83 5.05 12.57
11/7/2021 6:30:00 PM 4.83 40.694 0.351 7.83 5.14 12.56
11/7/2021 6:45:00 PM 4.79 40.622 0.35 7.83 5.01 12.57
11/7/2021 7:00:00 PM 4.75 40.55 0.35 7.82 5.19 12.57
11/7/2021 7:15:00 PM 4.71 40.478 0.35 7.83 5.05 12.57
11/7/2021 7:30:00 PM 4.68 40.424 0.35 7.83 5.09 12.58
11/7/2021 7:45:00 PM 4.64 40.352 0.35 7.83 4.99 12.57
11/7/2021 8:00:00 PM 4.61 40.298 0.35 7.81 5.04 12.58
11/7/2021 8:15:00 PM 4.56 40.208 0.35 7.82 5.02 12.59
11/7/2021 8:30:00 PM 4.53 40.154 0.35 7.81 5.12 12.59
11/7/2021 8:45:00 PM 4.5 40.1 0.35 7.81 5.01 12.6
11/7/2021 9:00:00 PM 4.44 39.992 0.35 7.81 5.96 12.62
11/7/2021 9:15:00 PM 4.4 39.92 0.351 7.81 5.02 12.63
11/7/2021 9:30:00 PM 4.35 39.83 0.351 7.82 5.05 12.63
11/7/2021 9:45:00 PM 4.31 39.758 0.351 7.82 5.16 12.64
11/7/2021 10:00:00 PM 4.27 39.686 0.351 7.81 5.03 12.66
11/7/2021 10:15:00 PM 4.21 39.578 0.351 7.81 4.96 12.67
11/7/2021 10:30:00 PM 4.17 39.506 0.351 7.81 5.28 12.68
11/7/2021 10:45:00 PM 4.12 39.416 0.352 7.81 5.33 12.71
11/7/2021 11:00:00 PM 4.07 39.326 0.352 7.81 4.95 12.71
11/7/2021 11:15:00 PM 4.02 39.236 0.352 7.81 4.99 12.74
11/7/2021 11:30:00 PM 3.98 39.164 0.352 7.81 5.04 12.75
11/7/2021 11:45:00 PM 3.93 39.074 0.352 7.81 5.04 12.77
11/8/2021 12:00:00 AM 3.89 39.002 0.352 7.81 5.25 12.79
11/8/2021 12:15:00 AM 3.85 38.93 0.352 7.81 5.08 12.79
11/8/2021 12:30:00 AM 3.82 38.876 0.352 7.8 5.12 12.8
11/8/2021 12:45:00 AM 3.78 38.804 0.352 7.8 5.03 12.8
11/8/2021 1:00:00 AM 3.75 38.75 0.352 7.81 5.03 12.81
11/8/2021 1:15:00 AM 3.72 38.696 0.351 7.79 5.03 12.85
11/8/2021 1:30:00 AM 3.68 38.624 0.351 7.81 5.08 12.86
11/8/2021 1:45:00 AM 3.67 38.606 0.351 7.81 5.11 12.85
11/8/2021 2:00:00 AM 3.63 38.534 0.351 7.81 5.13 12.87
11/8/2021 2:15:00 AM 3.61 38.498 0.352 7.81 5.29 12.87
11/8/2021 2:30:00 AM 3.58 38.444 0.352 7.81 5.15 12.87
11/8/2021 2:45:00 AM 3.55 38.39 0.352 7.8 5.09 12.89
11/8/2021 3:00:00 AM 3.52 38.336 0.352 7.8 5.07 12.91
11/8/2021 3:15:00 AM 3.5 38.3 0.353 7.79 5.11 12.91
11/8/2021 3:30:00 AM 3.46 38.228 0.353 7.81 5.14 12.94
11/8/2021 3:45:00 AM 3.44 38.192 0.353 7.8 5.18 12.94
11/8/2021 4:00:00 AM 3.41 38.138 0.354 7.8 5.13 12.95
11/8/2021 4:15:00 AM 3.39 38.102 0.354 7.81 5.14 12.95
11/8/2021 4:30:00 AM 3.36 38.048 0.354 7.8 5.2 12.96
11/8/2021 4:45:00 AM 3.33 37.994 0.355 7.8 5.18 12.97
11/8/2021 5:00:00 AM 3.31 37.958 0.355 7.8 5.26 12.98
11/8/2021 5:15:00 AM 3.28 37.904 0.356 7.8 5.13 12.99
11/8/2021 5:30:00 AM 3.25 37.85 0.356 7.8 5.17 13.01
11/8/2021 5:45:00 AM 3.23 37.814 0.356 7.79 5.13 13.02
11/8/2021 6:00:00 AM 3.2 37.76 0.356 7.8 5.16 13.03
11/8/2021 6:15:00 AM 3.18 37.724 0.357 7.8 5.21 13.04
11/8/2021 6:30:00 AM 3.15 37.67 0.357 7.8 5.24 13.06
11/8/2021 6:45:00 AM 3.13 37.634 0.357 7.8 6.13 13.05
11/8/2021 7:00:00 AM 3.1 37.58 0.358 7.8 5.45 13.08
11/8/2021 7:15:00 AM 3.08 37.544 0.358 7.8 5.71 13.09
11/8/2021 7:30:00 AM 3.05 37.49 0.358 7.8 5.07 13.12
11/8/2021 7:45:00 AM 3.04 37.472 0.359 7.8 5.03 13.14
11/8/2021 8:00:00 AM 3.03 37.454 0.359 7.8 5.08 13.15
11/8/2021 8:15:00 AM 3.01 37.418 0.359 7.8 5.1 13.2
11/8/2021 8:30:00 AM 3.01 37.418 0.359 7.81 5.04 13.24
11/8/2021 8:45:00 AM 3.05 37.49 0.359 7.8 5.06 13.26
11/8/2021 9:00:00 AM 3.09 37.562 0.359 7.82 5.39 13.3
11/8/2021 9:15:00 AM 3.16 37.688 0.359 7.82 5.16 13.3
11/8/2021 9:30:00 AM 3.21 37.778 0.359 7.81 5.09 13.32
11/8/2021 9:45:00 AM 3.24 37.832 0.36 7.82 5.33 13.32
11/8/2021 10:00:00 AM 3.29 37.922 0.359 7.82 5.2 13.33
11/8/2021 10:15:00 AM 3.34 38.012 0.36 7.83 5.07 13.33
11/8/2021 10:30:00 AM 3.37 38.066 0.36 7.83 5.29 13.33
11/8/2021 10:45:00 AM 3.43 38.174 0.36 7.83 5.14 13.3
11/8/2021 11:00:00 AM 3.48 38.264 0.36 7.84 5.09 13.31
11/8/2021 11:15:00 AM 3.57 38.426 0.36 7.83 5.29 13.31
11/8/2021 11:30:00 AM 3.65 38.57 0.36 7.84 5.18 13.27
11/8/2021 11:45:00 AM 3.75 38.75 0.36 7.84 5.36 13.26
11/8/2021 12:00:00 PM 3.85 38.93 0.36 7.84 5.15 13.24
11/8/2021 12:15:00 PM 3.98 39.164 0.359 7.86 5.12 13.23
11/8/2021 12:30:00 PM 4.11 39.398 0.36 7.86 5.15 13.2
11/8/2021 12:45:00 PM 4.28 39.704 0.36 7.86 5.13 13.16
11/8/2021 1:00:00 PM 4.47 40.046 0.36 7.86 5.12 13.12
11/8/2021 1:15:00 PM 4.67 40.406 0.36 7.87 5.17 13.07
11/8/2021 1:30:00 PM 4.86 40.748 0.36 7.86 5.22 13.04
11/8/2021 1:45:00 PM 5.04 41.072 0.359 7.87 5.17 13.01
11/8/2021 2:00:00 PM 5.22 41.396 0.359 7.88 5.17 12.94
11/8/2021 2:15:00 PM 5.39 41.702 0.36 7.88 5.16 12.88
11/8/2021 2:30:00 PM 5.57 42.026 0.36 7.88 5.18 12.82
11/8/2021 2:45:00 PM 5.73 42.314 0.36 7.88 5.24 12.76
11/8/2021 3:00:00 PM 5.9 42.62 0.36 7.89 5.17 12.69
11/8/2021 3:15:00 PM 6.05 42.89 0.359 7.88 6.05 12.62
11/8/2021 3:30:00 PM 6.17 43.106 0.353 7.89 6.01 12.58
11/8/2021 3:45:00 PM 6.26 43.268 0.36 7.88 5.32 12.52
11/8/2021 4:00:00 PM 6.27 43.286 0.36 7.9 5.24 12.47
11/8/2021 4:15:00 PM 6.28 43.304 0.36 7.9 5.25 12.4
11/8/2021 4:30:00 PM 6.29 43.322 0.36 7.89 6.58 12.36
11/8/2021 4:45:00 PM 6.28 43.304 0.36 7.88 5.98 12.34
11/8/2021 5:00:00 PM 6.24 43.232 0.361 7.89 5.23 12.32
11/8/2021 5:15:00 PM 6.18 43.124 0.361 7.88 5.21 12.29
11/8/2021 5:30:00 PM 6.13 43.034 0.361 7.87 5.18 12.27
11/8/2021 5:45:00 PM 6.06 42.908 0.361 7.86 5.16 12.25
11/8/2021 6:00:00 PM 6.01 42.818 0.361 7.86 6.17 12.26
11/8/2021 6:15:00 PM 5.97 42.746 0.362 7.86 5.21 12.24
11/8/2021 6:30:00 PM 5.93 42.674 0.362 7.85 5.27 12.24
11/8/2021 6:45:00 PM 5.9 42.62 0.362 7.85 5.46 12.22
11/8/2021 7:00:00 PM 5.86 42.548 0.362 7.85 5.65 12.23
11/8/2021 7:15:00 PM 5.85 42.53 0.362 7.85 5.19 12.22
11/8/2021 7:30:00 PM 5.81 42.458 0.362 7.84 5.12 12.21
11/8/2021 7:45:00 PM 5.79 42.422 0.362 7.83 5.15 12.21
11/8/2021 8:00:00 PM 5.76 42.368 0.363 7.84 5.12 12.22
11/8/2021 8:15:00 PM 5.73 42.314 0.363 7.84 5.08 12.21
11/8/2021 8:30:00 PM 5.69 42.242 0.363 7.83 5.04 12.22
11/8/2021 8:45:00 PM 5.66 42.188 0.363 7.83 5.16 12.22
11/8/2021 9:00:00 PM 5.63 42.134 0.363 7.82 5.2 12.21
11/8/2021 9:15:00 PM 5.59 42.062 0.363 7.82 5.39 12.23
11/8/2021 9:30:00 PM 5.55 41.99 0.364 7.83 5.15 12.24
11/8/2021 9:45:00 PM 5.51 41.918 0.364 7.84 5.07 12.26
11/8/2021 10:00:00 PM 5.47 41.846 0.364 7.83 5.09 12.27
11/8/2021 10:15:00 PM 5.43 41.774 0.364 7.83 5.26 12.28
11/8/2021 10:30:00 PM 5.38 41.684 0.364 7.83 5.15 12.29
11/8/2021 10:45:00 PM 5.33 41.594 0.364 7.83 6.03 12.31
11/8/2021 11:00:00 PM 5.28 41.504 0.365 7.82 5.17 12.32
11/8/2021 11:15:00 PM 5.23 41.414 0.365 7.83 5.31 12.33
11/8/2021 11:30:00 PM 5.18 41.324 0.365 7.83 5.07 12.34
11/8/2021 11:45:00 PM 5.14 41.252 0.365 7.83 5.05 12.36
11/9/2021 12:00:00 AM 5.09 41.162 0.365 7.83 5.27 12.38
11/9/2021 12:15:00 AM 5.04 41.072 0.365 7.82 5.14 12.4
11/9/2021 12:30:00 AM 4.99 40.982 0.365 7.83 5.1 12.4
11/9/2021 12:45:00 AM 4.95 40.91 0.366 7.82 5.11 12.42
11/9/2021 1:00:00 AM 4.91 40.838 0.365 7.82 5.1 12.42
11/9/2021 1:15:00 AM 4.86 40.748 0.366 7.82 5.08 12.45
11/9/2021 1:30:00 AM 4.83 40.694 0.366 7.82 5.32 12.45
11/9/2021 1:45:00 AM 4.8 40.64 0.366 7.81 5.59 12.46
11/9/2021 2:00:00 AM 4.76 40.568 0.366 7.82 5.14 12.47
11/9/2021 2:15:00 AM 4.72 40.496 0.366 7.82 5.2 12.49
11/9/2021 2:30:00 AM 4.69 40.442 0.337 7.81 6.08 12.48
11/9/2021 2:45:00 AM 4.66 40.388 0.367 7.81 5.17 12.51
11/9/2021 3:00:00 AM 4.62 40.316 0.367 7.81 5.28 12.52
11/9/2021 3:15:00 AM 4.59 40.262 0.367 7.81 5.29 12.52
11/9/2021 3:30:00 AM 4.56 40.208 0.367 7.82 5.16 12.54
11/9/2021 3:45:00 AM 4.53 40.154 0.368 7.82 5.1 12.55
11/9/2021 4:00:00 AM 4.5 40.1 0.368 7.82 5.07 12.56
11/9/2021 4:15:00 AM 4.47 40.046 0.368 7.81 5.1 12.57
11/9/2021 4:30:00 AM 4.45 40.01 0.368 7.81 5.17 12.57
11/9/2021 4:45:00 AM 4.42 39.956 0.368 7.81 5.15 12.58
11/9/2021 5:00:00 AM 4.39 39.902 0.368 7.81 5.68 12.59
11/9/2021 5:15:00 AM 4.37 39.866 0.368 7.81 5.54 12.6
11/9/2021 5:30:00 AM 4.34 39.812 0.369 7.82 5.23 12.62
11/9/2021 5:45:00 AM 4.32 39.776 0.369 7.82 5.27 12.62
11/9/2021 6:00:00 AM 4.3 39.74 0.369 7.82 5.28 12.64
11/9/2021 6:15:00 AM 4.28 39.704 0.369 7.82 5.29 12.64
11/9/2021 6:30:00 AM 4.25 39.65 0.369 7.82 5.14 12.65
11/9/2021 6:45:00 AM 4.23 39.614 0.369 7.82 5.32 12.66
11/9/2021 7:00:00 AM 4.21 39.578 0.369 7.8 5.14 12.65
11/9/2021 7:15:00 AM 4.18 39.524 0.369 7.81 5.28 12.68
11/9/2021 7:30:00 AM 4.17 39.506 0.37 7.82 5.28 12.71
11/9/2021 7:45:00 AM 4.15 39.47 0.37 7.82 5.35 12.73
11/9/2021 8:00:00 AM 4.14 39.452 0.37 7.82 5.3 12.77
11/9/2021 8:15:00 AM 4.13 39.434 0.37 7.82 5.29 12.79
11/9/2021 8:30:00 AM 4.14 39.452 0.37 7.82 5.21 12.82
11/9/2021 8:45:00 AM 4.16 39.488 0.37 7.82 5.29 12.85
11/9/2021 9:00:00 AM 4.22 39.596 0.37 7.83 5.22 12.87
11/9/2021 9:15:00 AM 4.27 39.686 0.37 7.83 5.29 12.91
11/9/2021 9:30:00 AM 4.31 39.758 0.37 7.84 5.22 12.91
11/9/2021 9:45:00 AM 4.37 39.866 0.37 7.83 5.24 12.91
11/9/2021 10:00:00 AM 4.42 39.956 0.37 7.83 5.41 12.93
11/9/2021 10:15:00 AM 4.47 40.046 0.37 7.85 5.26 12.92
11/9/2021 10:30:00 AM 4.53 40.154 0.37 7.85 5.31 12.93
11/9/2021 10:45:00 AM 4.57 40.226 0.37 7.85 5.28 12.92
11/9/2021 11:00:00 AM 4.62 40.316 0.37 7.85 5.28 12.91
11/9/2021 11:15:00 AM 4.69 40.442 0.37 7.86 5.27 12.91
11/9/2021 11:30:00 AM 4.77 40.586 0.37 7.87 5.36 12.89
11/9/2021 11:45:00 AM 4.85 40.73 0.37 7.87 5.33 12.88
11/9/2021 12:00:00 PM 4.95 40.91 0.37 7.88 5.47 12.84
11/9/2021 12:15:00 PM 5.06 41.108 0.37 7.88 5.24 12.84
11/9/2021 12:30:00 PM 5.2 41.36 0.37 7.87 5.29 12.81
11/9/2021 12:45:00 PM 5.35 41.63 0.37 7.88 6.19 12.77
11/9/2021 1:00:00 PM 5.52 41.936 0.37 7.89 5.36 12.73
11/9/2021 1:15:00 PM 5.73 42.314 0.37 7.89 5.39 12.71
11/9/2021 1:30:00 PM 5.9 42.62 0.371 7.9 5.37 12.67
11/9/2021 1:45:00 PM 6.04 42.872 0.371 7.89 5.35 12.63
11/9/2021 2:00:00 PM 6.19 43.142 0.373 7.9 5.38 12.58
11/9/2021 2:15:00 PM 6.34 43.412 0.374 7.9 6.29 12.54
11/9/2021 2:30:00 PM 6.46 43.628 0.374 7.91 5.36 12.5
11/9/2021 2:45:00 PM 6.63 43.934 0.374 7.92 5.45 12.47
11/9/2021 3:00:00 PM 6.79 44.222 0.373 7.92 5.4 12.43
11/9/2021 3:15:00 PM 6.91 44.438 0.373 7.93 5.45 12.36
11/9/2021 3:30:00 PM 7.07 44.726 0.372 7.93 5.46 12.3
11/9/2021 3:45:00 PM 7.11 44.798 0.372 7.94 5.35 12.24
11/9/2021 4:00:00 PM 7.14 44.852 0.372 7.93 5.63 12.16
11/9/2021 4:15:00 PM 7.19 44.942 0.372 7.94 5.51 12.12
11/9/2021 4:30:00 PM 7.2 44.96 0.371 7.93 5.55 12.07
11/9/2021 4:45:00 PM 7.21 44.978 0.372 7.92 5.51 12.03
11/9/2021 5:00:00 PM 7.19 44.942 0.372 7.92 5.54 12
11/9/2021 5:15:00 PM 7.17 44.906 0.372 7.91 5.4 11.94
11/9/2021 5:30:00 PM 7.13 44.834 0.372 7.9 5.42 11.93
11/9/2021 5:45:00 PM 7.1 44.78 0.372 7.88 5.41 11.9
11/9/2021 6:00:00 PM 7.08 44.744 0.372 7.88 5.45 11.89
11/9/2021 6:15:00 PM 7.05 44.69 0.372 7.87 5.46 11.87
11/9/2021 6:30:00 PM 7.03 44.654 0.372 7.88 5.65 11.85
11/9/2021 6:45:00 PM 7.01 44.618 0.372 7.86 5.4 11.84
11/9/2021 7:00:00 PM 6.99 44.582 0.372 7.86 6.32 11.83
11/9/2021 7:15:00 PM 6.97 44.546 0.373 7.85 5.41 11.83
11/9/2021 7:30:00 PM 6.95 44.51 0.373 7.86 5.54 11.82
11/9/2021 7:45:00 PM 6.93 44.474 0.373 7.86 5.38 11.82
11/9/2021 8:00:00 PM 6.91 44.438 0.373 7.86 5.37 11.82
11/9/2021 8:15:00 PM 6.89 44.402 0.373 7.86 5.52 11.81
11/9/2021 8:30:00 PM 6.87 44.366 0.373 7.85 5.57 11.8
11/9/2021 8:45:00 PM 6.84 44.312 0.373 7.85 5.86 11.79
11/9/2021 9:00:00 PM 6.81 44.258 0.373 7.85 33.38 11.8
11/9/2021 9:15:00 PM 6.77 44.186 0.373 7.85 22.61 11.8
11/9/2021 9:30:00 PM 6.74 44.132 0.374 7.85 6.24 11.8
11/9/2021 9:45:00 PM 6.71 44.078 0.374 7.85 5.97 11.82
11/9/2021 10:00:00 PM 6.68 44.024 0.374 7.84 6.25 11.81
11/9/2021 10:15:00 PM 6.64 43.952 0.374 7.84 6.2 11.83
11/9/2021 10:30:00 PM 6.59 43.862 0.375 7.84 7.12 11.84
11/9/2021 10:45:00 PM 6.57 43.826 0.375 7.85 5.76 11.85
11/9/2021 11:00:00 PM 6.54 43.772 0.375 7.85 5.87 11.85
11/9/2021 11:15:00 PM 6.5 43.7 0.375 7.85 6.39 11.85
11/9/2021 11:30:00 PM 6.46 43.628 0.375 7.84 6.27 11.85
11/9/2021 11:45:00 PM 6.4 43.52 0.375 7.84 6.4 11.88
11/10/2021 12:00:00 AM 6.36 43.448 0.375 7.84 6.42 11.88
11/10/2021 12:15:00 AM 6.32 43.376 0.376 7.84 6.24 11.9
11/10/2021 12:30:00 AM 6.28 43.304 0.376 7.83 5.89 11.91
11/10/2021 12:45:00 AM 6.26 43.268 0.376 7.84 6.09 11.92
11/10/2021 1:00:00 AM 6.22 43.196 0.376 7.82 5.71 11.95
11/10/2021 1:15:00 AM 6.19 43.142 0.376 7.84 6.06 11.94
11/10/2021 1:30:00 AM 6.15 43.07 0.376 7.84 6.04 11.95
11/10/2021 1:45:00 AM 6.12 43.016 0.376 7.83 6.3 11.97
11/10/2021 2:00:00 AM 6.07 42.926 0.376 7.84 6.22 11.97
11/10/2021 2:15:00 AM 6.04 42.872 0.376 7.84 6.28 11.99
11/10/2021 2:30:00 AM 6 42.8 0.376 7.83 6.33 12
11/10/2021 2:45:00 AM 5.97 42.746 0.376 7.83 6.3 12.01
11/10/2021 3:00:00 AM 5.95 42.71 0.376 7.84 6.05 12.02
11/10/2021 3:15:00 AM 5.95 42.71 0.376 7.84 6.19 12.03
11/10/2021 3:30:00 AM 5.95 42.71 0.376 7.83 7.19 12.02
11/10/2021 3:45:00 AM 5.94 42.692 0.376 7.84 6.46 12.04
11/10/2021 4:00:00 AM 5.94 42.692 0.377 7.84 6.42 12.04
11/10/2021 4:15:00 AM 5.94 42.692 0.377 7.84 6.18 12.06
11/10/2021 4:30:00 AM 5.95 42.71 0.377 7.84 5.93 12.05
11/10/2021 4:45:00 AM 5.95 42.71 0.377 7.82 6.1 12.06
11/10/2021 5:00:00 AM 5.92 42.656 0.377 7.84 5.55 12.07
11/10/2021 5:15:00 AM 5.91 42.638 0.377 7.84 5.74 12.06
11/10/2021 5:30:00 AM 5.93 42.674 0.377 7.83 5.64 12.07
11/10/2021 5:45:00 AM 5.93 42.674 0.378 7.83 5.64 12.07
11/10/2021 6:00:00 AM 5.92 42.656 0.378 7.83 5.65 12.07
11/10/2021 6:15:00 AM 5.93 42.674 0.378 7.82 5.61 12.08
11/10/2021 6:30:00 AM 5.93 42.674 0.378 7.84 5.56 12.09
11/10/2021 6:45:00 AM 5.92 42.656 0.379 7.83 6.5 12.07
11/10/2021 7:00:00 AM 5.92 42.656 0.379 7.83 5.71 12.08
11/10/2021 7:15:00 AM 5.91 42.638 0.379 7.82 5.67 12.08
11/10/2021 7:30:00 AM 5.91 42.638 0.379 7.84 5.68 12.11
11/10/2021 7:45:00 AM 5.88 42.584 0.379 7.83 5.81 12.12
11/10/2021 8:00:00 AM 5.87 42.566 0.379 7.84 5.72 12.16
11/10/2021 8:15:00 AM 5.88 42.584 0.38 7.83 5.63 12.2
11/10/2021 8:30:00 AM 5.88 42.584 0.38 7.85 5.61 12.23
11/10/2021 8:45:00 AM 5.9 42.62 0.38 7.85 5.73 12.24
11/10/2021 9:00:00 AM 5.95 42.71 0.38 7.85 5.74 12.3
11/10/2021 9:15:00 AM 6.01 42.818 0.38 7.86 5.62 12.31
11/10/2021 9:30:00 AM 6.06 42.908 0.38 7.86 5.71 12.3
11/10/2021 9:45:00 AM 6.12 43.016 0.38 7.85 5.69 12.34
11/10/2021 10:00:00 AM 6.19 43.142 0.38 7.87 5.73 12.33
11/10/2021 10:15:00 AM 6.16 43.088 0.38 7.88 5.76 12.35
11/10/2021 10:30:00 AM 6.21 43.178 0.38 7.88 5.72 12.33
11/10/2021 10:45:00 AM 6.21 43.178 0.38 7.89 5.71 12.33
11/10/2021 11:00:00 AM 6.25 43.25 0.373 7.88 6.61 12.34
11/10/2021 11:15:00 AM 6.3 43.34 0.38 7.89 5.76 12.33
11/10/2021 11:30:00 AM 6.32 43.376 0.38 7.91 5.75 12.33
11/10/2021 11:45:00 AM 6.37 43.466 0.38 7.91 5.72 12.33
11/10/2021 12:00:00 PM 6.42 43.556 0.38 7.91 5.67 12.31
11/10/2021 12:15:00 PM 6.5 43.7 0.38 7.91 5.75 12.3
11/10/2021 12:30:00 PM 6.59 43.862 0.38 7.92 7.03 12.28
11/10/2021 12:45:00 PM 6.68 44.024 0.38 7.92 5.9 12.29
11/10/2021 1:00:00 PM 6.78 44.204 0.38 7.92 5.71 12.26
11/10/2021 1:15:00 PM 6.97 44.546 0.38 7.92 5.85 12.24
11/10/2021 1:30:00 PM 7.14 44.852 0.38 7.92 5.76 12.22
11/10/2021 1:45:00 PM 7.21 44.978 0.38 7.93 6.71 12.2
11/10/2021 2:00:00 PM 7.33 45.194 0.381 7.93 5.74 12.17
11/10/2021 2:15:00 PM 7.44 45.392 0.381 7.94 5.71 12.14
11/10/2021 2:30:00 PM 7.61 45.698 0.381 7.94 5.89 12.11
11/10/2021 2:45:00 PM 7.68 45.824 0.381 7.95 6.27 12.06
11/10/2021 3:00:00 PM 7.81 46.058 0.381 7.95 6.2 12.02
11/10/2021 3:15:00 PM 7.94 46.292 0.381 7.96 5.79 11.97
11/10/2021 3:30:00 PM 8.02 46.436 0.381 7.96 5.96 11.92
11/10/2021 3:45:00 PM 8.08 46.544 0.381 7.96 5.94 11.87
11/10/2021 4:00:00 PM 8.1 46.58 0.381 7.97 6.12 11.82
11/10/2021 4:15:00 PM 8.15 46.67 0.381 7.97 6.49 11.79
11/10/2021 4:30:00 PM 8.18 46.724 0.381 7.96 6.69 11.75
11/10/2021 4:45:00 PM 8.16 46.688 0.381 7.97 5.68 11.72
11/10/2021 5:00:00 PM 8.11 46.598 0.381 7.95 5.72 11.69
11/10/2021 5:15:00 PM 8.04 46.472 0.381 7.96 5.6 11.68
11/10/2021 5:30:00 PM 7.96 46.328 0.382 7.95 5.64 11.64
11/10/2021 5:45:00 PM 7.89 46.202 0.382 7.94 5.52 11.63
11/10/2021 6:00:00 PM 7.82 46.076 0.382 7.92 5.82 11.62
11/10/2021 6:15:00 PM 7.75 45.95 0.382 7.93 5.7 11.62
11/10/2021 6:30:00 PM 7.69 45.842 0.382 7.91 6.04 11.62
11/10/2021 6:45:00 PM 7.62 45.716 0.382 7.92 5.76 11.62
11/10/2021 7:00:00 PM 7.56 45.608 0.383 7.91 5.63 11.62
11/10/2021 7:15:00 PM 7.5 45.5 0.383 7.91 5.61 11.63
11/10/2021 7:30:00 PM 7.44 45.392 0.383 7.9 6.62 11.64
11/10/2021 7:45:00 PM 7.38 45.284 0.383 7.9 5.65 11.65
11/10/2021 8:00:00 PM 7.32 45.176 0.383 7.9 5.61 11.66
11/10/2021 8:15:00 PM 7.26 45.068 0.383 7.9 5.93 11.66
11/10/2021 8:30:00 PM 7.2 44.96 0.384 7.9 5.61 11.69
11/10/2021 8:45:00 PM 7.14 44.852 0.384 7.9 5.54 11.7
11/10/2021 9:00:00 PM 7.08 44.744 0.384 7.89 5.6 11.7
11/10/2021 9:15:00 PM 7.01 44.618 0.384 7.89 5.59 11.72
11/10/2021 9:30:00 PM 6.96 44.528 0.384 7.89 5.51 11.74
11/10/2021 9:45:00 PM 6.9 44.42 0.384 7.89 5.69 11.75
11/10/2021 10:00:00 PM 6.82 44.276 0.385 7.89 5.53 11.78
11/10/2021 10:15:00 PM 6.76 44.168 0.385 7.88 5.61 11.78
11/10/2021 10:30:00 PM 6.7 44.06 0.385 7.89 5.65 11.81
11/10/2021 10:45:00 PM 6.64 43.952 0.385 7.88 5.79 11.82
11/10/2021 11:00:00 PM 6.57 43.826 0.385 7.89 5.71 11.85
11/10/2021 11:15:00 PM 6.51 43.718 0.386 7.88 5.68 11.87
11/10/2021 11:30:00 PM 6.45 43.61 0.386 7.87 5.48 11.88
11/10/2021 11:45:00 PM 6.39 43.502 0.386 7.88 5.8 11.9
11/11/2021 12:00:00 AM 6.33 43.394 0.386 7.88 5.68 11.92
11/11/2021 12:15:00 AM 6.27 43.286 0.386 7.88 5.53 11.94
11/11/2021 12:30:00 AM 6.2 43.16 0.386 7.87 6.5 11.97
11/11/2021 12:45:00 AM 6.14 43.052 0.386 7.88 5.58 11.98
11/11/2021 1:00:00 AM 6.09 42.962 0.386 7.87 5.64 11.99
11/11/2021 1:15:00 AM 6.03 42.854 0.387 7.87 5.55 12
11/11/2021 1:30:00 AM 5.98 42.764 0.387 7.87 5.59 12.02
11/11/2021 1:45:00 AM 5.92 42.656 0.387 7.87 5.55 12.05
11/11/2021 2:00:00 AM 5.91 42.638 0.387 7.88 5.72 12.06
11/11/2021 2:15:00 AM 5.89 42.602 0.387 7.87 5.58 12.07
11/11/2021 2:30:00 AM 5.86 42.548 0.387 7.88 5.58 12.08
11/11/2021 2:45:00 AM 5.82 42.476 0.387 7.87 5.53 12.1
11/11/2021 3:00:00 AM 5.78 42.404 0.388 7.87 5.52 12.12
11/11/2021 3:15:00 AM 5.75 42.35 0.388 7.88 5.61 12.13
11/11/2021 3:30:00 AM 5.74 42.332 0.388 7.88 5.62 12.14
11/11/2021 3:45:00 AM 5.72 42.296 0.388 7.87 5.98 12.15
11/11/2021 4:00:00 AM 5.71 42.278 0.388 7.87 5.53 12.15
11/11/2021 4:15:00 AM 5.7 42.26 0.388 7.87 5.55 12.15
11/11/2021 4:30:00 AM 5.68 42.224 0.388 7.87 6.68 12.17
11/11/2021 4:45:00 AM 5.65 42.17 0.388 7.87 5.54 12.16
11/11/2021 5:00:00 AM 5.62 42.116 0.388 7.87 5.61 12.18
11/11/2021 5:15:00 AM 5.59 42.062 0.389 7.87 5.66 12.19
11/11/2021 5:30:00 AM 5.56 42.008 0.389 7.87 5.76 12.2
11/11/2021 5:45:00 AM 5.52 41.936 0.389 7.87 6.05 12.21
11/11/2021 6:00:00 AM 5.48 41.864 0.389 7.87 5.61 12.22
11/11/2021 6:15:00 AM 5.44 41.792 0.389 7.86 5.74 12.23
11/11/2021 6:30:00 AM 5.4 41.72 0.389 7.87 5.76 12.24
11/11/2021 6:45:00 AM 5.36 41.648 0.389 7.87 5.77 12.24
11/11/2021 7:00:00 AM 5.33 41.594 0.389 7.87 5.74 12.26
11/11/2021 7:15:00 AM 5.29 41.522 0.389 7.86 5.6 12.27
11/11/2021 7:30:00 AM 5.27 41.486 0.389 7.87 5.58 12.3
11/11/2021 7:45:00 AM 5.25 41.45 0.389 7.88 5.52 12.32
11/11/2021 8:00:00 AM 5.25 41.45 0.39 7.88 5.64 12.36
11/11/2021 8:15:00 AM 5.26 41.468 0.39 7.88 5.6 12.41
11/11/2021 8:30:00 AM 5.28 41.504 0.39 7.88 5.58 12.43
11/11/2021 8:45:00 AM 5.32 41.576 0.39 7.89 5.59 12.49
11/11/2021 9:00:00 AM 5.38 41.684 0.39 7.9 5.64 12.49
11/11/2021 9:15:00 AM 5.45 41.81 0.39 7.9 5.63 12.52
11/11/2021 9:30:00 AM 5.52 41.936 0.39 7.91 5.96 12.56
11/11/2021 9:45:00 AM 5.62 42.116 0.39 7.92 5.63 12.58
11/11/2021 10:00:00 AM 5.7 42.26 0.39 7.91 5.7 12.57
11/11/2021 10:15:00 AM 5.84 42.512 0.39 7.93 5.72 12.59
11/11/2021 10:30:00 AM 5.91 42.638 0.39 7.94 5.63 12.6
11/11/2021 10:45:00 AM 6.02 42.836 0.39 7.93 6.53 12.59
11/11/2021 11:00:00 AM 6.09 42.962 0.39 7.94 5.72 12.57
11/11/2021 11:15:00 AM 6.19 43.142 0.39 7.95 5.8 12.56
11/11/2021 11:30:00 AM 6.24 43.232 0.39 7.96 5.76 12.54
11/11/2021 11:45:00 AM 6.31 43.358 0.39 7.96 5.74 12.52
11/11/2021 12:00:00 PM 6.4 43.52 0.39 7.96 5.73 12.52
11/11/2021 12:15:00 PM 6.47 43.646 0.39 7.96 5.76 12.48
11/11/2021 12:30:00 PM 6.58 43.844 0.39 7.97 5.72 12.46
11/11/2021 12:45:00 PM 6.71 44.078 0.39 7.97 5.76 12.49
11/11/2021 1:00:00 PM 6.84 44.312 0.39 7.98 5.79 12.44
11/11/2021 1:15:00 PM 6.96 44.528 0.39 7.98 5.84 12.42
11/11/2021 1:30:00 PM 7.15 44.87 0.39 7.99 5.81 12.43
11/11/2021 1:45:00 PM 7.21 44.978 0.39 7.98 5.82 12.4
11/11/2021 2:00:00 PM 7.29 45.122 0.39 8 5.95 12.35
11/11/2021 2:15:00 PM 7.4 45.32 0.39 7.99 6.63 12.29
11/11/2021 2:30:00 PM 7.49 45.482 0.39 7.99 5.89 12.28
11/11/2021 2:45:00 PM 7.51 45.518 0.39 8 5.77 12.22
11/11/2021 3:00:00 PM 7.64 45.752 0.39 7.99 6.62 12.19
11/11/2021 3:15:00 PM 7.69 45.842 0.39 8 5.58 12.15
11/11/2021 3:30:00 PM 7.77 45.986 0.39 8 5.68 12.08
11/11/2021 3:45:00 PM 7.8 46.04 0.391 8.01 5.7 12.04
11/11/2021 4:00:00 PM 7.84 46.112 0.391 8.01 5.53 11.97
11/11/2021 4:15:00 PM 7.88 46.184 0.391 8 6.19 11.93
11/11/2021 4:30:00 PM 7.9 46.22 0.39 7.99 5.56 11.89
11/11/2021 4:45:00 PM 7.89 46.202 0.391 7.99 5.46 11.84
11/11/2021 5:00:00 PM 7.88 46.184 0.391 7.99 5.53 11.79
11/11/2021 5:15:00 PM 7.87 46.166 0.391 7.99 5.5 11.75
11/11/2021 5:30:00 PM 7.86 46.148 0.391 7.98 5.75 11.7
11/11/2021 5:45:00 PM 7.87 46.166 0.392 7.97 5.76 11.67
11/11/2021 6:00:00 PM 7.89 46.202 0.392 7.95 5.57 11.62
11/11/2021 6:15:00 PM 7.91 46.238 0.392 7.95 5.53 11.59
11/11/2021 6:30:00 PM 7.92 46.256 0.392 7.94 6.54 11.56
11/11/2021 6:45:00 PM 7.93 46.274 0.392 7.94 5.56 11.54
11/11/2021 7:00:00 PM 7.95 46.31 0.392 7.94 5.47 11.53
11/11/2021 7:15:00 PM 7.98 46.364 0.392 7.94 5.99 11.5
11/11/2021 7:30:00 PM 8.01 46.418 0.392 7.94 5.98 11.48
11/11/2021 7:45:00 PM 8.03 46.454 0.392 7.93 6.43 11.46
11/11/2021 8:00:00 PM 8.04 46.472 0.392 7.93 5.48 11.46
11/11/2021 8:15:00 PM 8.08 46.544 0.392 7.93 5.54 11.43
11/11/2021 8:30:00 PM 8.13 46.634 0.392 7.93 5.5 11.39
11/11/2021 8:45:00 PM 8.18 46.724 0.393 7.91 5.51 11.38
11/11/2021 9:00:00 PM 8.23 46.814 0.393 7.92 5.57 11.37
11/11/2021 9:15:00 PM 8.28 46.904 0.393 7.92 5.91 11.35
11/11/2021 9:30:00 PM 8.3 46.94 0.393 7.92 6.51 11.35
11/11/2021 9:45:00 PM 8.34 47.012 0.393 7.92 5.63 11.33
11/11/2021 10:00:00 PM 8.38 47.084 0.393 7.92 5.64 11.31
11/11/2021 10:15:00 PM 8.41 47.138 0.393 7.92 5.59 11.3
11/11/2021 10:30:00 PM 8.43 47.174 0.393 7.91 5.7 11.29
11/11/2021 10:45:00 PM 8.44 47.192 0.393 7.92 5.56 11.29
11/11/2021 11:00:00 PM 8.47 47.246 0.393 7.92 5.55 11.27
11/11/2021 11:15:00 PM 8.5 47.3 0.393 7.92 5.6 11.25
11/11/2021 11:30:00 PM 8.52 47.336 0.393 7.91 6.44 11.25
11/11/2021 11:45:00 PM 8.56 47.408 0.393 7.91 5.82 11.22
11/12/2021 12:00:00 AM 8.6 47.48 0.393 7.91 5.41 11.19
11/12/2021 12:15:00 AM 8.63 47.534 0.393 7.91 5.49 11.19
11/12/2021 12:30:00 AM 8.64 47.552 0.393 7.91 6.34 11.19
11/12/2021 12:45:00 AM 8.65 47.57 0.393 7.91 5.56 11.18
11/12/2021 1:00:00 AM 8.67 47.606 0.393 7.91 5.59 11.16
11/12/2021 1:15:00 AM 8.69 47.642 0.393 7.9 5.53 11.16
11/12/2021 1:30:00 AM 8.71 47.678 0.392 7.9 6.58 11.15
11/12/2021 1:45:00 AM 8.72 47.696 0.392 7.9 5.57 11.13
11/12/2021 2:00:00 AM 8.75 47.75 0.392 7.9 6.46 11.12
11/12/2021 2:15:00 AM 8.83 47.894 0.389 7.9 6.71 11.1
11/12/2021 2:30:00 AM 8.83 47.894 0.388 7.9 6.09 11.1
11/12/2021 2:45:00 AM 8.84 47.912 0.387 7.89 6.61 11.08
11/12/2021 3:00:00 AM 8.84 47.912 0.388 7.89 6.6 11.07
11/12/2021 3:15:00 AM 8.84 47.912 0.387 7.89 5.89 11.05
11/12/2021 3:30:00 AM 8.86 47.948 0.386 7.89 5.98 11.05
11/12/2021 3:45:00 AM 8.87 47.966 0.385 7.87 6.84 11.04
11/12/2021 4:00:00 AM 8.87 47.966 0.385 7.87 5.88 11.03
11/12/2021 4:15:00 AM 8.87 47.966 0.384 7.85 6.91 11.02
11/12/2021 4:30:00 AM 8.87 47.966 0.385 7.85 5.95 11.02
11/12/2021 4:45:00 AM 8.88 47.984 0.384 7.85 8.42 11.01
11/12/2021 5:00:00 AM 8.88 47.984 0.384 7.85 6.1 11.01
11/12/2021 5:15:00 AM 8.89 48.002 0.384 7.85 6.1 11.01
11/12/2021 5:30:00 AM 8.89 48.002 0.384 7.85 5.87 10.99
11/12/2021 5:45:00 AM 8.87 47.966 0.383 7.86 5.91 11.01
11/12/2021 6:00:00 AM 8.85 47.93 0.383 7.85 5.97 11
11/12/2021 6:15:00 AM 8.84 47.912 0.383 7.86 5.85 11
11/12/2021 6:30:00 AM 8.83 47.894 0.384 7.85 6.9 11.01
11/12/2021 6:45:00 AM 8.81 47.858 0.384 7.85 6.83 11.02
11/12/2021 7:00:00 AM 8.79 47.822 0.384 7.85 5.94 11.01
11/12/2021 7:15:00 AM 8.76 47.768 0.385 7.85 5.76 11.03
11/12/2021 7:30:00 AM 8.73 47.714 0.385 7.85 5.81 11.03
11/12/2021 7:45:00 AM 8.71 47.678 0.386 7.86 6.05 11.05
11/12/2021 8:00:00 AM 8.68 47.624 0.386 7.85 25.53 11.05
11/12/2021 8:15:00 AM 8.64 47.552 0.387 7.85 7.21 11.12
11/12/2021 8:30:00 AM 8.62 47.516 0.387 7.85 7.11 11.13
11/12/2021 8:45:00 AM 8.61 47.498 0.387 7.87 6.11 11.18
11/12/2021 9:00:00 AM 8.63 47.534 0.387 7.87 6.23 11.25
11/12/2021 9:15:00 AM 8.64 47.552 0.387 7.88 6.3 11.28
11/12/2021 9:30:00 AM 8.64 47.552 0.387 7.88 6.27 11.29
11/12/2021 9:45:00 AM 8.63 47.534 0.387 7.89 6.33 11.3
11/12/2021 10:00:00 AM 8.64 47.552 0.387 7.89 6.06 11.35
11/12/2021 10:15:00 AM 8.6 47.48 0.387 7.89 6.07 11.33
11/12/2021 10:30:00 AM 8.62 47.516 0.387 7.89 6.11 11.36
11/12/2021 10:45:00 AM 8.6 47.48 0.387 7.89 6.98 11.38
11/12/2021 11:00:00 AM 8.59 47.462 0.387 7.9 6.28 11.4
11/12/2021 11:15:00 AM 8.59 47.462 0.387 7.91 6.07 11.39
11/12/2021 11:30:00 AM 8.59 47.462 0.387 7.9 6.92 11.4
11/12/2021 11:45:00 AM 8.6 47.48 0.387 7.91 6.1 11.42
11/12/2021 12:00:00 PM 8.62 47.516 0.387 7.92 6.02 11.42
11/12/2021 12:15:00 PM 8.65 47.57 0.387 7.92 6.99 11.45
11/12/2021 12:30:00 PM 8.71 47.678 0.387 7.92 6.2 11.45
11/12/2021 12:45:00 PM 8.77 47.786 0.387 7.93 6.09 11.44
11/12/2021 1:00:00 PM 8.83 47.894 0.387 7.93 6.91 11.45
11/12/2021 1:15:00 PM 8.93 48.074 0.388 7.93 6.1 11.46
11/12/2021 1:30:00 PM 9.07 48.326 0.388 7.94 6.22 11.45
11/12/2021 1:45:00 PM 9.17 48.506 0.388 7.95 6.15 11.44
11/12/2021 2:00:00 PM 9.21 48.578 0.389 7.95 6.15 11.44
11/12/2021 2:15:00 PM 9.25 48.65 0.389 7.96 6.88 11.43
11/12/2021 2:30:00 PM 9.32 48.776 0.389 7.95 6.96 11.39
11/12/2021 2:45:00 PM 9.33 48.794 0.389 7.95 7 11.36
11/12/2021 3:00:00 PM 9.51 49.118 0.39 7.96 6.11 11.36
11/12/2021 3:15:00 PM 9.56 49.208 0.39 7.96 6.2 11.33
11/12/2021 3:30:00 PM 9.59 49.262 0.39 7.96 6.27 11.28
11/12/2021 3:45:00 PM 9.67 49.406 0.39 7.96 7.01 11.29
11/12/2021 4:00:00 PM 9.61 49.298 0.39 7.97 6.93 11.25
11/12/2021 4:15:00 PM 9.58 49.244 0.39 7.96 6.1 11.21
11/12/2021 4:30:00 PM 9.53 49.154 0.39 7.96 6.95 11.19
11/12/2021 4:45:00 PM 9.49 49.082 0.39 7.96 6.08 11.16
11/12/2021 5:00:00 PM 9.41 48.938 0.39 7.95 7.01 11.14
11/12/2021 5:15:00 PM 9.32 48.776 0.39 7.95 6.18 11.12
11/12/2021 5:30:00 PM 9.23 48.614 0.39 7.93 7.1 11.1
11/12/2021 5:45:00 PM 9.14 48.452 0.39 7.93 7.13 11.09
11/12/2021 6:00:00 PM 9.05 48.29 0.39 7.93 6.21 11.09
11/12/2021 6:15:00 PM 8.97 48.146 0.39 7.92 6.36 11.08
11/12/2021 6:30:00 PM 8.89 48.002 0.39 7.92 6.19 11.08
11/12/2021 6:45:00 PM 8.83 47.894 0.389 7.92 6.24 11.08
11/12/2021 7:00:00 PM 8.75 47.75 0.389 7.91 7.3 11.1
11/12/2021 7:15:00 PM 8.69 47.642 0.389 7.9 6.3 11.1
11/12/2021 7:30:00 PM 8.65 47.57 0.389 7.91 6.17 11.11
11/12/2021 7:45:00 PM 8.58 47.444 0.389 7.9 6.17 11.13
11/12/2021 8:00:00 PM 8.51 47.318 0.388 7.9 6.28 11.13
11/12/2021 8:15:00 PM 8.43 47.174 0.388 7.9 6.17 11.13
11/12/2021 8:30:00 PM 8.37 47.066 0.388 7.9 6.22 11.15
11/12/2021 8:45:00 PM 8.31 46.958 0.388 7.89 6.17 11.16
11/12/2021 9:00:00 PM 8.23 46.814 0.388 7.89 6.14 11.17
11/12/2021 9:15:00 PM 8.15 46.67 0.388 7.89 6.08 11.21
11/12/2021 9:30:00 PM 8.08 46.544 0.387 7.89 6.93 11.23
11/12/2021 9:45:00 PM 8 46.4 0.387 7.88 6.17 11.25
11/12/2021 10:00:00 PM 7.92 46.256 0.387 7.88 6.14 11.25
11/12/2021 10:15:00 PM 7.89 46.202 0.387 7.88 6.21 11.27
11/12/2021 10:30:00 PM 7.85 46.13 0.387 7.88 6.16 11.26
11/12/2021 10:45:00 PM 7.76 45.968 0.388 7.88 5.99 11.3
11/12/2021 11:00:00 PM 7.68 45.824 0.388 7.88 6.07 11.32
11/12/2021 11:15:00 PM 7.62 45.716 0.388 7.88 5.97 11.34
11/12/2021 11:30:00 PM 7.56 45.608 0.388 7.88 5.88 11.35
11/12/2021 11:45:00 PM 7.49 45.482 0.388 7.87 6.76 11.38
11/13/2021 12:00:00 AM 7.43 45.374 0.388 7.87 5.74 11.37
11/13/2021 12:15:00 AM 7.38 45.284 0.389 7.88 5.84 11.4
11/13/2021 12:30:00 AM 7.33 45.194 0.389 7.88 5.98 11.42
11/13/2021 12:45:00 AM 7.27 45.086 0.389 7.88 5.74 11.44
11/13/2021 1:00:00 AM 7.22 44.996 0.389 7.87 6.72 11.44
11/13/2021 1:15:00 AM 7.19 44.942 0.389 7.86 5.92 11.46
11/13/2021 1:30:00 AM 7.17 44.906 0.389 7.88 6.03 11.47
11/13/2021 1:45:00 AM 7.15 44.87 0.389 7.87 5.76 11.47
11/13/2021 2:00:00 AM 7.12 44.816 0.389 7.87 6.66 11.49
11/13/2021 2:15:00 AM 7.1 44.78 0.389 7.88 5.87 11.5
11/13/2021 2:30:00 AM 7.07 44.726 0.389 7.88 5.73 11.51
11/13/2021 2:45:00 AM 7.05 44.69 0.389 7.87 5.84 11.51
11/13/2021 3:00:00 AM 7.02 44.636 0.39 7.88 5.81 11.53
11/13/2021 3:15:00 AM 7 44.6 0.39 7.87 5.68 11.53
11/13/2021 3:30:00 AM 6.97 44.546 0.39 7.87 6.51 11.55
11/13/2021 3:45:00 AM 6.94 44.492 0.39 7.87 5.83 11.55
11/13/2021 4:00:00 AM 6.92 44.456 0.383 7.87 6.74 11.56
11/13/2021 4:15:00 AM 6.89 44.402 0.391 7.86 5.54 11.58
11/13/2021 4:30:00 AM 6.86 44.348 0.391 7.87 5.54 11.58
11/13/2021 4:45:00 AM 6.83 44.294 0.391 7.87 5.69 11.6
11/13/2021 5:00:00 AM 6.78 44.204 0.391 7.88 5.66 11.6
11/13/2021 5:15:00 AM 6.73 44.114 0.391 7.88 5.73 11.63
11/13/2021 5:30:00 AM 6.72 44.096 0.391 7.87 5.61 11.61
11/13/2021 5:45:00 AM 6.71 44.078 0.391 7.88 5.62 11.63
11/13/2021 6:00:00 AM 6.7 44.06 0.392 7.87 5.84 11.64
11/13/2021 6:15:00 AM 6.68 44.024 0.392 7.88 5.7 11.65
11/13/2021 6:30:00 AM 6.67 44.006 0.392 7.88 5.6 11.66
11/13/2021 6:45:00 AM 6.65 43.97 0.392 7.88 6.11 11.66
11/13/2021 7:00:00 AM 6.65 43.97 0.392 7.88 5.95 11.65
11/13/2021 7:15:00 AM 6.63 43.934 0.392 7.87 5.73 11.68
11/13/2021 7:30:00 AM 6.62 43.916 0.392 7.88 5.71 11.69
11/13/2021 7:45:00 AM 6.62 43.916 0.392 7.88 5.72 11.68
11/13/2021 8:00:00 AM 6.6 43.88 0.392 7.88 5.85 11.7
11/13/2021 8:15:00 AM 6.6 43.88 0.392 7.88 5.71 11.71
11/13/2021 8:30:00 AM 6.59 43.862 0.392 7.88 5.55 11.72
11/13/2021 8:45:00 AM 6.58 43.844 0.392 7.88 5.81 11.74
11/13/2021 9:00:00 AM 6.57 43.826 0.392 7.89 5.68 11.78
11/13/2021 9:15:00 AM 6.57 43.826 0.392 7.9 5.69 11.83
11/13/2021 9:30:00 AM 6.56 43.808 0.392 7.91 5.62 11.84
11/13/2021 9:45:00 AM 6.56 43.808 0.392 7.91 5.59 11.87
11/13/2021 10:00:00 AM 6.6 43.88 0.392 7.91 5.63 11.93
11/13/2021 10:15:00 AM 6.61 43.898 0.392 7.92 5.69 11.96
11/13/2021 10:30:00 AM 6.63 43.934 0.392 7.93 5.73 12.02
11/13/2021 10:45:00 AM 6.65 43.97 0.393 7.94 5.67 12.04
11/13/2021 11:00:00 AM 6.69 44.042 0.393 7.94 6.08 12.08
11/13/2021 11:15:00 AM 6.69 44.042 0.393 7.94 6.81 12.1
11/13/2021 11:30:00 AM 6.7 44.06 0.393 7.96 5.8 12.12
11/13/2021 11:45:00 AM 6.71 44.078 0.393 7.96 5.96 12.14
11/13/2021 12:00:00 PM 6.67 44.006 0.394 7.97 6.74 12.13
11/13/2021 12:15:00 PM 6.68 44.024 0.394 7.97 5.97 12.13
11/13/2021 12:30:00 PM 6.71 44.078 0.394 7.98 5.67 12.15
11/13/2021 12:45:00 PM 6.77 44.186 0.394 7.97 5.66 12.16
11/13/2021 1:00:00 PM 6.77 44.186 0.394 7.99 5.55 12.17
11/13/2021 1:15:00 PM 6.76 44.168 0.395 7.99 5.57 12.16
11/13/2021 1:30:00 PM 6.74 44.132 0.395 7.99 5.58 12.16
11/13/2021 1:45:00 PM 6.74 44.132 0.395 7.99 5.69 12.14
11/13/2021 2:00:00 PM 6.73 44.114 0.396 8 5.64 12.14
11/13/2021 2:15:00 PM 6.73 44.114 0.397 8 5.59 12.12
11/13/2021 2:30:00 PM 6.72 44.096 0.398 8 5.63 12.12
11/13/2021 2:45:00 PM 6.71 44.078 0.398 7.99 6.6 12.11
11/13/2021 3:00:00 PM 6.77 44.186 0.398 8 5.6 12.13
11/13/2021 3:15:00 PM 6.73 44.114 0.398 8 5.62 12.13
11/13/2021 3:30:00 PM 6.69 44.042 0.398 8 5.57 12.12
11/13/2021 3:45:00 PM 6.64 43.952 0.398 8 5.61 12.07
11/13/2021 4:00:00 PM 6.62 43.916 0.398 8 6.08 12.03
11/13/2021 4:15:00 PM 6.61 43.898 0.398 7.99 5.49 12.01
11/13/2021 4:30:00 PM 6.59 43.862 0.399 7.98 5.49 11.98
11/13/2021 4:45:00 PM 6.56 43.808 0.399 7.98 5.52 11.94
11/13/2021 5:00:00 PM 6.54 43.772 0.399 7.97 5.5 11.92
11/13/2021 5:15:00 PM 6.5 43.7 0.399 7.97 5.44 11.9
11/13/2021 5:30:00 PM 6.47 43.646 0.4 7.95 5.65 11.9
11/13/2021 5:45:00 PM 6.44 43.592 0.4 7.96 5.6 11.9
11/13/2021 6:00:00 PM 6.4 43.52 0.4 7.95 5.49 11.88
11/13/2021 6:15:00 PM 6.37 43.466 0.4 7.94 5.65 11.89
11/13/2021 6:30:00 PM 6.35 43.43 0.4 7.95 5.68 11.9
11/13/2021 6:45:00 PM 6.31 43.358 0.401 7.94 5.53 11.89
11/13/2021 7:00:00 PM 6.27 43.286 0.401 7.94 5.39 11.89
11/13/2021 7:15:00 PM 6.23 43.214 0.401 7.94 5.54 11.89
11/13/2021 7:30:00 PM 6.2 43.16 0.402 7.94 5.44 11.91
11/13/2021 7:45:00 PM 6.17 43.106 0.402 7.94 5.43 11.9
11/13/2021 8:00:00 PM 6.15 43.07 0.402 7.94 5.57 11.92
11/13/2021 8:15:00 PM 6.13 43.034 0.402 7.94 5.74 11.92
11/13/2021 8:30:00 PM 6.1 42.98 0.402 7.93 5.46 11.92
11/13/2021 8:45:00 PM 6.07 42.926 0.403 7.93 5.42 11.93
11/13/2021 9:00:00 PM 6.05 42.89 0.403 7.94 5.53 11.94
11/13/2021 9:15:00 PM 6.01 42.818 0.403 7.93 5.54 11.94
11/13/2021 9:30:00 PM 5.98 42.764 0.403 7.93 5.44 11.95
11/13/2021 9:45:00 PM 5.96 42.728 0.404 7.93 5.83 11.96
11/13/2021 10:00:00 PM 5.93 42.674 0.404 7.93 5.51 11.97
11/13/2021 10:15:00 PM 5.91 42.638 0.404 7.92 5.36 11.99
11/13/2021 10:30:00 PM 5.9 42.62 0.404 7.93 5.55 11.98
11/13/2021 10:45:00 PM 5.88 42.584 0.404 7.93 5.5 11.99
11/13/2021 11:00:00 PM 5.87 42.566 0.404 7.93 5.49 11.98
11/13/2021 11:15:00 PM 5.84 42.512 0.404 7.92 5.55 11.99
11/13/2021 11:30:00 PM 5.82 42.476 0.404 7.92 5.61 12.01
11/13/2021 11:45:00 PM 5.8 42.44 0.404 7.92 5.5 12.01
11/14/2021 12:00:00 AM 5.78 42.404 0.405 7.92 5.64 12.02
11/14/2021 12:15:00 AM 5.77 42.386 0.405 7.92 5.47 12.03
11/14/2021 12:30:00 AM 5.73 42.314 0.405 7.92 5.43 12.03
11/14/2021 12:45:00 AM 5.68 42.224 0.405 7.92 5.43 12.06
11/14/2021 1:00:00 AM 5.63 42.134 0.404 7.92 6.32 12.05
11/14/2021 1:15:00 AM 5.59 42.062 0.405 7.91 5.5 12.06
11/14/2021 1:30:00 AM 5.57 42.026 0.405 7.92 5.47 12.07
11/14/2021 1:45:00 AM 5.55 41.99 0.405 7.92 5.51 12.08
11/14/2021 2:00:00 AM 5.54 41.972 0.405 7.92 5.55 12.08
11/14/2021 2:15:00 AM 5.53 41.954 0.405 7.91 5.53 12.1
11/14/2021 2:30:00 AM 5.51 41.918 0.405 7.92 5.43 12.1
11/14/2021 2:45:00 AM 5.49 41.882 0.405 7.92 5.52 12.1
11/14/2021 3:00:00 AM 5.48 41.864 0.405 7.91 5.55 12.11
11/14/2021 3:15:00 AM 5.47 41.846 0.405 7.92 5.45 12.13
11/14/2021 3:30:00 AM 5.46 41.828 0.405 7.91 5.44 12.13
11/14/2021 3:45:00 AM 5.44 41.792 0.405 7.92 5.47 12.13
11/14/2021 4:00:00 AM 5.43 41.774 0.405 7.92 5.56 12.14
11/14/2021 4:15:00 AM 5.42 41.756 0.406 7.91 5.5 12.15
11/14/2021 4:30:00 AM 5.39 41.702 0.406 7.92 5.55 12.14
11/14/2021 4:45:00 AM 5.38 41.684 0.406 7.92 5.97 12.16
11/14/2021 5:00:00 AM 5.36 41.648 0.406 7.92 5.77 12.17
11/14/2021 5:15:00 AM 5.34 41.612 0.406 7.93 5.49 12.17
11/14/2021 5:30:00 AM 5.33 41.594 0.406 7.92 5.53 12.17
11/14/2021 5:45:00 AM 5.32 41.576 0.406 7.92 5.54 12.18
11/14/2021 6:00:00 AM 5.3 41.54 0.406 7.92 5.72 12.19
11/14/2021 6:15:00 AM 5.28 41.504 0.406 7.92 5.62 12.19
11/14/2021 6:30:00 AM 5.26 41.468 0.406 7.92 5.53 12.2
11/14/2021 6:45:00 AM 5.25 41.45 0.406 7.91 6.4 12.2
11/14/2021 7:00:00 AM 5.23 41.414 0.406 7.92 5.54 12.21
11/14/2021 7:15:00 AM 5.21 41.378 0.406 7.92 5.5 12.23
11/14/2021 7:30:00 AM 5.21 41.378 0.406 7.92 5.53 12.24
11/14/2021 7:45:00 AM 5.21 41.378 0.406 7.92 5.48 12.26
11/14/2021 8:00:00 AM 5.22 41.396 0.406 7.93 5.41 12.29
11/14/2021 8:15:00 AM 5.23 41.414 0.406 7.93 5.47 12.32
11/14/2021 8:30:00 AM 5.24 41.432 0.406 7.92 5.45 12.34
11/14/2021 8:45:00 AM 5.26 41.468 0.405 7.94 5.48 12.38
11/14/2021 9:00:00 AM 5.27 41.486 0.406 7.93 6.32 12.41
11/14/2021 9:15:00 AM 5.28 41.504 0.406 7.95 5.47 12.43
11/14/2021 9:30:00 AM 5.29 41.522 0.406 7.95 5.69 12.46
11/14/2021 9:45:00 AM 5.31 41.558 0.406 7.96 5.48 12.47
11/14/2021 10:00:00 AM 5.4 41.72 0.405 7.95 5.46 12.5
11/14/2021 10:15:00 AM 5.41 41.738 0.405 7.96 6.35 12.53
11/14/2021 10:30:00 AM 5.43 41.774 0.405 7.97 5.49 12.54
11/14/2021 10:45:00 AM 5.46 41.828 0.405 7.97 5.52 12.55
11/14/2021 11:00:00 AM 5.46 41.828 0.405 7.97 5.55 12.56
11/14/2021 11:15:00 AM 5.47 41.846 0.405 7.97 5.49 12.56
11/14/2021 11:30:00 AM 5.47 41.846 0.405 7.98 5.59 12.54
11/14/2021 11:45:00 AM 5.46 41.828 0.405 7.99 5.56 12.55
11/14/2021 12:00:00 PM 5.45 41.81 0.405 7.99 5.56 12.52
11/14/2021 12:15:00 PM 5.45 41.81 0.405 7.99 5.95 12.52
11/14/2021 12:30:00 PM 5.45 41.81 0.405 7.99 5.5 12.51
11/14/2021 12:45:00 PM 5.45 41.81 0.405 7.99 5.45 12.51
11/14/2021 1:00:00 PM 5.45 41.81 0.404 7.99 5.51 12.5
11/14/2021 1:15:00 PM 5.44 41.792 0.404 7.99 5.49 12.5
11/14/2021 1:30:00 PM 5.44 41.792 0.404 7.99 6.41 12.51
11/14/2021 1:45:00 PM 5.46 41.828 0.404 7.98 5.49 12.5
11/14/2021 2:00:00 PM 5.46 41.828 0.404 7.99 5.51 12.5
11/14/2021 2:15:00 PM 5.47 41.846 0.404 8 5.53 12.5
11/14/2021 2:30:00 PM 5.47 41.846 0.404 8 5.51 12.5
11/14/2021 2:45:00 PM 5.46 41.828 0.404 7.99 5.48 12.46
11/14/2021 3:00:00 PM 5.46 41.828 0.404 7.99 5.59 12.43
11/14/2021 3:15:00 PM 5.43 41.774 0.404 7.99 5.44 12.41
11/14/2021 3:30:00 PM 5.43 41.774 0.404 7.98 5.6 12.39
11/14/2021 3:45:00 PM 5.43 41.774 0.403 7.98 6.42 12.4
11/14/2021 4:00:00 PM 5.42 41.756 0.403 7.97 5.64 12.38
11/14/2021 4:15:00 PM 5.37 41.666 0.403 7.98 5.58 12.36
11/14/2021 4:30:00 PM 5.3 41.54 0.402 7.97 5.43 12.34
11/14/2021 4:45:00 PM 5.24 41.432 0.402 7.98 5.56 12.33
11/14/2021 5:00:00 PM 5.12 41.216 0.402 7.96 5.61 12.3
11/14/2021 5:15:00 PM 5.03 41.054 0.401 7.97 5.61 12.3
11/14/2021 5:30:00 PM 4.97 40.946 0.401 7.96 5.7 12.3
11/14/2021 5:45:00 PM 4.93 40.874 0.401 7.95 5.49 12.3
11/14/2021 6:00:00 PM 4.88 40.784 0.401 7.95 5.55 12.3
11/14/2021 6:15:00 PM 4.84 40.712 0.401 7.95 5.72 12.31
11/14/2021 6:30:00 PM 4.82 40.676 0.401 7.94 5.8 12.31
11/14/2021 6:45:00 PM 4.8 40.64 0.401 7.94 5.63 12.31
11/14/2021 7:00:00 PM 4.78 40.604 0.401 7.94 5.67 12.31
11/14/2021 7:15:00 PM 4.78 40.604 0.401 7.93 6.39 12.32
11/14/2021 7:30:00 PM 4.79 40.622 0.401 7.93 6.39 12.33
11/14/2021 7:45:00 PM 4.79 40.622 0.401 7.93 5.63 12.32
11/14/2021 8:00:00 PM 4.8 40.64 0.401 7.93 5.45 12.33
11/14/2021 8:15:00 PM 4.81 40.658 0.401 7.93 5.58 12.33
11/14/2021 8:30:00 PM 4.81 40.658 0.402 7.93 5.53 12.33
11/14/2021 8:45:00 PM 4.81 40.658 0.402 7.93 5.61 12.33
11/14/2021 9:00:00 PM 4.81 40.658 0.402 7.93 5.51 12.32
11/14/2021 9:15:00 PM 4.8 40.64 0.402 7.91 5.44 12.32
11/14/2021 9:30:00 PM 4.79 40.622 0.402 7.92 5.53 12.33
11/14/2021 9:45:00 PM 4.78 40.604 0.402 7.92 5.57 12.33
11/14/2021 10:00:00 PM 4.77 40.586 0.402 7.92 5.51 12.33
11/14/2021 10:15:00 PM 4.76 40.568 0.402 7.91 6.45 12.34
11/14/2021 10:30:00 PM 4.75 40.55 0.403 7.92 5.52 12.34
11/14/2021 10:45:00 PM 4.75 40.55 0.403 7.92 5.51 12.34
11/14/2021 11:00:00 PM 4.74 40.532 0.403 7.92 5.71 12.35
11/14/2021 11:15:00 PM 4.73 40.514 0.403 7.92 5.95 12.35
11/14/2021 11:30:00 PM 4.72 40.496 0.403 7.92 5.71 12.34
11/14/2021 11:45:00 PM 4.71 40.478 0.403 7.92 5.7 12.35
11/15/2021 12:00:00 AM 4.71 40.478 0.403 7.91 5.61 12.33
11/15/2021 12:15:00 AM 4.71 40.478 0.403 7.91 5.6 12.35
11/15/2021 12:30:00 AM 4.7 40.46 0.403 7.91 5.77 12.35
11/15/2021 12:45:00 AM 4.69 40.442 0.403 7.91 5.65 12.35
11/15/2021 1:00:00 AM 4.68 40.424 0.403 7.91 5.7 12.35
11/15/2021 1:15:00 AM 4.66 40.388 0.403 7.91 5.69 12.35
11/15/2021 1:30:00 AM 4.65 40.37 0.403 7.91 5.64 12.36
11/15/2021 1:45:00 AM 4.64 40.352 0.403 7.91 5.62 12.37
11/15/2021 2:00:00 AM 4.63 40.334 0.403 7.9 5.54 12.37
11/15/2021 2:15:00 AM 4.62 40.316 0.403 7.91 5.57 12.38
11/15/2021 2:30:00 AM 4.6 40.28 0.403 7.91 5.59 12.38
11/15/2021 2:45:00 AM 4.57 40.226 0.403 7.91 5.95 12.38
11/15/2021 3:00:00 AM 4.56 40.208 0.403 7.91 5.63 12.38
11/15/2021 3:15:00 AM 4.56 40.208 0.403 7.91 5.61 12.4
11/15/2021 3:30:00 AM 4.55 40.19 0.403 7.9 5.57 12.4
11/15/2021 3:45:00 AM 4.54 40.172 0.404 7.91 5.57 12.38
11/15/2021 4:00:00 AM 4.53 40.154 0.403 7.91 5.7 12.4
11/15/2021 4:15:00 AM 4.52 40.136 0.403 7.91 5.62 12.4
11/15/2021 4:30:00 AM 4.51 40.118 0.404 7.91 5.57 12.41
11/15/2021 4:45:00 AM 4.51 40.118 0.403 7.9 5.57 12.41
11/15/2021 5:00:00 AM 4.51 40.118 0.403 7.9 5.58 12.41
11/15/2021 5:15:00 AM 4.5 40.1 0.403 7.91 5.72 12.42
11/15/2021 5:30:00 AM 4.5 40.1 0.403 7.9 5.74 12.42
11/15/2021 5:45:00 AM 4.49 40.082 0.403 7.91 5.73 12.43
11/15/2021 6:00:00 AM 4.49 40.082 0.403 7.91 5.74 12.43
11/15/2021 6:15:00 AM 4.49 40.082 0.403 7.91 5.78 12.43
11/15/2021 6:30:00 AM 4.47 40.046 0.403 7.9 5.72 12.44
11/15/2021 6:45:00 AM 4.46 40.028 0.403 7.91 5.71 12.45
11/15/2021 7:00:00 AM 4.44 39.992 0.403 7.91 5.68 12.45
11/15/2021 7:15:00 AM 4.43 39.974 0.403 7.91 6.12 12.46
11/15/2021 7:30:00 AM 4.42 39.956 0.402 7.9 6.78 12.47
11/15/2021 7:45:00 AM 4.43 39.974 0.402 7.91 6.78 12.49
11/15/2021 8:00:00 AM 4.41 39.938 0.402 7.91 5.7 12.5
11/15/2021 8:15:00 AM 4.41 39.938 0.401 7.91 5.84 12.53
11/15/2021 8:30:00 AM 4.41 39.938 0.401 7.92 5.65 12.56
11/15/2021 8:45:00 AM 4.45 40.01 0.401 7.92 5.73 12.62